Provisional Data: Tuscarora Creek near Woodhull, NY


Please select a monitoring station.
Please select start date.
Please select start date.

Toggle Unit: C/F Toggle Unit: C/F
Sample Time Temperature (C) Temperature (F) Specific Conductivity (mS/cm) pH   Turbidity (NTU+) DO (mg/L)
10/20/2020 12:00:00 AM 9.16 48.488 0.743 7.36 10.56 9.27
10/20/2020 12:15:00 AM 9.17 48.506 0.743 7.36 9.37 9.19
10/20/2020 12:30:00 AM 9.17 48.506 0.743 7.36 8.48 9.13
10/20/2020 12:45:00 AM 9.18 48.524 0.743 7.36 8.89 9.08
10/20/2020 1:00:00 AM 9.18 48.524 0.743 7.36 7.71 9.08
10/20/2020 1:15:00 AM 9.16 48.488 0.743 7.38 6.98 9.27
10/20/2020 1:30:00 AM 9.16 48.488 0.743 7.36 7.78 9.21
10/20/2020 1:45:00 AM 9.16 48.488 0.743 7.36 7.63 9.19
10/20/2020 2:00:00 AM 9.17 48.506 0.743 7.36 7.73 9.12
10/20/2020 2:15:00 AM 9.19 48.542 0.743 7.35 8.12 9.05
10/20/2020 2:30:00 AM 9.19 48.542 0.743 7.35 8.35 9.02
10/20/2020 2:45:00 AM 9.19 48.542 0.743 7.35 6.91 9.01
10/20/2020 3:00:00 AM 9.18 48.524 0.743 7.36 7.36 9.13
10/20/2020 3:15:00 AM 9.16 48.488 0.743 7.37 7.39 9.17
10/20/2020 3:30:00 AM 9.17 48.506 0.743 7.36 6.62 9.14
10/20/2020 3:45:00 AM 9.17 48.506 0.743 7.36 6.59 9.08
10/20/2020 4:00:00 AM 9.19 48.542 0.743 7.35 8.54 9
10/20/2020 4:15:00 AM 9.21 48.578 0.743 7.34 7.18 8.88
10/20/2020 4:30:00 AM 9.23 48.614 0.743 7.33 7.11 8.82
10/20/2020 4:45:00 AM 9.25 48.65 0.743 7.33 7.01 8.77
10/20/2020 5:00:00 AM 9.24 48.632 0.743 7.34 7.12 8.85
10/20/2020 5:15:00 AM 9.23 48.614 0.743 7.34 7.25 8.89
10/20/2020 5:30:00 AM 9.2 48.56 0.743 7.36 6.58 8.96
10/20/2020 5:45:00 AM 9.2 48.56 0.743 7.35 7.25 9.02
10/20/2020 6:00:00 AM 9.19 48.542 0.743 7.35 6.66 8.97
10/20/2020 6:15:00 AM 9.19 48.542 0.743 7.35 6.44 9
10/20/2020 6:30:00 AM 9.21 48.578 0.743 7.35 8.23 8.99
10/20/2020 6:45:00 AM 9.22 48.596 0.743 7.35 6.4 8.99
10/20/2020 7:00:00 AM 9.24 48.632 0.743 7.36 5.81 9.04
10/20/2020 7:15:00 AM 9.25 48.65 0.743 7.36 5.97 9.03
10/20/2020 7:30:00 AM 9.27 48.686 0.743 7.36 5.77 9.02
10/20/2020 7:45:00 AM 9.29 48.722 0.743 7.35 5.7 9.02
10/20/2020 8:00:00 AM 9.3 48.74 0.743 7.34 7.82 8.95
10/20/2020 8:15:00 AM 9.28 48.704 0.743 7.34 6.33 8.92
10/20/2020 8:30:00 AM 9.27 48.686 0.743 7.34 6.07 8.9
10/20/2020 8:45:00 AM 9.27 48.686 0.743 7.34 6.21 8.88
10/20/2020 9:00:00 AM 9.28 48.704 0.743 7.34 5.84 8.87
10/20/2020 9:15:00 AM 9.3 48.74 0.743 7.34 6.03 8.84
10/20/2020 9:30:00 AM 9.3 48.74 0.743 7.34 5.81 8.83
10/20/2020 9:45:00 AM 9.31 48.758 0.743 7.33 5.76 8.79
10/20/2020 10:00:00 AM 9.32 48.776 0.743 7.33 6.09 8.79
10/20/2020 10:15:00 AM 9.33 48.794 0.743 7.32 5.9 8.76
10/20/2020 10:30:00 AM 9.36 48.848 0.743 7.32 5.55 8.71
10/20/2020 10:45:00 AM 9.36 48.848 0.743 7.32 6.28 8.7
10/20/2020 11:00:00 AM 9.37 48.866 0.743 7.32 6.11 8.66
10/20/2020 11:15:00 AM 9.38 48.884 0.743 7.32 6.43 8.68
10/20/2020 11:30:00 AM 9.38 48.884 0.743 7.32 6.25 8.7
10/20/2020 11:45:00 AM 9.37 48.866 0.743 7.32 5.91 8.71
10/20/2020 12:00:00 PM 9.39 48.902 0.743 7.32 6.01 8.74
10/20/2020 12:15:00 PM 9.42 48.956 0.743 7.31 6.08 8.69
10/20/2020 12:30:00 PM 9.44 48.992 0.743 7.32 6.01 8.67
10/20/2020 12:45:00 PM 9.45 49.01 0.743 7.31 5.78 8.66
10/20/2020 1:00:00 PM 9.47 49.046 0.743 7.32 6.02 8.65
10/20/2020 1:15:00 PM 9.47 49.046 0.743 7.32 6.3 8.69
10/20/2020 1:30:00 PM 9.47 49.046 0.743 7.34 5.86 8.91
10/20/2020 1:45:00 PM 9.47 49.046 0.743 7.33 5.43 8.89
10/20/2020 2:00:00 PM 9.47 49.046 0.743 7.33 5.68 8.86
10/20/2020 2:15:00 PM 9.49 49.082 0.743 7.34 5.45 8.88
10/20/2020 2:30:00 PM 9.5 49.1 0.743 7.33 5.26 8.86
10/20/2020 2:45:00 PM 9.52 49.136 0.743 7.32 5.81 8.79
10/20/2020 3:00:00 PM 9.54 49.172 0.743 7.32 5.35 8.79
10/20/2020 3:15:00 PM 9.54 49.172 0.743 7.33 5.77 8.87
10/20/2020 3:30:00 PM 9.54 49.172 0.743 7.34 5.46 8.85
10/20/2020 3:45:00 PM 9.54 49.172 0.743 7.34 5.62 8.91
10/20/2020 4:00:00 PM 9.52 49.136 0.743 7.33 5.56 8.86
10/20/2020 4:15:00 PM 9.53 49.154 0.743 7.32 5.95 8.8
10/20/2020 4:30:00 PM 9.54 49.172 0.743 7.31 6.02 8.7
10/20/2020 4:45:00 PM 9.53 49.154 0.743 7.32 5.87 8.77
10/20/2020 5:00:00 PM 9.53 49.154 0.743 7.33 5.39 8.75
10/20/2020 5:15:00 PM 9.56 49.208 0.743 7.32 5.58 8.72
10/20/2020 5:30:00 PM 9.57 49.226 0.743 7.33 5.78 8.72
10/20/2020 5:45:00 PM 9.58 49.244 0.743 7.32 5.5 8.68
10/20/2020 6:00:00 PM 9.6 49.28 0.743 7.32 5.34 8.68
10/20/2020 6:15:00 PM 9.6 49.28 0.743 7.31 5.89 8.61
10/20/2020 6:30:00 PM 9.62 49.316 0.743 7.31 6.79 8.57
10/20/2020 6:45:00 PM 9.61 49.298 0.743 7.3 7.7 8.45
10/20/2020 7:00:00 PM 9.61 49.298 0.743 7.3 7.9 8.49
10/20/2020 7:15:00 PM 9.63 49.334 0.743 7.3 6.57 8.54
10/20/2020 7:30:00 PM 9.62 49.316 0.743 7.31 6.49 8.58
10/20/2020 7:45:00 PM 9.61 49.298 0.742 7.32 6.11 8.65
10/20/2020 8:00:00 PM 9.61 49.298 0.742 7.33 6.02 8.64
10/20/2020 8:15:00 PM 9.61 49.298 0.742 7.31 5.91 8.62
10/20/2020 8:30:00 PM 9.62 49.316 0.743 7.32 6.15 8.55
10/20/2020 8:45:00 PM 9.64 49.352 0.743 7.3 5.37 8.44
10/20/2020 9:00:00 PM 9.65 49.37 0.743 7.29 6.09 8.38
10/20/2020 9:15:00 PM 9.65 49.37 0.743 7.29 5.54 8.32
10/20/2020 9:30:00 PM 9.65 49.37 0.743 7.28 6.39 8.22
10/20/2020 9:45:00 PM 9.66 49.388 0.743 7.28 6.87 8.14
10/20/2020 10:00:00 PM 9.65 49.37 0.743 7.29 6.1 8.2
10/20/2020 10:15:00 PM 9.65 49.37 0.743 7.28 6.52 8.25
10/20/2020 10:30:00 PM 9.65 49.37 0.743 7.28 6.19 8.23
10/20/2020 10:45:00 PM 9.65 49.37 0.743 7.28 5.8 8.23
10/20/2020 11:00:00 PM 9.68 49.424 0.743 7.27 7.32 8.09
10/20/2020 11:15:00 PM 9.69 49.442 0.743 7.29 6.41 8.2
10/20/2020 11:30:00 PM 9.68 49.424 0.742 7.29 5.98 8.27
10/20/2020 11:45:00 PM 9.68 49.424 0.742 7.28 6.8 8.29
10/21/2020 12:00:00 AM 9.68 49.424 0.742 7.29 6.59 8.27
10/21/2020 12:15:00 AM 9.71 49.478 0.742 7.28 6.08 8.23
10/21/2020 12:30:00 AM 9.7 49.46 0.742 7.29 5.85 8.18
10/21/2020 12:45:00 AM 9.69 49.442 0.742 7.28 5.9 8.21
10/21/2020 1:00:00 AM 9.69 49.442 0.742 7.28 5.55 8.2
10/21/2020 1:15:00 AM 9.69 49.442 0.742 7.29 5.86 8.19
10/21/2020 1:30:00 AM 9.69 49.442 0.743 7.28 5.51 8.1
10/21/2020 1:45:00 AM 9.69 49.442 0.743 7.27 5.77 8.03
10/21/2020 2:00:00 AM 9.7 49.46 0.743 7.27 5.61 7.99
10/21/2020 2:15:00 AM 9.71 49.478 0.743 7.25 17.78 7.81
10/21/2020 2:30:00 AM 9.71 49.478 0.743 7.25 6.15 7.87
10/21/2020 2:45:00 AM 9.71 49.478 0.743 7.26 5.86 7.89
10/21/2020 3:00:00 AM 9.72 49.496 0.743 7.26 6.07 7.79
10/21/2020 3:15:00 AM 9.77 49.586 0.742 7.26 5.58 7.78
10/21/2020 3:30:00 AM 9.86 49.748 0.741 7.26 7.67 7.73
10/21/2020 3:45:00 AM 9.75 49.55 0.743 7.25 6.15 7.71
10/21/2020 4:00:00 AM 9.76 49.568 0.743 7.26 5.95 7.68
10/21/2020 4:15:00 AM 9.79 49.622 0.742 7.26 6.37 7.62
10/21/2020 4:30:00 AM 9.9 49.82 0.741 7.28 6.12 7.75
10/21/2020 4:45:00 AM 9.87 49.766 0.742 7.26 6.16 7.53
10/21/2020 5:00:00 AM 9.88 49.784 0.742 7.25 5.58 7.48
10/21/2020 5:15:00 AM 9.94 49.892 0.741 7.27 6.48 7.69
10/21/2020 5:30:00 AM 9.98 49.964 0.741 7.29 5.21 7.67
10/21/2020 5:45:00 AM 10.06 50.108 0.738 7.32 5.07 7.94
10/21/2020 6:00:00 AM 10.11 50.198 0.737 7.35 5.29 8.1
10/21/2020 6:15:00 AM 10.2 50.36 0.733 7.39 7.17 8.41
10/21/2020 6:30:00 AM 10.25 50.45 0.731 7.42 5.15 8.69
10/21/2020 6:45:00 AM 10.25 50.45 0.732 7.4 5.52 8.71
10/21/2020 7:00:00 AM 10.28 50.504 0.732 7.43 5.37 8.94
10/21/2020 7:15:00 AM 10.32 50.576 0.731 7.51 5.49 9.34
10/21/2020 7:30:00 AM 10.35 50.63 0.73 7.52 4.8 9.55
10/21/2020 7:45:00 AM 10.37 50.666 0.73 7.54 5.38 9.73
10/21/2020 8:00:00 AM 10.4 50.72 0.729 7.54 6.29 9.76
10/21/2020 8:15:00 AM 10.39 50.702 0.73 7.55 4.83 9.83
10/21/2020 8:30:00 AM 10.39 50.702 0.73 7.55 4.83 9.81
10/21/2020 8:45:00 AM 10.39 50.702 0.73 7.54 4.64 9.82
10/21/2020 9:00:00 AM 10.4 50.72 0.731 7.54 4.68 9.81
10/21/2020 9:15:00 AM 10.42 50.756 0.731 7.55 4.75 9.89
10/21/2020 9:30:00 AM 10.43 50.774 0.731 7.56 4.36 9.93
10/21/2020 9:45:00 AM 10.44 50.792 0.731 7.55 4.58 9.9
10/21/2020 10:00:00 AM 10.47 50.846 0.731 7.56 4.48 9.9
10/21/2020 10:15:00 AM 10.5 50.9 0.731 7.55 4.46 9.97
10/21/2020 10:30:00 AM 10.52 50.936 0.732 7.54 4.39 9.86
10/21/2020 10:45:00 AM 10.55 50.99 0.732 7.53 4.59 9.8
10/21/2020 11:00:00 AM 10.58 51.044 0.732 7.53 4.55 9.76
10/21/2020 11:15:00 AM 10.61 51.098 0.731 7.52 4.93 9.74
10/21/2020 11:30:00 AM 10.61 51.098 0.733 7.51 4.44 9.65
10/21/2020 11:45:00 AM 10.57 51.026 0.732 7.51 4.56 9.75
10/21/2020 12:00:00 PM 10.55 50.99 0.732 7.54 4.41 9.87
10/21/2020 12:15:00 PM 10.58 51.044 0.732 7.54 4.46 9.86
10/21/2020 12:30:00 PM 10.64 51.152 0.731 7.54 4.23 9.86
10/21/2020 12:45:00 PM 10.7 51.26 0.731 7.54 4.5 9.86
10/21/2020 1:00:00 PM 10.77 51.386 0.731 7.52 4.65 9.74
10/21/2020 1:15:00 PM 10.87 51.566 0.73 7.53 5.34 9.87
10/21/2020 1:30:00 PM 10.82 51.476 0.731 7.5 5.13 9.68
10/21/2020 1:45:00 PM 10.85 51.53 0.731 7.5 4.9 9.68
10/21/2020 2:00:00 PM 10.87 51.566 0.731 7.49 4.93 9.64
10/21/2020 2:15:00 PM 10.92 51.656 0.731 7.51 4.58 9.73
10/21/2020 2:30:00 PM 10.95 51.71 0.73 7.53 4.69 9.85
10/21/2020 2:45:00 PM 11.02 51.836 0.729 7.55 4.51 9.97
10/21/2020 3:00:00 PM 11.07 51.926 0.729 7.57 4.46 9.98
10/21/2020 3:15:00 PM 11.05 51.89 0.729 7.52 4.83 9.89
10/21/2020 3:30:00 PM 10.99 51.782 0.731 7.49 5.6 9.73
10/21/2020 3:45:00 PM 11.01 51.818 0.73 7.5 4.73 9.75
10/21/2020 4:00:00 PM 10.95 51.71 0.731 7.49 5.11 9.73
10/21/2020 4:15:00 PM 10.93 51.674 0.731 7.51 4.48 9.81
10/21/2020 4:30:00 PM 10.96 51.728 0.73 7.51 4.66 9.79
10/21/2020 4:45:00 PM 10.98 51.764 0.73 7.51 4.57 9.78
10/21/2020 5:00:00 PM 11.04 51.872 0.73 7.51 4.76 9.84
10/21/2020 5:15:00 PM 11.14 52.052 0.728 7.55 4.69 9.94
10/21/2020 5:30:00 PM 11.09 51.962 0.729 7.54 4.78 9.88
10/21/2020 5:45:00 PM 10.98 51.764 0.73 7.54 4.68 9.96
10/21/2020 6:00:00 PM 10.91 51.638 0.731 7.52 4.59 9.84
10/21/2020 6:15:00 PM 10.94 51.692 0.731 7.51 4.48 9.75
10/21/2020 6:30:00 PM 10.98 51.764 0.73 7.51 4.74 9.68
10/21/2020 6:45:00 PM 11.04 51.872 0.73 7.51 5.15 9.7
10/21/2020 7:00:00 PM 11.06 51.908 0.73 7.5 4.93 9.61
10/21/2020 7:15:00 PM 11.08 51.944 0.73 7.5 4.97 9.55
10/21/2020 7:30:00 PM 11.08 51.944 0.73 7.49 5.09 9.49
10/21/2020 7:45:00 PM 11.07 51.926 0.731 7.46 5.7 9.31
10/21/2020 8:00:00 PM 11.06 51.908 0.731 7.46 5.42 9.11
10/21/2020 8:15:00 PM 11.05 51.89 0.731 7.45 5 9.04
10/21/2020 8:30:00 PM 11.06 51.908 0.731 7.45 4.88 8.96
10/21/2020 8:45:00 PM 11.06 51.908 0.731 7.43 5.02 8.9
10/21/2020 9:00:00 PM 11.05 51.89 0.731 7.43 5.12 8.8
10/21/2020 9:15:00 PM 11.04 51.872 0.731 7.44 5.05 8.77
10/21/2020 9:30:00 PM 11.03 51.854 0.731 7.42 5.09 8.75
10/21/2020 9:45:00 PM 11.03 51.854 0.731 7.42 5.28 8.72
10/21/2020 10:00:00 PM 11.05 51.89 0.731 7.42 4.6 8.76
10/21/2020 10:15:00 PM 11.06 51.908 0.731 7.42 4.82 8.63
10/21/2020 10:30:00 PM 11.07 51.926 0.731 7.42 4.82 8.58
10/21/2020 10:45:00 PM 11.06 51.908 0.731 7.4 4.93 8.54
10/21/2020 11:00:00 PM 11.06 51.908 0.731 7.41 5.38 8.47
10/21/2020 11:15:00 PM 11.05 51.89 0.732 7.41 5.31 8.34
10/21/2020 11:30:00 PM 11.06 51.908 0.731 7.39 4.96 8.31
10/21/2020 11:45:00 PM 11.05 51.89 0.732 7.38 4.79 8.18
10/22/2020 12:00:00 AM 11.06 51.908 0.732 7.37 5.24 8.08
10/22/2020 12:15:00 AM 11.05 51.89 0.732 7.36 5.41 7.97
10/22/2020 12:30:00 AM 11.04 51.872 0.732 7.35 4.97 7.87
10/22/2020 12:45:00 AM 11.05 51.89 0.732 7.35 4.92 7.81
10/22/2020 1:00:00 AM 11.05 51.89 0.732 7.34 4.97 7.66
10/22/2020 1:15:00 AM 11.06 51.908 0.732 7.34 4.8 7.68
10/22/2020 1:30:00 AM 11.06 51.908 0.732 7.33 4.9 7.62
10/22/2020 1:45:00 AM 11.06 51.908 0.732 7.34 5.55 7.58
10/22/2020 2:00:00 AM 11.06 51.908 0.732 7.33 4.72 7.56
10/22/2020 2:15:00 AM 11.07 51.926 0.732 7.33 4.29 7.47
10/22/2020 2:30:00 AM 11.07 51.926 0.732 7.32 4.7 7.43
10/22/2020 2:45:00 AM 11.1 51.98 0.732 7.32 6.48 7.52
10/22/2020 3:00:00 AM 11.09 51.962 0.733 7.28 8.17 7.12
10/22/2020 3:15:00 AM 11.11 51.998 0.733 7.27 8.37 7.03
10/22/2020 3:30:00 AM 11.1 51.98 0.733 7.25 6.92 6.74
10/22/2020 3:45:00 AM 11.1 51.98 0.733 7.24 7.04 6.56
10/22/2020 4:00:00 AM 11.09 51.962 0.733 7.23 7.28 6.36
10/22/2020 4:15:00 AM 11.09 51.962 0.733 7.22 7.45 6.26
10/22/2020 4:30:00 AM 11.09 51.962 0.734 7.21 7.54 6.12
10/22/2020 4:45:00 AM 11.09 51.962 0.734 7.22 7.18 6.05
10/22/2020 5:00:00 AM 11.08 51.944 0.734 7.2 7.07 5.96
10/22/2020 5:15:00 AM 11.09 51.962 0.734 7.23 7.02 5.92
10/22/2020 5:30:00 AM 11.1 51.98 0.733 7.22 7.17 6.07
10/22/2020 5:45:00 AM 11.1 51.98 0.734 7.21 7.51 6.07
10/22/2020 6:00:00 AM 11.12 52.016 0.733 7.26 7.97 6.58
10/22/2020 6:15:00 AM 11.12 52.016 0.733 7.26 6.26 6.64
10/22/2020 6:30:00 AM 11.12 52.016 0.733 7.26 6.85 6.78
10/22/2020 6:45:00 AM 11.15 52.07 0.731 7.38 6.5 7.96
10/22/2020 7:00:00 AM 11.11 51.998 0.732 7.36 5.8 7.92
10/22/2020 7:15:00 AM 11.1 51.98 0.732 7.35 5.67 7.76
10/22/2020 7:30:00 AM 11.1 51.98 0.732 7.34 5.3 7.67
10/22/2020 7:45:00 AM 11.09 51.962 0.732 7.34 5.98 7.57
10/22/2020 8:00:00 AM 11.08 51.944 0.732 7.34 5.39 7.56
10/22/2020 8:15:00 AM 11.1 51.98 0.732 7.34 5.03 7.56
10/22/2020 8:30:00 AM 11.1 51.98 0.732 7.34 5.12 7.51
10/22/2020 8:45:00 AM 11.12 52.016 0.732 7.33 4.75 7.46
10/22/2020 9:00:00 AM 11.11 51.998 0.732 7.33 4.82 7.42
10/22/2020 9:15:00 AM 11.11 51.998 0.732 7.32 4.88 7.39
10/22/2020 9:30:00 AM 11.11 51.998 0.732 7.32 4.85 7.3
10/22/2020 9:45:00 AM 11.12 52.016 0.732 7.31 4.68 7.24
10/22/2020 10:00:00 AM 11.11 51.998 0.732 7.31 5.12 7.27
10/22/2020 10:15:00 AM 11.13 52.034 0.732 7.31 5.03 7.22
10/22/2020 10:30:00 AM 11.13 52.034 0.732 7.31 4.95 7.24
10/22/2020 10:45:00 AM 11.16 52.088 0.732 7.31 4.92 7.21
10/22/2020 11:00:00 AM 11.18 52.124 0.732 7.31 5.2 7.2
10/22/2020 11:15:00 AM 11.21 52.178 0.732 7.31 4.63 7.2
10/22/2020 11:30:00 AM 11.22 52.196 0.732 7.31 5.27 7.19
10/22/2020 11:45:00 AM 11.23 52.214 0.732 7.31 4.98 7.22
10/22/2020 12:00:00 PM 11.26 52.268 0.732 7.3 5.37 7.2
10/22/2020 12:15:00 PM 11.29 52.322 0.732 7.31 4.86 7.17
10/22/2020 12:30:00 PM 11.36 52.448 0.732 7.32 5.5 7.26
10/22/2020 12:45:00 PM 11.4 52.52 0.732 7.3 6.15 7.19
10/22/2020 1:00:00 PM 11.43 52.574 0.732 7.3 5.82 7.18
10/22/2020 1:15:00 PM 11.42 52.556 0.731 7.32 5.55 7.56
10/22/2020 1:30:00 PM 11.47 52.646 0.732 7.32 5.08 7.57
10/22/2020 1:45:00 PM 11.56 52.808 0.731 7.33 5.62 7.57
10/22/2020 2:00:00 PM 11.6 52.88 0.731 7.33 5.69 7.56
10/22/2020 2:15:00 PM 11.64 52.952 0.731 7.33 5.68 7.5
10/22/2020 2:30:00 PM 11.62 52.916 0.729 7.35 5.53 7.68
10/22/2020 2:45:00 PM 11.53 52.754 0.731 7.4 5.27 8.47
10/22/2020 3:00:00 PM 11.5 52.7 0.73 7.42 5.21 8.73
10/22/2020 3:15:00 PM 11.49 52.682 0.73 7.41 5.11 8.67
10/22/2020 3:30:00 PM 11.6 52.88 0.73 7.4 5.18 8.44
10/22/2020 3:45:00 PM 11.73 53.114 0.729 7.4 6.23 8.44
10/22/2020 4:00:00 PM 11.9 53.42 0.728 7.41 7.02 8.4
10/22/2020 4:15:00 PM 11.8 53.24 0.729 7.42 5.49 8.51
10/22/2020 4:30:00 PM 11.66 52.988 0.729 7.42 5.48 8.72
10/22/2020 4:45:00 PM 11.61 52.898 0.73 7.41 5.4 8.58
10/22/2020 5:00:00 PM 11.92 53.456 0.725 7.43 5.9 8.7
10/22/2020 5:15:00 PM 11.81 53.258 0.728 7.42 5.49 8.55
10/22/2020 5:30:00 PM 11.94 53.492 0.726 7.42 5.47 8.54
10/22/2020 5:45:00 PM 11.79 53.222 0.728 7.4 5.59 8.4
10/22/2020 6:00:00 PM 11.79 53.222 0.729 7.39 5.05 8.33
10/22/2020 6:15:00 PM 11.81 53.258 0.728 7.4 5 8.24
10/22/2020 6:30:00 PM 11.86 53.348 0.727 7.42 5.64 8.4
10/22/2020 6:45:00 PM 11.83 53.294 0.728 7.4 5.52 8.39
10/22/2020 7:00:00 PM 11.88 53.384 0.727 7.41 5.21 8.31
10/22/2020 7:15:00 PM 11.85 53.33 0.727 7.4 5.35 8.26
10/22/2020 7:30:00 PM 11.82 53.276 0.728 7.4 5.18 8.24
10/22/2020 7:45:00 PM 11.81 53.258 0.728 7.39 5.05 8.17
10/22/2020 8:00:00 PM 11.83 53.294 0.728 7.39 5.15 8.04
10/22/2020 8:15:00 PM 11.82 53.276 0.728 7.39 5.08 8.05
10/22/2020 8:30:00 PM 11.81 53.258 0.728 7.38 5.17 7.99
10/22/2020 8:45:00 PM 11.82 53.276 0.728 7.38 5.2 7.89
10/22/2020 9:00:00 PM 11.86 53.348 0.727 7.39 6.67 7.94
10/22/2020 9:15:00 PM 11.84 53.312 0.727 7.38 5.93 7.9
10/22/2020 9:30:00 PM 11.84 53.312 0.727 7.38 5.7 7.83
10/22/2020 9:45:00 PM 11.84 53.312 0.727 7.38 5.56 7.8
10/22/2020 10:00:00 PM 11.83 53.294 0.728 7.38 5.1 7.85
10/22/2020 10:15:00 PM 11.82 53.276 0.728 7.38 5.62 7.91
10/22/2020 10:30:00 PM 11.82 53.276 0.728 7.39 6.12 7.95
10/22/2020 10:45:00 PM 11.82 53.276 0.728 7.38 5.47 7.88
10/22/2020 11:00:00 PM 11.87 53.366 0.727 7.38 5.44 7.75
10/22/2020 11:15:00 PM 11.87 53.366 0.727 7.37 5.55 7.62
10/22/2020 11:30:00 PM 11.87 53.366 0.727 7.36 5.31 7.49
10/22/2020 11:45:00 PM 11.86 53.348 0.728 7.35 5.8 7.35
10/23/2020 12:00:00 AM 11.84 53.312 0.728 7.34 5.75 7.28
10/23/2020 12:15:00 AM 11.86 53.348 0.727 7.33 5.61 7.22
10/23/2020 12:30:00 AM 11.85 53.33 0.728 7.33 4.71 7.08
10/23/2020 12:45:00 AM 11.87 53.366 0.728 7.32 5.1 6.95
10/23/2020 1:00:00 AM 11.88 53.384 0.728 7.31 5.08 6.85
10/23/2020 1:15:00 AM 11.88 53.384 0.728 7.3 5.75 6.7
10/23/2020 1:30:00 AM 11.86 53.348 0.728 7.3 5.09 6.63
10/23/2020 1:45:00 AM 11.86 53.348 0.729 7.29 5.4 6.45
10/23/2020 2:00:00 AM 11.9 53.42 0.728 7.28 5.49 6.37
10/23/2020 2:15:00 AM 11.88 53.384 0.728 7.27 5.24 6.19
10/23/2020 2:30:00 AM 11.89 53.402 0.728 7.27 5.22 6.14
10/23/2020 2:45:00 AM 11.88 53.384 0.729 7.25 5.43 5.91
10/23/2020 3:00:00 AM 11.88 53.384 0.728 7.24 5.08 5.76
10/23/2020 3:15:00 AM 11.89 53.402 0.728 7.24 5.1 5.69
10/23/2020 3:30:00 AM 11.91 53.438 0.728 7.24 5.41 5.6
10/23/2020 3:45:00 AM 11.87 53.366 0.729 7.23 5.63 5.51
10/23/2020 4:00:00 AM 11.91 53.438 0.729 7.23 6.49 5.6
10/23/2020 4:15:00 AM 11.89 53.402 0.729 7.22 5.81 5.4
10/23/2020 4:30:00 AM 11.89 53.402 0.729 7.23 7.31 5.38
10/23/2020 4:45:00 AM 11.91 53.438 0.729 7.22 6.48 5.31
10/23/2020 5:00:00 AM 11.91 53.438 0.729 7.21 6.54 5.2
10/23/2020 5:15:00 AM 11.91 53.438 0.729 7.21 6.11 5.11
10/23/2020 5:30:00 AM 11.92 53.456 0.728 7.21 6.34 5.25
10/23/2020 5:45:00 AM 11.91 53.438 0.73 7.2 6.03 5.12
10/23/2020 6:00:00 AM 11.9 53.42 0.729 7.21 6.36 5.03
10/23/2020 6:15:00 AM 11.9 53.42 0.729 7.24 6.23 5.48
10/23/2020 6:30:00 AM 11.92 53.456 0.728 7.25 7.01 5.63
10/23/2020 6:45:00 AM 11.98 53.564 0.727 7.28 6.56 6.01
10/23/2020 7:00:00 AM 11.91 53.438 0.729 7.24 7.11 5.47
10/23/2020 7:15:00 AM 11.97 53.546 0.728 7.23 7.12 5.49
10/23/2020 7:30:00 AM 11.95 53.51 0.728 7.24 7.02 5.49
10/23/2020 7:45:00 AM 11.93 53.474 0.728 7.27 7.42 5.95
10/23/2020 8:00:00 AM 11.93 53.474 0.728 7.28 6.54 6.21
10/23/2020 8:15:00 AM 11.93 53.474 0.728 7.28 6.35 6.14
10/23/2020 8:30:00 AM 11.93 53.474 0.728 7.27 5.7 6.1
10/23/2020 8:45:00 AM 11.95 53.51 0.728 7.26 5.96 6.01
10/23/2020 9:00:00 AM 11.96 53.528 0.728 7.25 5.6 5.92
10/23/2020 9:15:00 AM 11.98 53.564 0.728 7.26 5.33 5.83
10/23/2020 9:30:00 AM 11.97 53.546 0.729 7.27 5.32 5.91
10/23/2020 9:45:00 AM 11.99 53.582 0.728 7.27 5.47 6.09
10/23/2020 10:00:00 AM 12 53.6 0.728 7.3 5.3 6.51
10/23/2020 10:15:00 AM 12.02 53.636 0.728 7.35 5.5 7.05
10/23/2020 10:30:00 AM 12.03 53.654 0.728 7.34 5.48 7.07
10/23/2020 10:45:00 AM 12.04 53.672 0.729 7.34 5.54 7.09
10/23/2020 11:00:00 AM 12.11 53.798 0.728 7.33 5.25 6.91
10/23/2020 11:15:00 AM 12.22 53.996 0.727 7.32 5.44 6.74
10/23/2020 11:30:00 AM 12.27 54.086 0.727 7.33 5.08 6.7
10/23/2020 11:45:00 AM 12.33 54.194 0.726 7.36 11.81 7.07
10/23/2020 12:00:00 PM 12.36 54.248 0.726 7.36 10.36 7.2
10/23/2020 12:15:00 PM 12.34 54.212 0.727 7.35 6.54 7.12
10/23/2020 12:30:00 PM 12.49 54.482 0.725 7.36 6.08 7.11
10/23/2020 12:45:00 PM 12.64 54.752 0.721 7.39 5.84 7.3
10/23/2020 1:00:00 PM 12.83 55.094 0.716 7.38 6.14 7.22
10/23/2020 1:15:00 PM 12.98 55.364 0.708 7.44 4.81 7.57
10/23/2020 1:30:00 PM 12.83 55.094 0.717 7.4 5.33 7.44
10/23/2020 1:45:00 PM 12.45 54.41 0.727 7.35 5.6 7.32
10/23/2020 2:00:00 PM 12.71 54.878 0.72 7.38 5.13 7.36
10/23/2020 2:15:00 PM 12.8 55.04 0.718 7.39 5.17 7.47
10/23/2020 2:30:00 PM 12.8 55.04 0.72 7.4 5.88 7.56
10/23/2020 2:45:00 PM 12.85 55.13 0.718 7.39 5.81 7.61
10/23/2020 3:00:00 PM 12.89 55.202 0.715 7.39 5.14 7.6
10/23/2020 3:15:00 PM 12.91 55.238 0.715 7.39 4.86 7.59
10/23/2020 3:30:00 PM 12.87 55.166 0.717 7.39 5.39 7.66
10/23/2020 3:45:00 PM 13.16 55.688 0.694 7.45 5.16 8.04
10/23/2020 4:00:00 PM 13.03 55.454 0.712 7.44 5.32 8
10/23/2020 4:15:00 PM 12.93 55.274 0.713 7.4 5.18 7.75
10/23/2020 4:30:00 PM 13.04 55.472 0.704 7.43 10.97 7.89
10/23/2020 4:45:00 PM 13.14 55.652 0.706 7.44 4.86 8.04
10/23/2020 5:00:00 PM 13.11 55.598 0.703 7.43 4.89 7.92
10/23/2020 5:15:00 PM 13.12 55.616 0.701 7.42 5.19 7.84
10/23/2020 5:30:00 PM 12.92 55.256 0.715 7.4 5.49 7.63
10/23/2020 5:45:00 PM 12.9 55.22 0.714 7.4 5.36 7.59
10/23/2020 6:00:00 PM 13.04 55.472 0.706 7.43 5.04 7.76
10/23/2020 6:15:00 PM 13.03 55.454 0.711 7.42 5.47 7.61
10/23/2020 6:30:00 PM 12.88 55.184 0.716 7.39 5.63 7.5
10/23/2020 6:45:00 PM 12.91 55.238 0.715 7.38 5.33 7.4
10/23/2020 7:00:00 PM 13.06 55.508 0.706 7.43 5.07 7.66
10/23/2020 7:15:00 PM 13.04 55.472 0.707 7.42 5.26 7.47
10/23/2020 7:30:00 PM 12.95 55.31 0.713 7.39 5.62 7.3
10/23/2020 7:45:00 PM 12.95 55.31 0.712 7.38 5.5 7.14
10/23/2020 8:00:00 PM 13.05 55.49 0.705 7.41 5.06 7.29
10/23/2020 8:15:00 PM 12.99 55.382 0.71 7.38 4.96 7.04
10/23/2020 8:30:00 PM 13 55.4 0.711 7.38 5.17 6.94
10/23/2020 8:45:00 PM 12.99 55.382 0.71 7.38 5.45 6.99
10/23/2020 9:00:00 PM 12.98 55.364 0.711 7.37 5.21 6.88
10/23/2020 9:15:00 PM 13 55.4 0.709 7.37 5.21 6.84
10/23/2020 9:30:00 PM 13 55.4 0.71 7.36 5.79 6.73
10/23/2020 9:45:00 PM 12.99 55.382 0.709 7.35 5.83 6.64
10/23/2020 10:00:00 PM 13.01 55.418 0.708 7.37 5.58 6.82
10/23/2020 10:15:00 PM 12.99 55.382 0.709 7.34 5.3 6.54
10/23/2020 10:30:00 PM 13.01 55.418 0.708 7.34 4.97 6.5
10/23/2020 10:45:00 PM 12.96 55.328 0.709 7.32 5.99 6.18
10/23/2020 11:00:00 PM 12.97 55.346 0.71 7.31 6.15 6.08
10/23/2020 11:15:00 PM 12.99 55.382 0.708 7.32 5.98 6.16
10/23/2020 11:30:00 PM 12.93 55.274 0.71 7.31 5.62 5.96
10/23/2020 11:45:00 PM 12.98 55.364 0.708 7.32 5.5 6.16
10/24/2020 12:00:00 AM 13 55.4 0.706 7.32 6.8 6.32
10/24/2020 12:15:00 AM 12.99 55.382 0.708 7.32 5.65 6.12
10/24/2020 12:30:00 AM 12.98 55.364 0.708 7.32 5.41 6.08
10/24/2020 12:45:00 AM 13 55.4 0.707 7.32 5.47 6.03
10/24/2020 1:00:00 AM 13.03 55.454 0.708 7.31 5.26 6.03
10/24/2020 1:15:00 AM 12.96 55.328 0.709 7.3 6.2 5.74
10/24/2020 1:30:00 AM 12.94 55.292 0.709 7.3 6.57 5.68
10/24/2020 1:45:00 AM 12.96 55.328 0.709 7.32 6.6 5.86
10/24/2020 2:00:00 AM 13 55.4 0.708 7.31 6.02 5.91
10/24/2020 2:15:00 AM 12.98 55.364 0.708 7.3 6.22 5.74
10/24/2020 2:30:00 AM 13.01 55.418 0.707 7.3 5.75 5.77
10/24/2020 2:45:00 AM 13.03 55.454 0.706 7.3 6.01 5.7
10/24/2020 3:00:00 AM 12.99 55.382 0.708 7.27 5.53 5.42
10/24/2020 3:15:00 AM 12.99 55.382 0.708 7.27 5.49 5.39
10/24/2020 3:30:00 AM 12.98 55.364 0.708 7.27 5.34 5.32
10/24/2020 3:45:00 AM 12.95 55.31 0.709 7.27 5.97 5.17
10/24/2020 4:00:00 AM 12.93 55.274 0.711 7.25 5.89 5.07
10/24/2020 4:15:00 AM 12.94 55.292 0.709 7.25 5.97 5.16
10/24/2020 4:30:00 AM 12.97 55.346 0.709 7.25 5.84 5.07
10/24/2020 4:45:00 AM 12.98 55.364 0.709 7.25 5.44 4.98
10/24/2020 5:00:00 AM 13 55.4 0.707 7.25 6.57 5.13
10/24/2020 5:15:00 AM 12.98 55.364 0.708 7.24 5.66 4.82
10/24/2020 5:30:00 AM 12.86 55.148 0.712 7.26 6.39 5.13
10/24/2020 5:45:00 AM 12.89 55.202 0.71 7.27 6.48 5.28
10/24/2020 6:00:00 AM 13.1 55.58 0.701 7.31 6.16 5.71
10/24/2020 6:15:00 AM 13.14 55.652 0.701 7.32 5.75 5.83
10/24/2020 6:30:00 AM 13.03 55.454 0.708 7.27 6.06 5.16
10/24/2020 6:45:00 AM 12.88 55.184 0.713 7.24 6.44 4.7
10/24/2020 7:00:00 AM 12.87 55.166 0.712 7.24 6.3 4.8
10/24/2020 7:15:00 AM 12.88 55.184 0.712 7.24 5.59 4.89
10/24/2020 7:30:00 AM 12.91 55.238 0.712 7.25 5.75 4.91
10/24/2020 7:45:00 AM 12.89 55.202 0.713 7.24 5.72 4.86
10/24/2020 8:00:00 AM 13.11 55.598 0.702 7.3 6.09 5.59
10/24/2020 8:15:00 AM 13.04 55.472 0.706 7.29 5.81 5.32
10/24/2020 8:30:00 AM 13.17 55.706 0.7 7.3 9.33 5.57
10/24/2020 8:45:00 AM 13.02 55.436 0.708 7.26 5.94 4.98
10/24/2020 9:00:00 AM 13.01 55.418 0.708 7.26 6.18 5.04
10/24/2020 9:15:00 AM 12.98 55.364 0.71 7.27 5.63 5.04
10/24/2020 9:30:00 AM 13.01 55.418 0.709 7.27 5.26 5.08
10/24/2020 9:45:00 AM 13.03 55.454 0.709 7.27 5.19 5.04
10/24/2020 10:00:00 AM 13.09 55.562 0.708 7.3 5.83 5.45
10/24/2020 10:15:00 AM 12.98 55.364 0.711 7.28 5.26 4.84
10/24/2020 10:30:00 AM 12.96 55.328 0.711 7.27 5.49 4.79
10/24/2020 10:45:00 AM 13.08 55.544 0.708 7.32 5.2 5.39
10/24/2020 11:00:00 AM 13.23 55.814 0.7 7.38 5.32 6.27
10/24/2020 11:15:00 AM 13.34 56.012 0.696 7.34 9.21 6.27
10/24/2020 11:30:00 AM 13.06 55.508 0.71 7.27 5.93 5.14
10/24/2020 11:45:00 AM 12.93 55.274 0.715 7.24 5.96 4.62
10/24/2020 12:00:00 PM 12.98 55.364 0.714 7.27 6.68 4.96
10/24/2020 12:15:00 PM 13 55.4 0.714 7.32 5.36 5.66
10/24/2020 12:30:00 PM 13.25 55.85 0.704 7.31 5.38 6.24
10/24/2020 12:45:00 PM 13.13 55.634 0.711 7.32 5.45 6.05
10/24/2020 1:00:00 PM 13.21 55.778 0.71 7.36 5.82 6.42
10/24/2020 1:15:00 PM 13.26 55.868 0.709 7.33 5.33 6.22
10/24/2020 1:30:00 PM 13.37 56.066 0.702 7.36 5.31 6.45
10/24/2020 1:45:00 PM 13.46 56.228 0.702 7.35 6.61 6.34
10/24/2020 2:00:00 PM 13.57 56.426 0.7 7.43 5.42 6.59
10/24/2020 2:15:00 PM 13.6 56.48 0.69 7.63 5.39 8.95
10/24/2020 2:30:00 PM 13.63 56.534 0.689 7.71 4.06 9.46
10/24/2020 2:45:00 PM 13.59 56.462 0.693 7.63 4.31 9.07
10/24/2020 3:00:00 PM 13.39 56.102 0.704 7.46 6.69 7.83
10/24/2020 3:15:00 PM 13.57 56.426 0.692 7.68 4.12 9.5
10/24/2020 3:30:00 PM 13.61 56.498 0.692 7.71 7.47 9.51
10/24/2020 3:45:00 PM 13.43 56.174 0.701 7.53 7.43 7.74
10/24/2020 4:00:00 PM 13.41 56.138 0.708 7.53 4.15 7.98
10/24/2020 4:15:00 PM 13.55 56.39 0.697 7.62 3.82 8.82
10/24/2020 4:30:00 PM 13.35 56.03 0.715 7.42 4.85 7.42
10/24/2020 4:45:00 PM 13.29 55.922 0.714 7.41 12.5 7.44
10/24/2020 5:00:00 PM 13.27 55.886 0.714 7.43 4.86 7.55
10/24/2020 5:15:00 PM 13.4 56.12 0.707 7.49 4.44 7.9
10/24/2020 5:30:00 PM 13.42 56.156 0.705 7.52 7.21 8.11
10/24/2020 5:45:00 PM 13.38 56.084 0.71 7.48 4.85 7.85
10/24/2020 6:00:00 PM 13.47 56.246 0.702 7.6 4.35 8.66
10/24/2020 6:15:00 PM 13.38 56.084 0.708 7.51 4.89 8.26
10/24/2020 6:30:00 PM 13.2 55.76 0.714 7.46 4.9 7.75
10/24/2020 6:45:00 PM 13.3 55.94 0.71 7.47 4.37 7.87
10/24/2020 7:00:00 PM 13.3 55.94 0.709 7.47 4.92 7.76
10/24/2020 7:15:00 PM 13.33 55.994 0.709 7.5 4.98 7.89
10/24/2020 7:30:00 PM 13.35 56.03 0.708 7.51 5.78 7.89
10/24/2020 7:45:00 PM 13.36 56.048 0.706 7.51 7.28 8.07
10/24/2020 8:00:00 PM 13.36 56.048 0.705 7.55 8.53 8.18
10/24/2020 8:15:00 PM 13.41 56.138 0.699 7.61 7.91 8.62
10/24/2020 8:30:00 PM 13.38 56.084 0.702 7.59 7.42 8.53
10/24/2020 8:45:00 PM 13.35 56.03 0.7 7.69 5.5 8.76
10/24/2020 9:00:00 PM 13.19 55.742 0.687 7.83 4.14 9.5
10/24/2020 9:15:00 PM 13.03 55.454 0.687 7.81 4.22 9.57
10/24/2020 9:30:00 PM 12.85 55.13 0.687 7.77 3.86 9.46
10/24/2020 9:45:00 PM 12.7 54.86 0.687 7.74 3.42 9.34
10/24/2020 10:00:00 PM 12.56 54.608 0.687 7.73 3.97 9.32
10/24/2020 10:15:00 PM 12.45 54.41 0.687 7.71 4.25 9.29
10/24/2020 10:30:00 PM 12.35 54.23 0.687 7.71 5.11 9.27
10/24/2020 10:45:00 PM 12.26 54.068 0.687 7.71 4.62 9.31
10/24/2020 11:00:00 PM 12.18 53.924 0.687 7.7 4.25 9.32
10/24/2020 11:15:00 PM 12.1 53.78 0.687 7.7 4.15 9.32
10/24/2020 11:30:00 PM 12.05 53.69 0.687 7.7 4.23 9.31
10/24/2020 11:45:00 PM 12 53.6 0.687 7.7 6.31 9.33
10/25/2020 12:00:00 AM 11.93 53.474 0.687 7.7 4.5 9.33
10/25/2020 12:15:00 AM 11.88 53.384 0.686 7.7 4.18 9.36
10/25/2020 12:30:00 AM 11.8 53.24 0.686 7.7 4.84 9.39
10/25/2020 12:45:00 AM 11.74 53.132 0.686 7.7 3.88 9.4
10/25/2020 1:00:00 AM 11.67 53.006 0.686 7.7 4.38 9.41
10/25/2020 1:15:00 AM 11.59 52.862 0.686 7.69 4.09 9.42
10/25/2020 1:30:00 AM 11.51 52.718 0.686 7.7 4.47 9.43
10/25/2020 1:45:00 AM 11.46 52.628 0.686 7.69 4.76 9.4
10/25/2020 2:00:00 AM 11.42 52.556 0.686 7.68 5.56 9.38
10/25/2020 2:15:00 AM 11.37 52.466 0.686 7.68 5.3 9.41
10/25/2020 2:30:00 AM 11.32 52.376 0.686 7.68 4.05 9.41
10/25/2020 2:45:00 AM 11.25 52.25 0.686 7.68 4.68 9.45
10/25/2020 3:00:00 AM 11.18 52.124 0.686 7.69 4.55 9.48
10/25/2020 3:15:00 AM 11.1 51.98 0.686 7.68 3.87 9.5
10/25/2020 3:30:00 AM 11.02 51.836 0.686 7.68 4.61 9.52
10/25/2020 3:45:00 AM 10.92 51.656 0.686 7.68 4.18 9.54
10/25/2020 4:00:00 AM 10.82 51.476 0.687 7.68 4.38 9.56
10/25/2020 4:15:00 AM 10.72 51.296 0.687 7.67 3.98 9.57
10/25/2020 4:30:00 AM 10.62 51.116 0.687 7.66 3.94 9.6
10/25/2020 4:45:00 AM 10.52 50.936 0.687 7.66 3.98 9.62
10/25/2020 5:00:00 AM 10.4 50.72 0.687 7.65 3.91 9.63
10/25/2020 5:15:00 AM 10.28 50.504 0.688 7.63 3.65 9.64
10/25/2020 5:30:00 AM 10.14 50.252 0.688 7.63 3.96 9.65
10/25/2020 5:45:00 AM 10.03 50.054 0.688 7.62 3.61 9.68
10/25/2020 6:00:00 AM 9.9 49.82 0.688 7.62 4.09 9.71
10/25/2020 6:15:00 AM 9.79 49.622 0.688 7.61 3.83 9.73
10/25/2020 6:30:00 AM 9.67 49.406 0.689 7.61 3.76 9.73
10/25/2020 6:45:00 AM 9.54 49.172 0.689 7.6 6.5 9.77
10/25/2020 7:00:00 AM 9.43 48.974 0.689 7.6 3.59 9.83
10/25/2020 7:15:00 AM 9.33 48.794 0.689 7.6 3.71 9.86
10/25/2020 7:30:00 AM 9.21 48.578 0.689 7.59 3.96 9.88
10/25/2020 7:45:00 AM 9.08 48.344 0.689 7.58 3.55 9.93
10/25/2020 8:00:00 AM 8.95 48.11 0.69 7.58 3.42 9.98
10/25/2020 8:15:00 AM 8.82 47.876 0.69 7.58 3.36 9.99
10/25/2020 8:30:00 AM 8.71 47.678 0.69 7.58 3.35 10.09
10/25/2020 8:45:00 AM 8.61 47.498 0.69 7.58 3.63 10.12
10/25/2020 9:00:00 AM 8.54 47.372 0.69 7.58 3.27 10.13
10/25/2020 9:15:00 AM 8.46 47.228 0.69 7.58 3.29 10.21
10/25/2020 9:30:00 AM 8.38 47.084 0.69 7.58 3.24 10.3
10/25/2020 9:45:00 AM 8.32 46.976 0.691 7.58 3.45 10.36
10/25/2020 10:00:00 AM 8.27 46.886 0.691 7.59 3.53 10.45
10/25/2020 10:15:00 AM 8.24 46.832 0.691 7.59 3.79 10.53
10/25/2020 10:30:00 AM 8.23 46.814 0.691 7.59 4.42 10.54
10/25/2020 10:45:00 AM 8.23 46.814 0.691 7.6 3.73 10.65
10/25/2020 11:00:00 AM 8.24 46.832 0.691 7.6 3.83 10.74
10/25/2020 11:15:00 AM 8.24 46.832 0.691 7.61 4 10.78
10/25/2020 11:30:00 AM 8.25 46.85 0.691 7.61 3.56 10.85
10/25/2020 11:45:00 AM 8.27 46.886 0.691 7.62 3.49 10.88
10/25/2020 12:00:00 PM 8.31 46.958 0.692 7.62 3.45 10.94
10/25/2020 12:15:00 PM 8.35 47.03 0.691 7.62 3.38 10.8
10/25/2020 12:30:00 PM 8.42 47.156 0.691 7.62 3.6 10.98
10/25/2020 12:45:00 PM 8.47 47.246 0.691 7.63 3.44 11.05
10/25/2020 1:00:00 PM 8.53 47.354 0.691 7.64 3.54 11.12
10/25/2020 1:15:00 PM 8.57 47.426 0.691 7.63 3.53 11
10/25/2020 1:30:00 PM 8.6 47.48 0.691 7.63 3.52 11.04
10/25/2020 1:45:00 PM 8.64 47.552 0.691 7.63 3.85 11.03
10/25/2020 2:00:00 PM 8.67 47.606 0.691 7.63 3.54 11.07
10/25/2020 2:15:00 PM 8.7 47.66 0.691 7.64 3.69 11.1
10/25/2020 2:30:00 PM 8.73 47.714 0.69 7.64 4.83 11.13
10/25/2020 2:45:00 PM 8.75 47.75 0.69 7.65 3.51 11.05
10/25/2020 3:00:00 PM 8.78 47.804 0.69 7.63 3.43 11.02
10/25/2020 3:15:00 PM 8.8 47.84 0.69 7.63 3.68 10.97
10/25/2020 3:30:00 PM 8.82 47.876 0.69 7.63 3.47 10.96
10/25/2020 3:45:00 PM 8.84 47.912 0.69 7.63 3.55 10.94
10/25/2020 4:00:00 PM 8.87 47.966 0.69 7.63 3.44 10.94
10/25/2020 4:15:00 PM 8.9 48.02 0.69 7.64 3.39 11.03
10/25/2020 4:30:00 PM 8.95 48.11 0.69 7.64 3.58 11.07
10/25/2020 4:45:00 PM 8.98 48.164 0.69 7.64 3.59 10.99
10/25/2020 5:00:00 PM 9.01 48.218 0.689 7.64 3.44 11.02
10/25/2020 5:15:00 PM 9.04 48.272 0.689 7.64 3.57 11.02
10/25/2020 5:30:00 PM 9.05 48.29 0.69 7.63 3.75 10.99
10/25/2020 5:45:00 PM 9.04 48.272 0.689 7.64 3.98 11.02
10/25/2020 6:00:00 PM 9.02 48.236 0.689 7.65 3.68 11.02
10/25/2020 6:15:00 PM 9.03 48.254 0.69 7.64 3.55 10.98
10/25/2020 6:30:00 PM 9.04 48.272 0.69 7.64 3.78 10.93
10/25/2020 6:45:00 PM 9.03 48.254 0.69 7.63 4.14 10.91
10/25/2020 7:00:00 PM 9.01 48.218 0.689 7.63 4.23 10.91
10/25/2020 7:15:00 PM 9.01 48.218 0.69 7.63 3.74 10.88
10/25/2020 7:30:00 PM 9.01 48.218 0.69 7.63 3.73 10.82
10/25/2020 7:45:00 PM 9.02 48.236 0.69 7.62 3.64 10.77
10/25/2020 8:00:00 PM 9.04 48.272 0.69 7.61 3.78 10.72
10/25/2020 8:15:00 PM 9.05 48.29 0.69 7.61 3.77 10.68
10/25/2020 8:30:00 PM 9.06 48.308 0.69 7.61 3.67 10.62
10/25/2020 8:45:00 PM 9.08 48.344 0.69 7.6 3.72 10.58
10/25/2020 9:00:00 PM 9.1 48.38 0.69 7.6 4 10.53
10/25/2020 9:15:00 PM 9.11 48.398 0.69 7.59 3.92 10.45
10/25/2020 9:30:00 PM 9.13 48.434 0.69 7.59 4.06 10.43
10/25/2020 9:45:00 PM 9.15 48.47 0.69 7.58 4.12 10.39
10/25/2020 10:00:00 PM 9.16 48.488 0.69 7.58 3.98 10.35
10/25/2020 10:15:00 PM 9.18 48.524 0.691 7.58 4.24 10.32
10/25/2020 10:30:00 PM 9.19 48.542 0.691 7.59 4.76 10.3
10/25/2020 10:45:00 PM 9.19 48.542 0.691 7.59 4.5 10.28
10/25/2020 11:00:00 PM 9.2 48.56 0.691 7.58 4.43 10.21
10/25/2020 11:15:00 PM 9.22 48.596 0.691 7.57 4.23 10.14
10/25/2020 11:30:00 PM 9.3 48.74 0.691 7.57 7.43 10.15
10/25/2020 11:45:00 PM 9.33 48.794 0.691 7.6 7.97 10.24
10/26/2020 12:00:00 AM 9.33 48.794 0.691 7.59 8.21 10.22
10/26/2020 12:15:00 AM 9.39 48.902 0.691 7.62 8.59 10.31
10/26/2020 12:30:00 AM 9.41 48.938 0.691 7.62 8.47 10.3
10/26/2020 12:45:00 AM 9.39 48.902 0.691 7.6 8.03 10.26
10/26/2020 1:00:00 AM 9.39 48.902 0.691 7.59 8.61 10.18
10/26/2020 1:15:00 AM 9.4 48.92 0.691 7.59 6.94 10.14
10/26/2020 1:30:00 AM 9.41 48.938 0.691 7.59 6.11 10.14
10/26/2020 1:45:00 AM 9.41 48.938 0.691 7.64 4.93 10.23
10/26/2020 2:00:00 AM 9.41 48.938 0.692 7.65 6 10.21
10/26/2020 2:15:00 AM 9.4 48.92 0.691 7.66 6.14 10.22
10/26/2020 2:30:00 AM 9.37 48.866 0.691 7.69 4.23 10.3
10/26/2020 2:45:00 AM 9.36 48.848 0.691 7.7 3.48 10.32
10/26/2020 3:00:00 AM 9.35 48.83 0.691 7.69 3.74 10.29
10/26/2020 3:15:00 AM 9.34 48.812 0.691 7.68 7.69 10.24
10/26/2020 3:30:00 AM 9.32 48.776 0.691 7.68 4.88 10.24
10/26/2020 3:45:00 AM 9.29 48.722 0.691 7.69 3.54 10.26
10/26/2020 4:00:00 AM 9.27 48.686 0.691 7.69 3.34 10.24
10/26/2020 4:15:00 AM 9.27 48.686 0.691 7.68 5.52 10.22
10/26/2020 4:30:00 AM 9.27 48.686 0.691 7.67 4.86 10.18
10/26/2020 4:45:00 AM 9.25 48.65 0.69 7.68 3.74 10.18
10/26/2020 5:00:00 AM 9.23 48.614 0.69 7.68 3.36 10.22
10/26/2020 5:15:00 AM 9.22 48.596 0.689 7.67 3.18 10.19
10/26/2020 5:30:00 AM 9.23 48.614 0.689 7.67 3.59 10.18
10/26/2020 5:45:00 AM 9.22 48.596 0.688 7.67 3.15 10.18
10/26/2020 6:00:00 AM 9.22 48.596 0.687 7.67 3.34 10.18
10/26/2020 6:15:00 AM 9.22 48.596 0.687 7.67 3.26 10.16
10/26/2020 6:30:00 AM 9.22 48.596 0.687 7.67 3.18 10.16
10/26/2020 6:45:00 AM 9.21 48.578 0.687 7.66 3.04 10.15
10/26/2020 7:00:00 AM 9.21 48.578 0.687 7.66 5.88 10.13
10/26/2020 7:15:00 AM 9.21 48.578 0.688 7.66 6.09 10.12
10/26/2020 7:30:00 AM 9.23 48.614 0.689 7.67 7.85 10.12
10/26/2020 7:45:00 AM 9.24 48.632 0.689 7.67 7.96 10.1
10/26/2020 8:00:00 AM 9.2 48.56 0.687 7.64 4.18 10.02
10/26/2020 8:15:00 AM 9.2 48.56 0.687 7.64 4.91 10.03
10/26/2020 8:30:00 AM 9.16 48.488 0.686 7.65 3.68 10.15
10/26/2020 8:45:00 AM 9.13 48.434 0.687 7.65 3.01 10.2
10/26/2020 9:00:00 AM 9.12 48.416 0.687 7.65 3.21 10.2
10/26/2020 9:15:00 AM 9.12 48.416 0.687 7.65 3.04 10.21
10/26/2020 9:30:00 AM 9.11 48.398 0.687 7.65 2.99 10.24
10/26/2020 9:45:00 AM 9.12 48.416 0.687 7.64 3.08 10.21
10/26/2020 10:00:00 AM 9.13 48.434 0.687 7.64 3.13 10.21
10/26/2020 10:15:00 AM 9.14 48.452 0.687 7.64 3.12 10.21
10/26/2020 10:30:00 AM 9.13 48.434 0.686 7.65 3.02 10.26
10/26/2020 10:45:00 AM 9.13 48.434 0.686 7.65 3.01 10.28
10/26/2020 11:00:00 AM 9.15 48.47 0.686 7.64 3.06 10.27
10/26/2020 11:15:00 AM 9.16 48.488 0.686 7.64 3.11 10.22
10/26/2020 11:30:00 AM 9.17 48.506 0.686 7.64 3.35 10.25
10/26/2020 11:45:00 AM 9.19 48.542 0.686 7.64 2.92 10.22
10/26/2020 12:00:00 PM 9.2 48.56 0.686 7.64 5.06 10.22
10/26/2020 12:15:00 PM 9.22 48.596 0.686 7.64 3.15 10.24
10/26/2020 12:30:00 PM 9.23 48.614 0.686 7.64 2.9 10.24
10/26/2020 12:45:00 PM 9.23 48.614 0.686 7.65 3.12 10.29
10/26/2020 1:00:00 PM 9.24 48.632 0.686 7.65 2.91 10.3
10/26/2020 1:15:00 PM 9.24 48.632 0.686 7.64 3.13 10.28
10/26/2020 1:30:00 PM 9.26 48.668 0.686 7.64 3.05 10.25
10/26/2020 1:45:00 PM 9.27 48.686 0.686 7.64 3.4 10.26
10/26/2020 2:00:00 PM 9.28 48.704 0.686 7.64 3.62 10.25
10/26/2020 2:15:00 PM 9.29 48.722 0.686 7.64 3.23 10.25
10/26/2020 2:30:00 PM 9.31 48.758 0.686 7.64 3.17 10.24
10/26/2020 2:45:00 PM 9.33 48.794 0.686 7.64 3.02 10.29
10/26/2020 3:00:00 PM 9.34 48.812 0.686 7.64 3.5 10.29
10/26/2020 3:15:00 PM 9.36 48.848 0.686 7.64 3.13 10.3
10/26/2020 3:30:00 PM 9.37 48.866 0.686 7.64 3.19 10.29
10/26/2020 3:45:00 PM 9.4 48.92 0.686 7.64 3.22 10.31
10/26/2020 4:00:00 PM 9.41 48.938 0.686 7.64 3.24 10.27
10/26/2020 4:15:00 PM 9.42 48.956 0.686 7.64 3.17 10.25
10/26/2020 4:30:00 PM 9.42 48.956 0.686 7.63 3 10.26
10/26/2020 4:45:00 PM 9.44 48.992 0.686 7.64 3.23 10.26
10/26/2020 5:00:00 PM 9.45 49.01 0.686 7.63 4.1 10.21
10/26/2020 5:15:00 PM 9.46 49.028 0.686 7.63 3.6 10.2
10/26/2020 5:30:00 PM 9.47 49.046 0.686 7.62 3.27 10.17
10/26/2020 5:45:00 PM 9.48 49.064 0.686 7.62 3.66 10.12
10/26/2020 6:00:00 PM 9.47 49.046 0.686 7.62 3.3 10.13
10/26/2020 6:15:00 PM 9.47 49.046 0.686 7.62 3.42 10.13
10/26/2020 6:30:00 PM 9.46 49.028 0.686 7.63 3.23 10.18
10/26/2020 6:45:00 PM 9.46 49.028 0.686 7.63 3.47 10.19
10/26/2020 7:00:00 PM 9.46 49.028 0.686 7.62 3.23 10.16
10/26/2020 7:15:00 PM 9.47 49.046 0.686 7.62 3.09 10.09
10/26/2020 7:30:00 PM 9.48 49.064 0.686 7.61 3.3 10.04
10/26/2020 7:45:00 PM 9.49 49.082 0.686 7.61 3.4 10.01
10/26/2020 8:00:00 PM 9.49 49.082 0.686 7.62 3.61 10.06
10/26/2020 8:15:00 PM 9.48 49.064 0.686 7.61 3.78 10.09
10/26/2020 8:30:00 PM 9.48 49.064 0.686 7.62 3.39 10.07
10/26/2020 8:45:00 PM 9.48 49.064 0.686 7.61 3.72 10.03
10/26/2020 9:00:00 PM 9.48 49.064 0.686 7.61 3.37 10
10/26/2020 9:15:00 PM 9.5 49.1 0.686 7.6 4.71 9.95
10/26/2020 9:30:00 PM 9.49 49.082 0.686 7.62 3.41 10.08
10/26/2020 9:45:00 PM 9.49 49.082 0.686 7.61 3.65 10.06
10/26/2020 10:00:00 PM 9.49 49.082 0.686 7.6 3.6 10.03
10/26/2020 10:15:00 PM 9.5 49.1 0.686 7.6 3.46 9.99
10/26/2020 10:30:00 PM 9.51 49.118 0.686 7.6 3.33 9.96
10/26/2020 10:45:00 PM 9.52 49.136 0.686 7.6 3.51 9.91
10/26/2020 11:00:00 PM 9.53 49.154 0.686 7.59 3.39 9.85
10/26/2020 11:15:00 PM 9.55 49.19 0.686 7.58 4.07 9.77
10/26/2020 11:30:00 PM 9.55 49.19 0.686 7.59 3.88 9.79
10/26/2020 11:45:00 PM 9.55 49.19 0.686 7.58 3.9 9.83
10/27/2020 12:00:00 AM 9.55 49.19 0.686 7.58 3.76 9.82
10/27/2020 12:15:00 AM 9.55 49.19 0.686 7.58 4.25 9.8
10/27/2020 12:30:00 AM 9.55 49.19 0.686 7.58 4 9.77
10/27/2020 12:45:00 AM 9.55 49.19 0.686 7.57 3.69 9.75
10/27/2020 1:00:00 AM 9.56 49.208 0.686 7.57 4.27 9.73
10/27/2020 1:15:00 AM 9.56 49.208 0.686 7.57 3.86 9.7
10/27/2020 1:30:00 AM 9.56 49.208 0.686 7.57 4.3 9.7
10/27/2020 1:45:00 AM 9.58 49.244 0.686 7.57 3.92 9.7
10/27/2020 2:00:00 AM 9.59 49.262 0.686 7.57 3.92 9.7
10/27/2020 2:15:00 AM 9.59 49.262 0.686 7.57 3.93 9.67
10/27/2020 2:30:00 AM 9.58 49.244 0.686 7.58 3.95 9.7
10/27/2020 2:45:00 AM 9.58 49.244 0.686 7.58 4.08 9.75
10/27/2020 3:00:00 AM 9.59 49.262 0.686 7.56 5.13 9.66
10/27/2020 3:15:00 AM 9.6 49.28 0.686 7.56 5.05 9.63
10/27/2020 3:30:00 AM 9.59 49.262 0.686 7.56 6.77 9.64
10/27/2020 3:45:00 AM 9.61 49.298 0.686 7.55 5.54 9.58
10/27/2020 4:00:00 AM 9.61 49.298 0.686 7.55 6.06 9.56
10/27/2020 4:15:00 AM 9.62 49.316 0.686 7.55 5.51 9.52
10/27/2020 4:30:00 AM 9.62 49.316 0.686 7.54 5.37 9.48
10/27/2020 4:45:00 AM 9.63 49.334 0.686 7.54 6.53 9.42
10/27/2020 5:00:00 AM 9.63 49.334 0.686 7.53 5.27 9.37
10/27/2020 5:15:00 AM 9.64 49.352 0.686 7.53 5.59 9.34
10/27/2020 5:30:00 AM 9.64 49.352 0.687 7.53 6.54 9.33
10/27/2020 5:45:00 AM 9.64 49.352 0.686 7.53 6.32 9.32
10/27/2020 6:00:00 AM 9.65 49.37 0.687 7.53 5.15 9.27
10/27/2020 6:15:00 AM 9.66 49.388 0.687 7.52 5.44 9.22
10/27/2020 6:30:00 AM 9.66 49.388 0.687 7.51 5.34 9.18
10/27/2020 6:45:00 AM 9.65 49.37 0.687 7.52 6.16 9.23
10/27/2020 7:00:00 AM 9.66 49.388 0.687 7.51 5.36 9.21
10/27/2020 7:15:00 AM 9.67 49.406 0.686 7.52 5 9.18
10/27/2020 7:30:00 AM 9.67 49.406 0.686 7.53 4.97 9.24
10/27/2020 7:45:00 AM 9.64 49.352 0.681 7.58 5.93 9.63
10/27/2020 8:00:00 AM 9.61 49.298 0.68 7.61 4.07 9.88
10/27/2020 8:15:00 AM 9.56 49.208 0.679 7.62 4.13 9.98
10/27/2020 8:30:00 AM 9.55 49.19 0.679 7.61 3.62 10
10/27/2020 8:45:00 AM 9.53 49.154 0.68 7.61 3.65 10
10/27/2020 9:00:00 AM 9.52 49.136 0.68 7.61 3.34 10.02
10/27/2020 9:15:00 AM 9.52 49.136 0.68 7.6 3.63 9.93
10/27/2020 9:30:00 AM 9.49 49.082 0.68 7.61 3.65 10.07
10/27/2020 9:45:00 AM 9.48 49.064 0.681 7.61 13.12 10.1
10/27/2020 10:00:00 AM 9.48 49.064 0.681 7.62 3.84 10.12
10/27/2020 10:15:00 AM 9.49 49.082 0.681 7.62 3.45 10.14
10/27/2020 10:30:00 AM 9.47 49.046 0.681 7.62 3.15 10.09
10/27/2020 10:45:00 AM 9.49 49.082 0.681 7.62 3.13 10.18
10/27/2020 11:00:00 AM 9.51 49.118 0.682 7.63 3.07 10.23
10/27/2020 11:15:00 AM 9.53 49.154 0.682 7.63 5.74 10.26
10/27/2020 11:30:00 AM 9.54 49.172 0.682 7.63 2.99 10.34
10/27/2020 11:45:00 AM 9.56 49.208 0.682 7.63 3.08 10.37
10/27/2020 12:00:00 PM 9.58 49.244 0.682 7.64 2.98 10.39
10/27/2020 12:15:00 PM 9.61 49.298 0.682 7.64 3.01 10.47
10/27/2020 12:30:00 PM 9.63 49.334 0.682 7.64 2.88 10.5
10/27/2020 12:45:00 PM 9.66 49.388 0.682 7.65 2.83 10.56
10/27/2020 1:00:00 PM 9.68 49.424 0.682 7.64 2.95 10.54
10/27/2020 1:15:00 PM 9.7 49.46 0.682 7.65 2.91 10.56
10/27/2020 1:30:00 PM 9.71 49.478 0.682 7.65 2.96 10.57
10/27/2020 1:45:00 PM 9.73 49.514 0.682 7.65 3 10.56
10/27/2020 2:00:00 PM 9.75 49.55 0.682 7.66 2.88 10.66
10/27/2020 2:15:00 PM 9.75 49.55 0.682 7.66 2.96 10.67
10/27/2020 2:30:00 PM 9.76 49.568 0.682 7.66 2.96 10.68
10/27/2020 2:45:00 PM 9.77 49.586 0.682 7.66 3.01 10.65
10/27/2020 3:00:00 PM 9.79 49.622 0.682 7.65 3 10.63
10/27/2020 3:15:00 PM 9.8 49.64 0.682 7.66 2.92 10.64
10/27/2020 3:30:00 PM 9.82 49.676 0.682 7.65 3.03 10.59
10/27/2020 3:45:00 PM 9.84 49.712 0.682 7.65 3.24 10.66
10/27/2020 4:00:00 PM 9.85 49.73 0.682 7.65 3.05 10.63
10/27/2020 4:15:00 PM 9.86 49.748 0.682 7.65 2.98 10.6
10/27/2020 4:30:00 PM 9.87 49.766 0.682 7.66 3.38 10.64
10/27/2020 4:45:00 PM 9.89 49.802 0.682 7.66 3.16 10.63
10/27/2020 5:00:00 PM 9.91 49.838 0.682 7.67 3.76 10.63
10/27/2020 5:15:00 PM 9.92 49.856 0.682 7.67 3.15 10.63
10/27/2020 5:30:00 PM 9.93 49.874 0.682 7.68 3.57 10.65
10/27/2020 5:45:00 PM 9.95 49.91 0.682 7.69 3.41 10.67
10/27/2020 6:00:00 PM 9.97 49.946 0.682 7.68 3.83 10.7
10/27/2020 6:15:00 PM 9.99 49.982 0.682 7.7 3.91 10.7
10/27/2020 6:30:00 PM 10 50 0.683 7.66 4.89 10.56
10/27/2020 6:45:00 PM 10.02 50.036 0.683 7.67 4.65 10.6
10/27/2020 7:00:00 PM 10.02 50.036 0.682 7.67 4.69 10.53
10/27/2020 7:15:00 PM 10.01 50.018 0.682 7.66 4.43 10.49
10/27/2020 7:30:00 PM 10.01 50.018 0.683 7.65 6.93 10.38
10/27/2020 7:45:00 PM 10.01 50.018 0.683 7.64 4.06 10.29
10/27/2020 8:00:00 PM 10.01 50.018 0.683 7.63 4.92 10.24
10/27/2020 8:15:00 PM 10.03 50.054 0.683 7.67 5.84 10.39
10/27/2020 8:30:00 PM 10.05 50.09 0.684 7.67 6.38 10.53
10/27/2020 8:45:00 PM 10.04 50.072 0.683 7.66 7.04 10.38
10/27/2020 9:00:00 PM 10.04 50.072 0.684 7.65 7.18 10.34
10/27/2020 9:15:00 PM 10.03 50.054 0.684 7.66 6.29 10.31
10/27/2020 9:30:00 PM 10.02 50.036 0.687 7.71 5.05 10.51
10/27/2020 9:45:00 PM 10 50 0.687 7.73 4.09 10.67
10/27/2020 10:00:00 PM 9.98 49.964 0.688 7.74 3.77 10.73
10/27/2020 10:15:00 PM 9.97 49.946 0.688 7.74 4.16 10.72
10/27/2020 10:30:00 PM 9.94 49.892 0.689 7.74 4.24 10.68
10/27/2020 10:45:00 PM 9.92 49.856 0.69 7.75 3.65 10.6
10/27/2020 11:00:00 PM 9.88 49.784 0.69 7.74 3.79 10.53
10/27/2020 11:15:00 PM 9.83 49.694 0.691 7.74 3.28 10.48
10/27/2020 11:30:00 PM 9.79 49.622 0.69 7.74 3.75 10.46
10/27/2020 11:45:00 PM 9.76 49.568 0.69 7.74 3.45 10.45
10/28/2020 12:00:00 AM 9.72 49.496 0.69 7.74 4.06 10.41
10/28/2020 12:15:00 AM 9.69 49.442 0.689 7.73 3.55 10.39
10/28/2020 12:30:00 AM 9.66 49.388 0.688 7.72 4.13 10.34
10/28/2020 12:45:00 AM 9.65 49.37 0.687 7.72 3.95 10.33
10/28/2020 1:00:00 AM 9.62 49.316 0.687 7.72 3.47 10.34
10/28/2020 1:15:00 AM 9.57 49.226 0.686 7.72 3.59 10.35
10/28/2020 1:30:00 AM 9.54 49.172 0.685 7.72 3.24 10.34
10/28/2020 1:45:00 AM 9.52 49.136 0.685 7.72 3.86 10.33
10/28/2020 2:00:00 AM 9.49 49.082 0.685 7.72 3.65 10.33
10/28/2020 2:15:00 AM 9.46 49.028 0.685 7.71 3.44 10.34
10/28/2020 2:30:00 AM 9.44 48.992 0.685 7.72 3.4 10.32
10/28/2020 2:45:00 AM 9.41 48.938 0.685 7.72 3.42 10.33
10/28/2020 3:00:00 AM 9.39 48.902 0.686 7.72 4.13 10.34
10/28/2020 3:15:00 AM 9.38 48.884 0.686 7.71 4.21 10.31
10/28/2020 3:30:00 AM 9.38 48.884 0.686 7.71 4.22 10.28
10/28/2020 3:45:00 AM 9.35 48.83 0.686 7.71 5.36 10.28
10/28/2020 4:00:00 AM 9.32 48.776 0.687 7.71 3.7 10.3
10/28/2020 4:15:00 AM 9.3 48.74 0.687 7.7 9.15 10.3
10/28/2020 4:30:00 AM 9.27 48.686 0.688 7.71 4.1 10.3
10/28/2020 4:45:00 AM 9.25 48.65 0.688 7.7 3.62 10.31
10/28/2020 5:00:00 AM 9.24 48.632 0.688 7.7 3.74 10.29
10/28/2020 5:15:00 AM 9.22 48.596 0.688 7.7 3.51 10.31
10/28/2020 5:30:00 AM 9.21 48.578 0.688 7.7 3.44 10.3
10/28/2020 5:45:00 AM 9.18 48.524 0.687 7.7 3.74 10.31
10/28/2020 6:00:00 AM 9.18 48.524 0.687 7.69 3.8 10.29
10/28/2020 6:15:00 AM 9.18 48.524 0.687 7.69 3.42 10.28
10/28/2020 6:30:00 AM 9.15 48.47 0.686 7.68 3.41 10.28
10/28/2020 6:45:00 AM 9.14 48.452 0.686 7.68 3.32 10.28
10/28/2020 7:00:00 AM 9.12 48.416 0.686 7.68 3.7 10.27
10/28/2020 7:15:00 AM 9.1 48.38 0.685 7.68 3.41 10.3
10/28/2020 7:30:00 AM 9.08 48.344 0.683 7.68 3.24 10.33
10/28/2020 7:45:00 AM 9.07 48.326 0.683 7.67 3.17 10.3
10/28/2020 8:00:00 AM 9.07 48.326 0.683 7.66 3.21 10.25
10/28/2020 8:15:00 AM 9.04 48.272 0.681 7.67 3.04 10.3
10/28/2020 8:30:00 AM 9.03 48.254 0.682 7.66 3.1 10.26
10/28/2020 8:45:00 AM 9.01 48.218 0.681 7.66 3.07 10.26
10/28/2020 9:00:00 AM 9 48.2 0.68 7.65 3.3 10.29
10/28/2020 9:15:00 AM 8.99 48.182 0.68 7.66 3.05 10.32
10/28/2020 9:30:00 AM 8.99 48.182 0.679 7.65 3.17 10.31
10/28/2020 9:45:00 AM 8.99 48.182 0.679 7.65 2.97 10.33
10/28/2020 10:00:00 AM 8.99 48.182 0.679 7.64 3.1 10.29
10/28/2020 10:15:00 AM 8.99 48.182 0.678 7.65 2.88 10.31
10/28/2020 10:30:00 AM 8.97 48.146 0.677 7.65 3.08 10.4
10/28/2020 10:45:00 AM 8.97 48.146 0.677 7.65 2.86 10.44
10/28/2020 11:00:00 AM 8.97 48.146 0.677 7.66 2.96 10.52
10/28/2020 11:15:00 AM 8.98 48.164 0.679 7.66 2.85 10.58
10/28/2020 11:30:00 AM 8.98 48.164 0.68 7.66 2.9 10.57
10/28/2020 11:45:00 AM 9 48.2 0.681 7.66 3.97 10.62
10/28/2020 12:00:00 PM 9.03 48.254 0.682 7.66 2.8 10.66
10/28/2020 12:15:00 PM 9.05 48.29 0.682 7.67 2.85 10.67
10/28/2020 12:30:00 PM 9.07 48.326 0.682 7.67 3.1 10.74
10/28/2020 12:45:00 PM 9.09 48.362 0.683 7.66 2.77 10.63
10/28/2020 1:00:00 PM 9.12 48.416 0.682 7.66 2.87 10.69
10/28/2020 1:15:00 PM 9.16 48.488 0.682 7.68 2.93 10.82
10/28/2020 1:30:00 PM 9.18 48.524 0.682 7.67 2.79 10.77
10/28/2020 1:45:00 PM 9.19 48.542 0.682 7.68 3.1 10.8
10/28/2020 2:00:00 PM 9.18 48.524 0.681 7.67 3.01 10.78
10/28/2020 2:15:00 PM 9.2 48.56 0.68 7.67 3.12 10.8
10/28/2020 2:30:00 PM 9.23 48.614 0.68 7.68 3.29 10.82
10/28/2020 2:45:00 PM 9.26 48.668 0.68 7.68 3.06 10.83
10/28/2020 3:00:00 PM 9.29 48.722 0.68 7.68 2.85 10.86
10/28/2020 3:15:00 PM 9.34 48.812 0.68 7.68 4.52 10.9
10/28/2020 3:30:00 PM 9.37 48.866 0.68 7.68 3.14 10.92
10/28/2020 3:45:00 PM 9.39 48.902 0.68 7.69 3.09 10.95
10/28/2020 4:00:00 PM 9.43 48.974 0.681 7.69 3.07 10.98
10/28/2020 4:15:00 PM 9.46 49.028 0.681 7.7 2.98 10.98
10/28/2020 4:30:00 PM 9.53 49.154 0.681 7.72 10.16 10.98
10/28/2020 4:45:00 PM 9.59 49.262 0.682 7.73 3.2 11.07
10/28/2020 5:00:00 PM 9.63 49.334 0.682 7.73 3.14 11.08
10/28/2020 5:15:00 PM 9.67 49.406 0.682 7.74 3.22 11.12
10/28/2020 5:30:00 PM 9.69 49.442 0.682 7.74 2.99 11.12
10/28/2020 5:45:00 PM 9.71 49.478 0.682 7.73 3.39 11.11
10/28/2020 6:00:00 PM 9.71 49.478 0.682 7.72 3.2 11.05
10/28/2020 6:15:00 PM 9.71 49.478 0.682 7.7 3.24 10.93
10/28/2020 6:30:00 PM 9.67 49.406 0.681 7.7 3.54 10.85
10/28/2020 6:45:00 PM 9.62 49.316 0.681 7.7 3.39 10.85
10/28/2020 7:00:00 PM 9.61 49.298 0.681 7.69 3.32 10.82
10/28/2020 7:15:00 PM 9.61 49.298 0.681 7.69 3.54 10.78
10/28/2020 7:30:00 PM 9.59 49.262 0.68 7.68 3.52 10.75
10/28/2020 7:45:00 PM 9.59 49.262 0.681 7.68 3.52 10.7
10/28/2020 8:00:00 PM 9.59 49.262 0.681 7.67 3.27 10.66
10/28/2020 8:15:00 PM 9.58 49.244 0.68 7.67 3.39 10.63
10/28/2020 8:30:00 PM 9.6 49.28 0.681 7.66 3.49 10.58
10/28/2020 8:45:00 PM 9.63 49.334 0.681 7.66 3.38 10.54
10/28/2020 9:00:00 PM 9.68 49.424 0.682 7.66 3.44 10.47
10/28/2020 9:15:00 PM 9.7 49.46 0.682 7.67 3.71 10.49
10/28/2020 9:30:00 PM 9.72 49.496 0.683 7.74 3.49 10.61
10/28/2020 9:45:00 PM 9.72 49.496 0.684 7.78 3.22 10.82
10/28/2020 10:00:00 PM 9.69 49.442 0.684 7.81 3.22 10.89
10/28/2020 10:15:00 PM 9.67 49.406 0.684 7.8 3.33 10.89
10/28/2020 10:30:00 PM 9.64 49.352 0.684 7.8 3.26 10.86
10/28/2020 10:45:00 PM 9.6 49.28 0.685 7.79 4.48 10.82
10/28/2020 11:00:00 PM 9.5 49.1 0.685 7.79 5.99 10.67
10/28/2020 11:15:00 PM 9.4 48.92 0.685 7.77 3.25 10.59
10/28/2020 11:30:00 PM 9.33 48.794 0.686 7.75 3.77 10.53
10/28/2020 11:45:00 PM 9.22 48.596 0.686 7.73 3.65 10.49
10/29/2020 12:00:00 AM 9.09 48.362 0.686 7.73 4.2 10.48
10/29/2020 12:15:00 AM 8.98 48.164 0.686 7.72 3.57 10.48
10/29/2020 12:30:00 AM 8.91 48.038 0.686 7.72 4.88 10.49
10/29/2020 12:45:00 AM 8.85 47.93 0.685 7.73 3.51 10.5
10/29/2020 1:00:00 AM 8.78 47.804 0.685 7.73 3.47 10.51
10/29/2020 1:15:00 AM 8.72 47.696 0.685 7.73 3.38 10.51
10/29/2020 1:30:00 AM 8.67 47.606 0.685 7.73 3.19 10.52
10/29/2020 1:45:00 AM 8.62 47.516 0.685 7.73 3.86 10.53
10/29/2020 2:00:00 AM 8.57 47.426 0.685 7.73 3.77 10.53
10/29/2020 2:15:00 AM 8.54 47.372 0.685 7.73 3.51 10.54
10/29/2020 2:30:00 AM 8.5 47.3 0.685 7.73 5.82 10.54
10/29/2020 2:45:00 AM 8.44 47.192 0.685 7.73 3.88 10.55
10/29/2020 3:00:00 AM 8.4 47.12 0.685 7.73 3.5 10.55
10/29/2020 3:15:00 AM 8.36 47.048 0.685 7.73 3.38 10.56
10/29/2020 3:30:00 AM 8.31 46.958 0.685 7.73 3.61 10.57
10/29/2020 3:45:00 AM 8.29 46.922 0.685 7.73 3.1 10.58
10/29/2020 4:00:00 AM 8.25 46.85 0.686 7.73 3.89 10.57
10/29/2020 4:15:00 AM 8.22 46.796 0.686 7.73 4.51 10.58
10/29/2020 4:30:00 AM 8.2 46.76 0.686 7.72 3.26 10.58
10/29/2020 4:45:00 AM 8.16 46.688 0.686 7.72 3.14 10.59
10/29/2020 5:00:00 AM 8.14 46.652 0.686 7.71 3.22 10.59
10/29/2020 5:15:00 AM 8.11 46.598 0.686 7.71 3.75 10.59
10/29/2020 5:30:00 AM 8.08 46.544 0.686 7.71 3.26 10.6
10/29/2020 5:45:00 AM 8.06 46.508 0.687 7.7 3.22 10.61
10/29/2020 6:00:00 AM 8.02 46.436 0.687 7.7 3.34 10.62
10/29/2020 6:15:00 AM 8 46.4 0.687 7.7 3.25 10.63
10/29/2020 6:30:00 AM 7.99 46.382 0.687 7.69 3.52 10.64
10/29/2020 6:45:00 AM 7.95 46.31 0.687 7.69 3.55 10.66
10/29/2020 7:00:00 AM 7.93 46.274 0.687 7.69 3.43 10.65
10/29/2020 7:15:00 AM 7.9 46.22 0.687 7.68 3.34 10.68
10/29/2020 7:30:00 AM 7.88 46.184 0.687 7.68 3.3 10.69
10/29/2020 7:45:00 AM 7.85 46.13 0.688 7.67 3.53 10.67
10/29/2020 8:00:00 AM 7.83 46.094 0.688 7.67 5.79 10.7
10/29/2020 8:15:00 AM 7.81 46.058 0.688 7.67 3.12 10.72
10/29/2020 8:30:00 AM 7.8 46.04 0.688 7.67 3.14 10.71
10/29/2020 8:45:00 AM 7.78 46.004 0.688 7.66 3.02 10.72
10/29/2020 9:00:00 AM 7.77 45.986 0.688 7.66 3.64 10.73
10/29/2020 9:15:00 AM 7.76 45.968 0.688 7.66 3.03 10.74
10/29/2020 9:30:00 AM 7.74 45.932 0.687 7.66 2.94 10.78
10/29/2020 9:45:00 AM 7.74 45.932 0.687 7.66 2.96 10.77
10/29/2020 10:00:00 AM 7.73 45.914 0.687 7.66 5.09 10.8
10/29/2020 10:15:00 AM 7.7 45.86 0.686 7.65 3.12 10.86
10/29/2020 10:30:00 AM 7.69 45.842 0.685 7.65 3.1 10.83
10/29/2020 10:45:00 AM 7.69 45.842 0.684 7.65 3.03 10.78
10/29/2020 11:00:00 AM 7.7 45.86 0.684 7.65 3.08 10.81
10/29/2020 11:15:00 AM 7.66 45.788 0.68 7.64 3.07 10.87
10/29/2020 11:30:00 AM 7.68 45.824 0.681 7.64 2.88 10.86
10/29/2020 11:45:00 AM 7.69 45.842 0.68 7.64 2.85 10.87
10/29/2020 12:00:00 PM 7.68 45.824 0.676 7.64 3.12 10.94
10/29/2020 12:15:00 PM 7.71 45.878 0.675 7.64 3.36 10.92
10/29/2020 12:30:00 PM 7.72 45.896 0.671 7.65 3.32 10.96
10/29/2020 12:45:00 PM 7.72 45.896 0.669 7.66 3.72 11.05
10/29/2020 1:00:00 PM 7.73 45.914 0.668 7.65 3.02 11.02
10/29/2020 1:15:00 PM 7.74 45.932 0.667 7.66 3.14 11.02
10/29/2020 1:30:00 PM 7.75 45.95 0.667 7.66 2.93 10.97
10/29/2020 1:45:00 PM 7.77 45.986 0.665 7.65 3.14 10.98
10/29/2020 2:00:00 PM 7.78 46.004 0.665 7.66 3.14 11.02
10/29/2020 2:15:00 PM 7.79 46.022 0.665 7.66 2.99 11.02
10/29/2020 2:30:00 PM 7.8 46.04 0.666 7.66 4.05 11.07
10/29/2020 2:45:00 PM 7.81 46.058 0.668 7.66 2.87 11.05
10/29/2020 3:00:00 PM 7.82 46.076 0.668 7.66 2.78 11.06
10/29/2020 3:15:00 PM 7.84 46.112 0.666 7.68 2.86 11.23
10/29/2020 3:30:00 PM 7.86 46.148 0.665 7.68 2.88 11.28
10/29/2020 3:45:00 PM 7.88 46.184 0.657 7.71 3.03 11.44
10/29/2020 4:00:00 PM 7.91 46.238 0.637 7.74 3.18 11.55
10/29/2020 4:15:00 PM 7.94 46.292 0.625 7.77 3.68 11.59
10/29/2020 4:30:00 PM 7.96 46.328 0.619 7.77 6.46 11.62
10/29/2020 4:45:00 PM 7.98 46.364 0.617 7.78 3.84 11.62
10/29/2020 5:00:00 PM 7.99 46.382 0.616 7.78 3.82 11.6
10/29/2020 5:15:00 PM 8.04 46.472 0.615 7.78 3.97 11.55
10/29/2020 5:30:00 PM 8.04 46.472 0.616 7.78 13.3 11.53
10/29/2020 5:45:00 PM 8.08 46.544 0.614 7.78 33.16 11.49
10/29/2020 6:00:00 PM 8.11 46.598 0.614 7.79 4.5 11.49
10/29/2020 6:15:00 PM 8.14 46.652 0.614 7.78 4.06 11.48
10/29/2020 6:30:00 PM 8.15 46.67 0.615 7.79 4.34 11.46
10/29/2020 6:45:00 PM 8.15 46.67 0.615 7.78 4.53 11.44
10/29/2020 7:00:00 PM 8.17 46.706 0.617 7.77 4.23 11.39
10/29/2020 7:15:00 PM 8.2 46.76 0.619 7.77 4.68 11.34
10/29/2020 7:30:00 PM 8.19 46.742 0.62 7.75 5.76 11.31
10/29/2020 7:45:00 PM 8.25 46.85 0.629 7.76 5.24 11.18
10/29/2020 8:00:00 PM 8.28 46.904 0.638 7.76 7.02 11.15
10/29/2020 8:15:00 PM 8.27 46.886 0.64 7.75 7.8 11.14
10/29/2020 8:30:00 PM 8.26 46.868 0.643 7.75 10.21 11.13
10/29/2020 8:45:00 PM 8.25 46.85 0.644 7.74 8.14 11.12
10/29/2020 9:00:00 PM 8.22 46.796 0.645 7.73 9.28 11.11
10/29/2020 9:15:00 PM 8.18 46.724 0.646 7.72 7.32 11.1
10/29/2020 9:30:00 PM 8.15 46.67 0.647 7.71 7.86 11.1
10/29/2020 9:45:00 PM 8.13 46.634 0.646 7.71 7.71 11.1
10/29/2020 10:00:00 PM 8.09 46.562 0.645 7.7 12.43 11.09
10/29/2020 10:15:00 PM 8.06 46.508 0.644 7.69 8.34 11.09
10/29/2020 10:30:00 PM 8.04 46.472 0.64 7.68 11.29 11.07
10/29/2020 10:45:00 PM 7.99 46.382 0.635 7.67 11.64 11.07
10/29/2020 11:00:00 PM 7.94 46.292 0.624 7.65 19.91 11.06
10/29/2020 11:15:00 PM 7.92 46.256 0.617 7.63 19.96 11.04
10/29/2020 11:30:00 PM 7.9 46.22 0.607 7.61 22.43 11
10/29/2020 11:45:00 PM 7.89 46.202 0.605 7.61 23.29 10.99
10/30/2020 12:00:00 AM 7.88 46.184 0.593 7.6 24.81 10.98
10/30/2020 12:15:00 AM 7.88 46.184 0.589 7.59 19.22 10.96
10/30/2020 12:30:00 AM 7.87 46.166 0.578 7.6 24.82 10.98
10/30/2020 12:45:00 AM 7.87 46.166 0.564 7.6 23.54 11
10/30/2020 1:00:00 AM 7.86 46.148 0.559 7.6 19.77 11.01
10/30/2020 1:15:00 AM 7.85 46.13 0.547 7.6 20.9 11.03
10/30/2020 1:30:00 AM 7.84 46.112 0.535 7.61 21.65 11.06
10/30/2020 1:45:00 AM 7.83 46.094 0.531 7.61 19.87 11.08
10/30/2020 2:00:00 AM 7.83 46.094 0.528 7.61 19.38 11.11
10/30/2020 2:15:00 AM 7.81 46.058 0.526 7.62 21.9 11.13
10/30/2020 2:30:00 AM 7.79 46.022 0.527 7.61 21.33 11.14
10/30/2020 2:45:00 AM 7.78 46.004 0.528 7.61 18.43 11.14
10/30/2020 3:00:00 AM 7.75 45.95 0.528 7.61 20.66 11.15
10/30/2020 3:15:00 AM 7.72 45.896 0.529 7.61 21.86 11.18
10/30/2020 3:30:00 AM 7.7 45.86 0.529 7.61 20.67 11.17
10/30/2020 3:45:00 AM 7.67 45.806 0.528 7.6 18.68 11.17
10/30/2020 4:00:00 AM 7.62 45.716 0.525 7.61 18.13 11.2
10/30/2020 4:15:00 AM 7.58 45.644 0.522 7.6 20.37 11.2
10/30/2020 4:30:00 AM 7.53 45.554 0.517 7.6 18.09 11.23
10/30/2020 4:45:00 AM 7.48 45.464 0.512 7.6 17.49 11.26
10/30/2020 5:00:00 AM 7.45 45.41 0.51 7.59 18.02 11.27
10/30/2020 5:15:00 AM 7.42 45.356 0.509 7.58 17.77 11.27
10/30/2020 5:30:00 AM 7.4 45.32 0.507 7.58 18.43 11.29
10/30/2020 5:45:00 AM 7.38 45.284 0.507 7.58 17.19 11.3
10/30/2020 6:00:00 AM 7.37 45.266 0.508 7.58 19.68 11.3
10/30/2020 6:15:00 AM 7.34 45.212 0.51 7.57 21.62 11.31
10/30/2020 6:30:00 AM 7.32 45.176 0.514 7.58 16.69 11.33
10/30/2020 6:45:00 AM 7.3 45.14 0.519 7.58 18.12 11.35
10/30/2020 7:00:00 AM 7.29 45.122 0.523 7.58 17.9 11.34
10/30/2020 7:15:00 AM 7.27 45.086 0.531 7.57 20.06 11.35
10/30/2020 7:30:00 AM 7.25 45.05 0.538 7.57 17.47 11.35
10/30/2020 7:45:00 AM 7.22 44.996 0.548 7.56 19.37 11.34
10/30/2020 8:00:00 AM 7.2 44.96 0.559 7.55 14.75 11.35
10/30/2020 8:15:00 AM 7.18 44.924 0.575 7.55 14.5 11.33
10/30/2020 8:30:00 AM 7.17 44.906 0.588 7.53 16.37 11.21
10/30/2020 8:45:00 AM 7.15 44.87 0.604 7.54 14.55 11.36
10/30/2020 9:00:00 AM 7.13 44.834 0.622 7.54 13.96 11.32
10/30/2020 9:15:00 AM 7.11 44.798 0.628 7.54 15.06 11.41
10/30/2020 9:30:00 AM 7.11 44.798 0.63 7.53 15.12 11.38
10/30/2020 9:45:00 AM 7.09 44.762 0.641 7.53 13.59 11.42
10/30/2020 10:00:00 AM 7.08 44.744 0.644 7.54 19.37 11.47
10/30/2020 10:15:00 AM 7.07 44.726 0.644 7.54 16.76 11.53
10/30/2020 10:30:00 AM 7.07 44.726 0.641 7.54 16.36 11.54
10/30/2020 10:45:00 AM 7.06 44.708 0.637 7.55 11.97 11.56
10/30/2020 11:00:00 AM 7.06 44.708 0.628 7.56 16.33 11.62
10/30/2020 11:15:00 AM 7.06 44.708 0.625 7.56 16.79 11.6
10/30/2020 11:30:00 AM 7.07 44.726 0.611 7.57 10.92 11.58
10/30/2020 11:45:00 AM 7.07 44.726 0.602 7.59 10.48 11.68
10/30/2020 12:00:00 PM 7.06 44.708 0.588 7.6 10.77 11.76
10/30/2020 12:15:00 PM 7.07 44.726 0.58 7.6 32.39 11.77
10/30/2020 12:30:00 PM 7.08 44.744 0.57 7.61 10.2 11.82
10/30/2020 12:45:00 PM 7.11 44.798 0.561 7.62 10.32 11.8
10/30/2020 1:00:00 PM 7.13 44.834 0.554 7.63 11.7 11.87
10/30/2020 1:15:00 PM 7.15 44.87 0.543 7.65 12.11 11.86
10/30/2020 1:30:00 PM 7.16 44.888 0.538 7.65 13.48 11.93
10/30/2020 1:45:00 PM 7.18 44.924 0.534 7.65 10.71 11.94
10/30/2020 2:00:00 PM 7.23 45.014 0.527 7.67 9.61 11.99
10/30/2020 2:15:00 PM 7.27 45.086 0.523 7.68 13.51 12.03
10/30/2020 2:30:00 PM 7.3 45.14 0.52 7.68 8.94 12.02
10/30/2020 2:45:00 PM 7.32 45.176 0.516 7.69 9.4 12.01
10/30/2020 3:00:00 PM 7.33 45.194 0.514 7.69 8.87 12.04
10/30/2020 3:15:00 PM 7.36 45.248 0.512 7.7 9.02 12.04
10/30/2020 3:30:00 PM 7.36 45.248 0.51 7.7 8.15 12.01
10/30/2020 3:45:00 PM 7.36 45.248 0.508 7.71 8.54 12.05
10/30/2020 4:00:00 PM 7.36 45.248 0.508 7.7 8.2 11.97
10/30/2020 4:15:00 PM 7.35 45.23 0.506 7.71 8.25 12
10/30/2020 4:30:00 PM 7.33 45.194 0.506 7.71 8.14 11.99
10/30/2020 4:45:00 PM 7.32 45.176 0.506 7.7 7.83 11.95
10/30/2020 5:00:00 PM 7.3 45.14 0.506 7.7 8.05 11.95
10/30/2020 5:15:00 PM 7.29 45.122 0.506 7.69 8.23 11.89
10/30/2020 5:30:00 PM 7.27 45.086 0.506 7.69 8.23 11.9
10/30/2020 5:45:00 PM 7.25 45.05 0.506 7.68 9.34 11.88
10/30/2020 6:00:00 PM 7.22 44.996 0.506 7.67 7.69 11.86
10/30/2020 6:15:00 PM 7.19 44.942 0.506 7.68 7.86 11.87
10/30/2020 6:30:00 PM 7.18 44.924 0.506 7.65 8.39 11.84
10/30/2020 6:45:00 PM 7.16 44.888 0.506 7.65 7.3 11.81
10/30/2020 7:00:00 PM 7.14 44.852 0.505 7.64 7.63 11.79
10/30/2020 7:15:00 PM 7.12 44.816 0.505 7.63 7.43 11.76
10/30/2020 7:30:00 PM 7.1 44.78 0.505 7.62 7.7 11.74
10/30/2020 7:45:00 PM 7.08 44.744 0.505 7.61 7.44 11.71
10/30/2020 8:00:00 PM 7.06 44.708 0.505 7.6 7.36 11.69
10/30/2020 8:15:00 PM 7.04 44.672 0.505 7.59 7.2 11.68
10/30/2020 8:30:00 PM 7.02 44.636 0.505 7.59 7.61 11.66
10/30/2020 8:45:00 PM 7 44.6 0.505 7.58 7.77 11.64
10/30/2020 9:00:00 PM 6.98 44.564 0.505 7.57 8.16 11.65
10/30/2020 9:15:00 PM 6.96 44.528 0.505 7.57 6.98 11.64
10/30/2020 9:30:00 PM 6.95 44.51 0.506 7.56 7.19 11.64
10/30/2020 9:45:00 PM 6.92 44.456 0.505 7.56 7.02 11.65
10/30/2020 10:00:00 PM 6.9 44.42 0.506 7.55 8.72 11.63
10/30/2020 10:15:00 PM 6.88 44.384 0.506 7.54 6.83 11.63
10/30/2020 10:30:00 PM 6.85 44.33 0.506 7.54 6.61 11.64
10/30/2020 10:45:00 PM 6.83 44.294 0.507 7.54 6.77 11.64
10/30/2020 11:00:00 PM 6.81 44.258 0.507 7.54 6.4 11.65
10/30/2020 11:15:00 PM 6.78 44.204 0.508 7.53 7.05 11.65
10/30/2020 11:30:00 PM 6.76 44.168 0.508 7.53 6.38 11.66
10/30/2020 11:45:00 PM 6.74 44.132 0.509 7.51 6.52 11.64
10/31/2020 12:00:00 AM 6.71 44.078 0.508 7.52 10.02 11.66
10/31/2020 12:15:00 AM 6.68 44.024 0.509 7.52 6.46 11.67
10/31/2020 12:30:00 AM 6.65 43.97 0.51 7.51 6.1 11.68
10/31/2020 12:45:00 AM 6.63 43.934 0.51 7.51 6.72 11.68
10/31/2020 1:00:00 AM 6.58 43.844 0.51 7.52 5.85 11.71
10/31/2020 1:15:00 AM 6.55 43.79 0.51 7.52 6.5 11.72
10/31/2020 1:30:00 AM 6.54 43.772 0.512 7.5 6.41 11.7
10/31/2020 1:45:00 AM 6.5 43.7 0.512 7.51 5.8 11.72
10/31/2020 2:00:00 AM 6.48 43.664 0.513 7.5 5.74 11.72
10/31/2020 2:15:00 AM 6.43 43.574 0.514 7.5 5.89 11.74
10/31/2020 2:30:00 AM 6.41 43.538 0.515 7.5 5.78 11.74
10/31/2020 2:45:00 AM 6.37 43.466 0.516 7.51 6.17 11.76
10/31/2020 3:00:00 AM 6.34 43.412 0.517 7.5 5.63 11.78
10/31/2020 3:15:00 AM 6.32 43.376 0.518 7.5 5.67 11.76
10/31/2020 3:30:00 AM 6.28 43.304 0.519 7.51 5.67 11.8
10/31/2020 3:45:00 AM 6.27 43.286 0.519 7.49 5.76 11.79
10/31/2020 4:00:00 AM 6.25 43.25 0.52 7.48 5.9 11.78
10/31/2020 4:15:00 AM 6.2 43.16 0.52 7.5 5.57 11.83
10/31/2020 4:30:00 AM 6.18 43.124 0.52 7.49 5.63 11.82
10/31/2020 4:45:00 AM 6.14 43.052 0.52 7.5 5.71 11.84
10/31/2020 5:00:00 AM 6.12 43.016 0.521 7.49 5.55 11.84
10/31/2020 5:15:00 AM 6.1 42.98 0.52 7.49 5.56 11.84
10/31/2020 5:30:00 AM 6.07 42.926 0.52 7.49 5.27 11.86
10/31/2020 5:45:00 AM 6.04 42.872 0.521 7.48 5.19 11.87
10/31/2020 6:00:00 AM 6.02 42.836 0.521 7.48 5.53 11.87
10/31/2020 6:15:00 AM 5.99 42.782 0.52 7.49 5.11 11.9
10/31/2020 6:30:00 AM 5.98 42.764 0.521 7.48 5.34 11.89
10/31/2020 6:45:00 AM 5.95 42.71 0.521 7.49 5.58 11.92
10/31/2020 7:00:00 AM 5.92 42.656 0.521 7.49 5.39 11.94
10/31/2020 7:15:00 AM 5.89 42.602 0.522 7.49 4.93 11.94
10/31/2020 7:30:00 AM 5.88 42.584 0.522 7.48 11.17 11.91
10/31/2020 7:45:00 AM 5.84 42.512 0.522 7.5 4.91 11.97
10/31/2020 8:00:00 AM 5.81 42.458 0.523 7.5 4.99 11.98
10/31/2020 8:15:00 AM 5.8 42.44 0.523 7.49 4.59 11.97
10/31/2020 8:30:00 AM 5.78 42.404 0.524 7.49 4.96 11.99
10/31/2020 8:45:00 AM 5.76 42.368 0.524 7.49 4.56 11.99
10/31/2020 9:00:00 AM 5.75 42.35 0.524 7.49 4.71 12.03
10/31/2020 9:15:00 AM 5.75 42.35 0.525 7.49 4.83 12.05
10/31/2020 9:30:00 AM 5.74 42.332 0.525 7.5 4.61 12.1
10/31/2020 9:45:00 AM 5.73 42.314 0.526 7.51 4.5 12.14
10/31/2020 10:00:00 AM 5.74 42.332 0.526 7.51 4.6 12.19
10/31/2020 10:15:00 AM 5.75 42.35 0.527 7.51 4.51 12.19
10/31/2020 10:30:00 AM 5.77 42.386 0.527 7.52 4.47 12.27
10/31/2020 10:45:00 AM 5.8 42.44 0.527 7.54 4.51 12.33
10/31/2020 11:00:00 AM 5.83 42.494 0.528 7.55 4.51 12.39
10/31/2020 11:15:00 AM 5.87 42.566 0.528 7.56 4.32 12.44
10/31/2020 11:30:00 AM 5.93 42.674 0.528 7.57 4.31 12.48
10/31/2020 11:45:00 AM 6.01 42.818 0.528 7.58 4.21 12.54
10/31/2020 12:00:00 PM 6.09 42.962 0.528 7.62 4.16 12.61
10/31/2020 12:15:00 PM 6.2 43.16 0.528 7.65 4.3 12.69
10/31/2020 12:30:00 PM 6.27 43.286 0.529 7.64 4.16 12.7
10/31/2020 12:45:00 PM 6.4 43.52 0.528 7.68 4.29 12.75
10/31/2020 1:00:00 PM 6.58 43.844 0.528 7.7 4.18 12.78
10/31/2020 1:15:00 PM 6.84 44.312 0.528 7.74 3.92 12.82
10/31/2020 1:30:00 PM 7.03 44.654 0.527 7.75 3.94 12.83
10/31/2020 1:45:00 PM 7.19 44.942 0.527 7.77 3.88 12.82
10/31/2020 2:00:00 PM 7.27 45.086 0.527 7.79 3.89 12.82
10/31/2020 2:15:00 PM 7.4 45.32 0.527 7.8 4.11 12.8
10/31/2020 2:30:00 PM 7.52 45.536 0.527 7.82 3.91 12.78
10/31/2020 2:45:00 PM 7.68 45.824 0.526 7.85 3.83 12.75
10/31/2020 3:00:00 PM 7.8 46.04 0.526 7.86 3.79 12.71
10/31/2020 3:15:00 PM 7.92 46.256 0.526 7.88 3.8 12.68
10/31/2020 3:30:00 PM 8 46.4 0.526 7.88 4.3 12.64
10/31/2020 3:45:00 PM 8.06 46.508 0.526 7.88 4.72 12.59
10/31/2020 4:00:00 PM 8.11 46.598 0.526 7.9 3.79 12.57
10/31/2020 4:15:00 PM 8.11 46.598 0.527 7.89 3.85 12.54
10/31/2020 4:30:00 PM 8.11 46.598 0.527 7.89 3.67 12.51
10/31/2020 4:45:00 PM 8.09 46.562 0.527 7.88 3.76 12.46
10/31/2020 5:00:00 PM 8.06 46.508 0.528 7.87 3.93 12.43
10/31/2020 5:15:00 PM 8.02 46.436 0.528 7.87 3.7 12.39
10/31/2020 5:30:00 PM 7.95 46.31 0.529 7.85 3.93 12.36
10/31/2020 5:45:00 PM 7.85 46.13 0.529 7.86 3.82 12.32
10/31/2020 6:00:00 PM 7.72 45.896 0.527 7.88 3.75 12.28
10/31/2020 6:15:00 PM 7.56 45.608 0.528 7.85 3.86 12.23
10/31/2020 6:30:00 PM 7.42 45.356 0.528 7.84 3.74 12.21
10/31/2020 6:45:00 PM 7.28 45.104 0.529 7.82 3.65 12.18
10/31/2020 7:00:00 PM 7.13 44.834 0.529 7.81 3.81 12.14
10/31/2020 7:15:00 PM 6.96 44.528 0.529 7.79 4.08 12.11
10/31/2020 7:30:00 PM 6.83 44.294 0.53 7.77 3.84 12.08
10/31/2020 7:45:00 PM 6.69 44.042 0.53 7.76 4.1 12.07
10/31/2020 8:00:00 PM 6.59 43.862 0.531 7.74 3.88 12.06
10/31/2020 8:15:00 PM 6.47 43.646 0.532 7.73 4.49 12.04
10/31/2020 8:30:00 PM 6.4 43.52 0.533 7.71 3.88 12.01
10/31/2020 8:45:00 PM 6.28 43.304 0.533 7.69 4.07 12
10/31/2020 9:00:00 PM 6.2 43.16 0.534 7.68 4.22 11.99
10/31/2020 9:15:00 PM 6.06 42.908 0.534 7.66 7.73 11.99
10/31/2020 9:30:00 PM 6 42.8 0.535 7.64 6.24 11.97
10/31/2020 9:45:00 PM 5.9 42.62 0.536 7.63 4.37 11.96
10/31/2020 10:00:00 PM 5.84 42.512 0.536 7.62 4.42 11.96
10/31/2020 10:15:00 PM 5.73 42.314 0.536 7.61 4.12 11.98
10/31/2020 10:30:00 PM 5.73 42.314 0.537 7.6 3.87 11.96
10/31/2020 10:45:00 PM 5.68 42.224 0.537 7.6 3.81 11.97
10/31/2020 11:00:00 PM 5.62 42.116 0.538 7.58 4.23 11.95
10/31/2020 11:15:00 PM 5.55 41.99 0.539 7.57 3.78 11.96
10/31/2020 11:30:00 PM 5.53 41.954 0.539 7.57 3.78 11.95
10/31/2020 11:45:00 PM 5.46 41.828 0.539 7.57 4.13 11.98
11/1/2020 12:00:00 AM 5.4 41.72 0.54 7.55 3.75 11.97
11/1/2020 12:15:00 AM 5.36 41.648 0.541 7.55 3.63 11.97
11/1/2020 12:30:00 AM 5.32 41.576 0.541 7.55 3.71 11.96
11/1/2020 12:45:00 AM 5.28 41.504 0.541 7.54 3.71 11.97
11/1/2020 1:00:00 AM 5.23 41.414 0.542 7.53 3.8 11.98
11/1/2020 1:15:00 AM 5.17 41.306 0.541 7.53 3.54 12
11/1/2020 1:30:00 AM 5.17 41.306 0.542 7.52 3.88 11.99
11/1/2020 1:45:00 AM 5.12 41.216 0.542 7.53 4.39 11.99
11/1/2020 2:00:00 AM 5.1 41.18 0.542 7.52 3.53 12
11/1/2020 2:15:00 AM 5.1 41.18 0.543 7.52 3.92 11.99
11/1/2020 2:30:00 AM 5.08 41.144 0.543 7.52 3.74 11.99
11/1/2020 2:45:00 AM 5.06 41.108 0.543 7.52 3.52 12.03
11/1/2020 3:00:00 AM 5.04 41.072 0.544 7.52 3.58 12.03
11/1/2020 3:15:00 AM 5.05 41.09 0.544 7.51 3.58 12.02
11/1/2020 3:30:00 AM 5.05 41.09 0.544 7.52 3.85 12.02
11/1/2020 3:45:00 AM 5.03 41.054 0.544 7.51 4.8 12
11/1/2020 4:00:00 AM 5.03 41.054 0.546 7.5 4.23 12
11/1/2020 4:15:00 AM 4.97 40.946 0.548 7.5 3.81 12.02
11/1/2020 4:30:00 AM 4.94 40.892 0.549 7.49 3.62 12.01
11/1/2020 4:45:00 AM 4.93 40.874 0.549 7.49 3.69 12.03
11/1/2020 5:00:00 AM 4.92 40.856 0.549 7.49 3.58 12.03
11/1/2020 5:15:00 AM 4.91 40.838 0.55 7.5 3.71 12.05
11/1/2020 5:30:00 AM 4.9 40.82 0.55 7.5 3.57 12.06
11/1/2020 5:45:00 AM 4.91 40.838 0.551 7.5 3.5 12.06
11/1/2020 6:00:00 AM 4.9 40.82 0.551 7.5 3.58 12.06
11/1/2020 6:15:00 AM 4.89 40.802 0.552 7.5 3.49 12.07
11/1/2020 6:30:00 AM 4.89 40.802 0.553 7.5 3.47 12.07
11/1/2020 6:45:00 AM 4.89 40.802 0.554 7.5 3.49 12.06
11/1/2020 7:00:00 AM 4.88 40.784 0.554 7.49 3.53 12.05
11/1/2020 7:15:00 AM 4.87 40.766 0.555 7.49 3.46 12.04
11/1/2020 7:30:00 AM 4.86 40.748 0.555 7.5 3.58 12.06
11/1/2020 7:45:00 AM 4.87 40.766 0.555 7.5 3.44 12.07
11/1/2020 8:00:00 AM 4.87 40.766 0.555 7.5 3.53 12.09
11/1/2020 8:15:00 AM 4.87 40.766 0.555 7.5 3.68 12.08
11/1/2020 8:30:00 AM 4.89 40.802 0.554 7.51 3.53 12.12
11/1/2020 8:45:00 AM 4.92 40.856 0.554 7.52 3.78 12.18
11/1/2020 9:00:00 AM 4.96 40.928 0.554 7.52 3.55 12.21
11/1/2020 9:15:00 AM 5.03 41.054 0.553 7.54 3.71 12.27
11/1/2020 9:30:00 AM 5.14 41.252 0.552 7.57 3.56 12.38
11/1/2020 9:45:00 AM 5.21 41.378 0.552 7.58 3.56 12.43
11/1/2020 10:00:00 AM 5.32 41.576 0.551 7.6 3.5 12.49
11/1/2020 10:15:00 AM 5.38 41.684 0.551 7.61 3.65 12.53
11/1/2020 10:30:00 AM 5.49 41.882 0.55 7.64 3.35 12.59
11/1/2020 10:45:00 AM 5.56 42.008 0.55 7.64 3.52 12.61
11/1/2020 11:00:00 AM 5.64 42.152 0.549 7.66 3.61 12.63
11/1/2020 11:15:00 AM 5.71 42.278 0.549 7.66 4.04 12.66
11/1/2020 11:30:00 AM 5.84 42.512 0.548 7.7 3.34 12.7
11/1/2020 11:45:00 AM 5.93 42.674 0.548 7.72 3.32 12.75
11/1/2020 12:00:00 PM 6.07 42.926 0.547 7.75 3.29 12.78
11/1/2020 12:15:00 PM 6.16 43.088 0.547 7.76 3.3 12.8
11/1/2020 12:30:00 PM 6.25 43.25 0.546 7.77 3.32 12.8
11/1/2020 12:45:00 PM 6.36 43.448 0.546 7.79 3.24 12.8
11/1/2020 1:00:00 PM 6.43 43.574 0.546 7.8 3.21 12.8
11/1/2020 1:15:00 PM 6.51 43.718 0.546 7.82 3.26 12.78
11/1/2020 1:30:00 PM 6.57 43.826 0.545 7.82 3.21 12.77
11/1/2020 1:45:00 PM 6.66 43.988 0.545 7.84 3.27 12.74
11/1/2020 2:00:00 PM 6.76 44.168 0.543 7.86 3.3 12.72
11/1/2020 2:15:00 PM 6.85 44.33 0.544 7.88 3.23 12.68
11/1/2020 2:30:00 PM 6.88 44.384 0.544 7.88 3.23 12.66
11/1/2020 2:45:00 PM 6.9 44.42 0.543 7.87 3.17 12.58
11/1/2020 3:00:00 PM 6.92 44.456 0.543 7.86 3.41 12.53
11/1/2020 3:15:00 PM 6.93 44.474 0.543 7.87 3.34 12.49
11/1/2020 3:30:00 PM 6.95 44.51 0.543 7.87 3.39 12.46
11/1/2020 3:45:00 PM 6.94 44.492 0.544 7.85 3.39 12.45
11/1/2020 4:00:00 PM 6.97 44.546 0.546 7.86 3.28 12.42
11/1/2020 4:15:00 PM 6.99 44.582 0.546 7.87 3.48 12.38
11/1/2020 4:30:00 PM 6.97 44.546 0.546 7.86 3.57 12.31
11/1/2020 4:45:00 PM 6.97 44.546 0.546 7.86 3.36 12.3
11/1/2020 5:00:00 PM 6.95 44.51 0.546 7.86 3.38 12.26
11/1/2020 5:15:00 PM 6.93 44.474 0.545 7.85 3.18 12.22
11/1/2020 5:30:00 PM 6.89 44.402 0.545 7.85 3.27 12.18
11/1/2020 5:45:00 PM 6.88 44.384 0.546 7.84 3.27 12.16
11/1/2020 6:00:00 PM 6.87 44.366 0.546 7.84 3.31 12.13
11/1/2020 6:15:00 PM 6.84 44.312 0.547 7.82 3.45 12.11
11/1/2020 6:30:00 PM 6.8 44.24 0.547 7.82 3.34 12.07
11/1/2020 6:45:00 PM 6.71 44.078 0.545 7.82 3.34 12
11/1/2020 7:00:00 PM 6.56 43.808 0.542 7.81 3.32 11.93
11/1/2020 7:15:00 PM 6.46 43.628 0.543 7.79 3.52 11.89
11/1/2020 7:30:00 PM 6.38 43.484 0.543 7.78 4.17 11.85
11/1/2020 7:45:00 PM 6.31 43.358 0.543 7.77 3.4 11.85
11/1/2020 8:00:00 PM 6.26 43.268 0.543 7.77 3.42 11.84
11/1/2020 8:15:00 PM 6.19 43.142 0.544 7.75 3.6 11.82
11/1/2020 8:30:00 PM 6.11 42.998 0.545 7.74 3.5 11.81
11/1/2020 8:45:00 PM 6.06 42.908 0.546 7.73 3.3 11.8
11/1/2020 9:00:00 PM 6.01 42.818 0.546 7.72 3.63 11.78
11/1/2020 9:15:00 PM 5.89 42.602 0.547 7.7 3.8 11.8
11/1/2020 9:30:00 PM 5.83 42.494 0.548 7.69 3.52 11.79
11/1/2020 9:45:00 PM 5.74 42.332 0.549 7.68 3.53 11.79
11/1/2020 10:00:00 PM 5.62 42.116 0.55 7.67 3.4 11.81
11/1/2020 10:15:00 PM 5.53 41.954 0.551 7.65 3.41 11.82
11/1/2020 10:30:00 PM 5.46 41.828 0.552 7.64 3.4 11.82
11/1/2020 10:45:00 PM 5.41 41.738 0.553 7.63 3.56 11.82
11/1/2020 11:00:00 PM 5.37 41.666 0.554 7.62 4.05 11.81
11/1/2020 11:15:00 PM 5.34 41.612 0.555 7.61 3.76 11.8
11/1/2020 11:30:00 PM 5.26 41.468 0.556 7.6 3.42 11.81
11/1/2020 11:45:00 PM 5.23 41.414 0.557 7.59 3.65 11.8
11/2/2020 12:00:00 AM 5.22 41.396 0.557 7.59 3.48 11.79
11/2/2020 12:15:00 AM 5.21 41.378 0.557 7.59 3.6 11.78
11/2/2020 12:30:00 AM 5.19 41.342 0.558 7.58 3.46 11.77
11/2/2020 12:45:00 AM 5.11 41.198 0.559 7.58 3.76 11.77
11/2/2020 1:00:00 AM 5.1 41.18 0.559 7.56 3.48 11.74
11/2/2020 1:15:00 AM 5.07 41.126 0.559 7.56 3.72 11.73
11/2/2020 1:30:00 AM 5.01 41.018 0.56 7.55 3.38 11.75
11/2/2020 1:45:00 AM 4.95 40.91 0.56 7.55 3.67 11.78
11/2/2020 2:00:00 AM 4.92 40.856 0.56 7.55 3.41 11.79
11/2/2020 2:15:00 AM 4.88 40.784 0.56 7.55 3.59 11.81
11/2/2020 2:30:00 AM 4.79 40.622 0.559 7.54 3.56 11.88
11/2/2020 2:45:00 AM 4.73 40.514 0.559 7.54 3.87 11.91
11/2/2020 3:00:00 AM 4.69 40.442 0.559 7.54 3.97 11.91
11/2/2020 3:15:00 AM 4.64 40.352 0.557 7.55 4.15 11.95
11/2/2020 3:30:00 AM 4.62 40.316 0.557 7.55 4.34 11.96
11/2/2020 3:45:00 AM 4.59 40.262 0.557 7.55 4.19 11.95
11/2/2020 4:00:00 AM 4.56 40.208 0.557 7.55 4.14 11.95
11/2/2020 4:15:00 AM 4.51 40.118 0.557 7.55 3.68 11.97
11/2/2020 4:30:00 AM 4.47 40.046 0.557 7.54 3.76 11.94
11/2/2020 4:45:00 AM 4.42 39.956 0.557 7.54 3.84 11.98
11/2/2020 5:00:00 AM 4.36 39.848 0.557 7.54 3.95 11.97
11/2/2020 5:15:00 AM 4.33 39.794 0.557 7.53 3.85 11.97
11/2/2020 5:30:00 AM 4.27 39.686 0.557 7.53 3.99 11.99
11/2/2020 5:45:00 AM 4.18 39.524 0.558 7.52 3.92 12.02
11/2/2020 6:00:00 AM 4.09 39.362 0.558 7.52 3.94 12.07
11/2/2020 6:15:00 AM 4.07 39.326 0.558 7.51 3.81 12.07
11/2/2020 6:30:00 AM 4.03 39.254 0.558 7.51 3.84 12.06
11/2/2020 6:45:00 AM 3.92 39.056 0.558 7.52 3.83 12.13
11/2/2020 7:00:00 AM 3.83 38.894 0.558 7.52 3.74 12.21
11/2/2020 7:15:00 AM 3.79 38.822 0.558 7.51 3.71 12.2
11/2/2020 7:30:00 AM 3.76 38.768 0.559 7.51 3.71 12.21
11/2/2020 7:45:00 AM 3.73 38.714 0.56 7.5 3.91 12.22
11/2/2020 8:00:00 AM 3.72 38.696 0.56 7.51 3.85 12.25
11/2/2020 8:15:00 AM 3.69 38.642 0.561 7.51 3.77 12.28
11/2/2020 8:30:00 AM 3.64 38.552 0.561 7.52 3.64 12.32
11/2/2020 8:45:00 AM 3.62 38.516 0.561 7.53 3.64 12.38
11/2/2020 9:00:00 AM 3.62 38.516 0.561 7.54 4.42 12.45
11/2/2020 9:15:00 AM 3.66 38.588 0.562 7.53 3.94 12.46
11/2/2020 9:30:00 AM 3.62 38.516 0.561 7.54 3.75 12.54
11/2/2020 9:45:00 AM 3.61 38.498 0.561 7.55 3.7 12.58
11/2/2020 10:00:00 AM 3.66 38.588 0.562 7.55 3.67 12.63
11/2/2020 10:15:00 AM 3.7 38.66 0.562 7.56 3.69 12.73
11/2/2020 10:30:00 AM 3.67 38.606 0.561 7.57 3.69 12.75
11/2/2020 10:45:00 AM 3.71 38.678 0.561 7.57 3.52 12.83
11/2/2020 11:00:00 AM 3.71 38.678 0.56 7.59 3.41 12.86
11/2/2020 11:15:00 AM 3.76 38.768 0.561 7.6 3.44 12.96
11/2/2020 11:30:00 AM 3.83 38.894 0.56 7.6 3.5 13
11/2/2020 11:45:00 AM 3.86 38.948 0.56 7.61 3.44 12.97
11/2/2020 12:00:00 PM 3.97 39.146 0.56 7.63 3.5 13.05
11/2/2020 12:15:00 PM 4.22 39.596 0.559 7.65 3.36 13.15
11/2/2020 12:30:00 PM 4.34 39.812 0.559 7.66 3.33 13.2
11/2/2020 12:45:00 PM 4.55 40.19 0.557 7.71 3.2 13.27
11/2/2020 1:00:00 PM 4.79 40.622 0.555 7.75 3.23 13.32
11/2/2020 1:15:00 PM 4.83 40.694 0.556 7.74 3.17 13.39
11/2/2020 1:30:00 PM 4.87 40.766 0.556 7.73 3.17 13.37
11/2/2020 1:45:00 PM 5.05 41.09 0.555 7.77 3.13 13.37
11/2/2020 2:00:00 PM 5.12 41.216 0.556 7.79 3.13 13.38
11/2/2020 2:15:00 PM 5.26 41.468 0.553 7.85 3.14 13.4
11/2/2020 2:30:00 PM 5.27 41.486 0.554 7.85 3.11 13.41
11/2/2020 2:45:00 PM 5.28 41.504 0.554 7.85 3.06 13.41
11/2/2020 3:00:00 PM 5.29 41.522 0.554 7.86 3.03 13.41
11/2/2020 3:15:00 PM 5.3 41.54 0.554 7.87 2.99 13.39
11/2/2020 3:30:00 PM 5.3 41.54 0.555 7.86 3.22 13.39
11/2/2020 3:45:00 PM 5.31 41.558 0.555 7.85 3.18 13.34
11/2/2020 4:00:00 PM 5.29 41.522 0.555 7.87 2.98 13.29
11/2/2020 4:15:00 PM 5.27 41.486 0.556 7.87 2.98 13.23
11/2/2020 4:30:00 PM 5.24 41.432 0.556 7.88 3.03 13.2
11/2/2020 4:45:00 PM 5.23 41.414 0.556 7.88 3.24 13.27
11/2/2020 5:00:00 PM 5.18 41.324 0.557 7.89 3.01 13.28
11/2/2020 5:15:00 PM 5.18 41.324 0.557 7.88 3.01 13.23
11/2/2020 5:30:00 PM 5.13 41.234 0.557 7.9 12.52 13.2
11/2/2020 5:45:00 PM 5.1 41.18 0.557 7.89 3.37 13.18
11/2/2020 6:00:00 PM 5.01 41.018 0.557 7.9 3.12 13.16
11/2/2020 6:15:00 PM 4.92 40.856 0.557 7.91 3.06 13.11
11/2/2020 6:30:00 PM 4.91 40.838 0.559 7.88 3.07 13.1
11/2/2020 6:45:00 PM 4.84 40.712 0.559 7.88 3.09 13.07
11/2/2020 7:00:00 PM 4.78 40.604 0.559 7.86 3.29 13.01
11/2/2020 7:15:00 PM 4.58 40.244 0.558 7.85 3.04 12.87
11/2/2020 7:30:00 PM 4.5 40.1 0.559 7.84 3.1 12.79
11/2/2020 7:45:00 PM 4.41 39.938 0.559 7.81 3 12.75
11/2/2020 8:00:00 PM 4.46 40.028 0.561 7.81 3.06 12.71
11/2/2020 8:15:00 PM 4.37 39.866 0.56 7.8 3.28 12.71
11/2/2020 8:30:00 PM 4.25 39.65 0.56 7.78 3.31 12.64
11/2/2020 8:45:00 PM 4.2 39.56 0.56 7.77 13.59 12.6
11/2/2020 9:00:00 PM 4.13 39.434 0.56 7.75 20.9 12.56
11/2/2020 9:15:00 PM 4.01 39.218 0.56 7.74 3.44 12.57
11/2/2020 9:30:00 PM 3.92 39.056 0.561 7.72 3.41 12.54
11/2/2020 9:45:00 PM 3.9 39.02 0.562 7.71 3.37 12.51
11/2/2020 10:00:00 PM 3.79 38.822 0.562 7.69 3.27 12.51
11/2/2020 10:15:00 PM 3.68 38.624 0.561 7.68 3.37 12.52
11/2/2020 10:30:00 PM 3.64 38.552 0.563 7.67 3.37 12.49
11/2/2020 10:45:00 PM 3.6 38.48 0.563 7.66 3.26 12.49
11/2/2020 11:00:00 PM 3.54 38.372 0.563 7.66 3.23 12.49
11/2/2020 11:15:00 PM 3.46 38.228 0.565 7.64 3.21 12.49
11/2/2020 11:30:00 PM 3.39 38.102 0.566 7.63 3.36 12.51
11/2/2020 11:45:00 PM 3.39 38.102 0.567 7.62 3.18 12.49
11/3/2020 12:00:00 AM 3.4 38.12 0.568 7.62 3.27 12.48
11/3/2020 12:15:00 AM 3.43 38.174 0.569 7.61 3.4 12.47
11/3/2020 12:30:00 AM 3.36 38.048 0.571 7.61 3.23 12.5
11/3/2020 12:45:00 AM 3.35 38.03 0.572 7.61 3.34 12.51
11/3/2020 1:00:00 AM 3.35 38.03 0.572 7.6 3.23 12.51
11/3/2020 1:15:00 AM 3.3 37.94 0.573 7.6 3.1 12.53
11/3/2020 1:30:00 AM 3.3 37.94 0.573 7.6 3.14 12.55
11/3/2020 1:45:00 AM 3.31 37.958 0.574 7.6 3.27 12.53
11/3/2020 2:00:00 AM 3.28 37.904 0.573 7.6 3.1 12.55
11/3/2020 2:15:00 AM 3.27 37.886 0.573 7.6 3.14 12.53
11/3/2020 2:30:00 AM 3.29 37.922 0.574 7.59 3.11 12.53
11/3/2020 2:45:00 AM 3.22 37.796 0.573 7.6 3.16 12.56
11/3/2020 3:00:00 AM 3.18 37.724 0.573 7.6 2.95 12.6
11/3/2020 3:15:00 AM 3.18 37.724 0.572 7.59 3.01 12.6
11/3/2020 3:30:00 AM 3.15 37.67 0.572 7.59 2.98 12.61
11/3/2020 3:45:00 AM 3.16 37.688 0.572 7.59 3.43 12.59
11/3/2020 4:00:00 AM 3.09 37.562 0.572 7.59 2.98 12.62
11/3/2020 4:15:00 AM 3.1 37.58 0.571 7.58 3.19 12.63
11/3/2020 4:30:00 AM 3.13 37.634 0.572 7.58 2.99 12.61
11/3/2020 4:45:00 AM 3.15 37.67 0.572 7.58 2.94 12.59
11/3/2020 5:00:00 AM 3.15 37.67 0.571 7.57 2.93 12.57
11/3/2020 5:15:00 AM 3.11 37.598 0.571 7.57 4.48 12.62
11/3/2020 5:30:00 AM 3.09 37.562 0.571 7.57 3.02 12.63
11/3/2020 5:45:00 AM 3.06 37.508 0.571 7.58 2.95 12.64
11/3/2020 6:00:00 AM 3.04 37.472 0.571 7.57 3.26 12.66
11/3/2020 6:15:00 AM 3.03 37.454 0.571 7.58 3.13 12.65
11/3/2020 6:30:00 AM 3.04 37.472 0.571 7.57 3.5 12.65
11/3/2020 6:45:00 AM 3.06 37.508 0.571 7.56 2.93 12.6
11/3/2020 7:00:00 AM 3.05 37.49 0.571 7.57 2.92 12.63
11/3/2020 7:15:00 AM 3.06 37.508 0.571 7.55 2.95 12.63
11/3/2020 7:30:00 AM 3.06 37.508 0.572 7.56 3.07 12.61
11/3/2020 7:45:00 AM 3.09 37.562 0.574 7.55 2.94 12.49
11/3/2020 8:00:00 AM 3.1 37.58 0.575 7.56 2.92 12.62
11/3/2020 8:15:00 AM 3.11 37.598 0.575 7.55 2.95 12.66
11/3/2020 8:30:00 AM 3.13 37.634 0.575 7.54 2.91 12.65
11/3/2020 8:45:00 AM 3.16 37.688 0.576 7.55 2.94 12.66
11/3/2020 9:00:00 AM 3.21 37.778 0.576 7.55 3 12.66
11/3/2020 9:15:00 AM 3.25 37.85 0.576 7.56 2.86 12.69
11/3/2020 9:30:00 AM 3.31 37.958 0.577 7.57 3.02 12.79
11/3/2020 9:45:00 AM 3.38 38.084 0.577 7.58 2.91 12.78
11/3/2020 10:00:00 AM 3.44 38.192 0.578 7.58 2.84 12.88
11/3/2020 10:15:00 AM 3.49 38.282 0.577 7.58 2.82 12.88
11/3/2020 10:30:00 AM 3.64 38.552 0.578 7.6 2.85 12.87
11/3/2020 10:45:00 AM 3.75 38.75 0.578 7.62 2.94 12.95
11/3/2020 11:00:00 AM 3.88 38.984 0.577 7.64 2.8 13.06
11/3/2020 11:15:00 AM 3.97 39.146 0.577 7.66 2.86 13.1
11/3/2020 11:30:00 AM 4.08 39.344 0.576 7.67 2.76 13.14
11/3/2020 11:45:00 AM 4.23 39.614 0.576 7.68 2.74 13.12
11/3/2020 12:00:00 PM 4.39 39.902 0.575 7.69 2.8 13.21
11/3/2020 12:15:00 PM 4.6 40.28 0.575 7.71 2.77 13.24
11/3/2020 12:30:00 PM 4.77 40.586 0.574 7.73 2.85 13.32
11/3/2020 12:45:00 PM 4.98 40.964 0.573 7.75 2.71 13.35
11/3/2020 1:00:00 PM 5.24 41.432 0.571 7.79 2.67 13.35
11/3/2020 1:15:00 PM 5.49 41.882 0.57 7.82 2.7 13.38
11/3/2020 1:30:00 PM 5.62 42.116 0.569 7.85 2.7 13.45
11/3/2020 1:45:00 PM 5.15 41.27 0.57 7.82 2.71 13.57
11/3/2020 2:00:00 PM 5.23 41.414 0.57 7.8 2.71 13.56
11/3/2020 2:15:00 PM 5.49 41.882 0.569 7.85 2.72 13.61
11/3/2020 2:30:00 PM 5.14 41.252 0.57 7.8 2.73 13.57
11/3/2020 2:45:00 PM 5.64 42.152 0.568 7.87 2.74 13.6
11/3/2020 3:00:00 PM 6.24 43.232 0.565 7.98 2.84 13.57
11/3/2020 3:15:00 PM 6.07 42.926 0.567 7.98 2.9 13.66
11/3/2020 3:30:00 PM 5.63 42.134 0.568 7.87 2.9 13.63
11/3/2020 3:45:00 PM 5.5 41.9 0.569 7.83 2.91 13.74
11/3/2020 4:00:00 PM 5.49 41.882 0.569 7.83 2.73 13.77
11/3/2020 4:15:00 PM 5.6 42.08 0.569 7.84 2.79 13.79
11/3/2020 4:30:00 PM 5.66 42.188 0.568 7.86 2.77 13.77
11/3/2020 4:45:00 PM 5.65 42.17 0.568 7.85 2.66 13.71
11/3/2020 5:00:00 PM 5.68 42.224 0.568 7.85 2.72 13.68
11/3/2020 5:15:00 PM 5.73 42.314 0.568 7.86 2.63 13.62
11/3/2020 5:30:00 PM 5.82 42.476 0.568 7.87 2.77 13.57
11/3/2020 5:45:00 PM 5.91 42.638 0.567 7.88 2.68 13.56
11/3/2020 6:00:00 PM 5.99 42.782 0.568 7.9 2.72 13.57
11/3/2020 6:15:00 PM 6.32 43.376 0.568 7.98 2.86 13.25
11/3/2020 6:30:00 PM 6.44 43.592 0.57 7.98 6.18 12.91
11/3/2020 6:45:00 PM 6.56 43.808 0.569 8.03 4.37 12.63
11/3/2020 7:00:00 PM 6.49 43.682 0.569 8.04 3.38 12.45
11/3/2020 7:15:00 PM 6.44 43.592 0.569 8.03 3.72 12.38
11/3/2020 7:30:00 PM 6.34 43.412 0.57 8.02 3.71 12.32
11/3/2020 7:45:00 PM 6.22 43.196 0.569 8 3.43 12.29
11/3/2020 8:00:00 PM 6.1 42.98 0.569 7.99 3.19 12.26
11/3/2020 8:15:00 PM 6.01 42.818 0.569 7.96 3.26 12.23
11/3/2020 8:30:00 PM 5.92 42.656 0.569 7.95 3.4 12.21
11/3/2020 8:45:00 PM 5.79 42.422 0.569 7.93 3.25 12.2
11/3/2020 9:00:00 PM 5.67 42.206 0.569 7.91 3.16 12.2
11/3/2020 9:15:00 PM 5.58 42.044 0.57 7.88 3.32 12.18
11/3/2020 9:30:00 PM 5.47 41.846 0.57 7.86 3.12 12.18
11/3/2020 9:45:00 PM 5.33 41.594 0.57 7.84 3.1 12.18
11/3/2020 10:00:00 PM 5.25 41.45 0.571 7.82 3.36 12.16
11/3/2020 10:15:00 PM 5.15 41.27 0.571 7.8 3.28 12.18
11/3/2020 10:30:00 PM 5.09 41.162 0.572 7.78 3.51 12.18
11/3/2020 10:45:00 PM 4.96 40.928 0.572 7.76 3.58 12.2
11/3/2020 11:00:00 PM 4.92 40.856 0.572 7.75 2.98 12.2
11/3/2020 11:15:00 PM 4.81 40.658 0.573 7.73 3.01 12.21
11/3/2020 11:30:00 PM 4.66 40.388 0.572 7.71 3 12.24
11/3/2020 11:45:00 PM 4.67 40.406 0.574 7.71 3.1 12.24
11/4/2020 12:00:00 AM 4.55 40.19 0.574 7.69 3.01 12.27
11/4/2020 12:15:00 AM 4.54 40.172 0.574 7.69 2.97 12.25
11/4/2020 12:30:00 AM 4.45 40.01 0.575 7.68 2.97 12.29
11/4/2020 12:45:00 AM 4.38 39.884 0.575 7.67 2.94 12.3
11/4/2020 1:00:00 AM 4.35 39.83 0.576 7.66 2.9 12.3
11/4/2020 1:15:00 AM 4.3 39.74 0.577 7.65 3.25 12.28
11/4/2020 1:30:00 AM 4.25 39.65 0.577 7.64 3.06 12.29
11/4/2020 1:45:00 AM 4.19 39.542 0.578 7.63 2.87 12.31
11/4/2020 2:00:00 AM 4.22 39.596 0.579 7.62 3.04 12.26
11/4/2020 2:15:00 AM 4.18 39.524 0.579 7.62 3.17 12.25
11/4/2020 2:30:00 AM 4.18 39.524 0.579 7.63 3 12.25
11/4/2020 2:45:00 AM 4.11 39.398 0.58 7.61 2.85 12.26
11/4/2020 3:00:00 AM 4.04 39.272 0.58 7.61 2.99 12.27
11/4/2020 3:15:00 AM 3.95 39.11 0.58 7.6 2.83 12.32
11/4/2020 3:30:00 AM 3.95 39.11 0.581 7.6 2.86 12.32
11/4/2020 3:45:00 AM 3.88 38.984 0.581 7.59 2.86 12.3
11/4/2020 4:00:00 AM 3.79 38.822 0.581 7.59 2.9 12.36
11/4/2020 4:15:00 AM 3.73 38.714 0.581 7.58 2.91 12.39
11/4/2020 4:30:00 AM 3.64 38.552 0.581 7.58 2.89 12.44
11/4/2020 4:45:00 AM 3.62 38.516 0.581 7.57 2.84 12.46
11/4/2020 5:00:00 AM 3.55 38.39 0.581 7.58 2.83 12.49
11/4/2020 5:15:00 AM 3.49 38.282 0.581 7.57 3.18 12.53
11/4/2020 5:30:00 AM 3.46 38.228 0.581 7.58 2.79 12.55
11/4/2020 5:45:00 AM 3.41 38.138 0.581 7.58 2.91 12.57
11/4/2020 6:00:00 AM 3.42 38.156 0.581 7.58 2.83 12.57
11/4/2020 6:15:00 AM 3.35 38.03 0.581 7.58 2.91 12.6
11/4/2020 6:30:00 AM 3.3 37.94 0.581 7.57 3.43 12.59
11/4/2020 6:45:00 AM 3.24 37.832 0.581 7.57 3.17 12.59
11/4/2020 7:00:00 AM 3.19 37.742 0.581 7.57 3.04 12.64
11/4/2020 7:15:00 AM 3.16 37.688 0.581 7.57 3.09 12.67
11/4/2020 7:30:00 AM 3.13 37.634 0.581 7.57 2.96 12.71
11/4/2020 7:45:00 AM 3.09 37.562 0.581 7.57 2.87 12.71
11/4/2020 8:00:00 AM 3.05 37.49 0.581 7.58 2.89 12.75
11/4/2020 8:15:00 AM 3.1 37.58 0.582 7.57 2.89 12.72
11/4/2020 8:30:00 AM 3.17 37.706 0.583 7.55 2.94 12.64
11/4/2020 8:45:00 AM 3.17 37.706 0.582 7.55 3.09 12.63
11/4/2020 9:00:00 AM 3.26 37.868 0.583 7.55 2.96 12.58
11/4/2020 9:15:00 AM 3.28 37.904 0.582 7.55 3.02 12.64
11/4/2020 9:30:00 AM 3.15 37.67 0.581 7.58 3.22 12.81
11/4/2020 9:45:00 AM 3.19 37.742 0.581 7.61 3.15 13.04
11/4/2020 10:00:00 AM 3.28 37.904 0.582 7.62 3.13 13.12
11/4/2020 10:15:00 AM 3.35 38.03 0.582 7.62 3.08 13.1
11/4/2020 10:30:00 AM 3.49 38.282 0.582 7.63 3.14 13.2
11/4/2020 10:45:00 AM 3.64 38.552 0.583 7.66 2.97 13.28
11/4/2020 11:00:00 AM 3.67 38.606 0.584 7.65 2.94 13.17
11/4/2020 11:15:00 AM 3.81 38.858 0.583 7.64 3.01 13.26
11/4/2020 11:30:00 AM 4.49 40.082 0.581 7.72 2.95 13.47
11/4/2020 11:45:00 AM 4.58 40.244 0.58 7.74 2.96 13.53
11/4/2020 12:00:00 PM 4.51 40.118 0.58 7.71 2.92 13.43
11/4/2020 12:15:00 PM 4.56 40.208 0.58 7.71 3.01 13.46
11/4/2020 12:30:00 PM 4.56 40.208 0.58 7.72 3.35 13.54
11/4/2020 12:45:00 PM 4.6 40.28 0.58 7.72 3.01 13.54
11/4/2020 1:00:00 PM 4.59 40.262 0.58 7.72 2.96 13.6
11/4/2020 1:15:00 PM 4.61 40.298 0.581 7.72 2.94 13.62
11/4/2020 1:30:00 PM 4.63 40.334 0.581 7.72 2.89 13.66
11/4/2020 1:45:00 PM 4.65 40.37 0.581 7.71 2.87 13.68
11/4/2020 2:00:00 PM 4.73 40.514 0.581 7.71 2.94 13.61
11/4/2020 2:15:00 PM 4.85 40.73 0.581 7.72 2.95 13.65
11/4/2020 2:30:00 PM 4.9 40.82 0.582 7.71 2.91 13.71
11/4/2020 2:45:00 PM 4.97 40.946 0.581 7.71 3.13 13.69
11/4/2020 3:00:00 PM 5.06 41.108 0.581 7.72 2.96 13.69
11/4/2020 3:15:00 PM 5.18 41.324 0.581 7.71 2.93 13.63
11/4/2020 3:30:00 PM 5.39 41.702 0.581 7.76 2.81 13.59
11/4/2020 3:45:00 PM 5.6 42.08 0.58 7.81 2.95 13.8
11/4/2020 4:00:00 PM 5.65 42.17 0.58 7.79 2.86 13.77
11/4/2020 4:15:00 PM 5.8 42.44 0.579 7.8 2.8 13.68
11/4/2020 4:30:00 PM 5.79 42.422 0.581 7.79 2.93 13.69
11/4/2020 4:45:00 PM 5.92 42.656 0.58 7.79 2.83 13.64
11/4/2020 5:00:00 PM 5.88 42.584 0.582 7.8 3.01 13.76
11/4/2020 5:15:00 PM 5.91 42.638 0.581 7.8 2.83 13.75
11/4/2020 5:30:00 PM 5.94 42.692 0.582 7.81 2.86 13.8
11/4/2020 5:45:00 PM 6.09 42.962 0.581 7.83 2.89 13.8
11/4/2020 6:00:00 PM 6.17 43.106 0.582 7.82 2.99 13.77
11/4/2020 6:15:00 PM 6.34 43.412 0.582 7.83 2.96 13.64
11/4/2020 6:30:00 PM 6.28 43.304 0.584 7.79 3.12 13.5
11/4/2020 6:45:00 PM 6.42 43.556 0.583 7.81 3.31 13.5
11/4/2020 7:00:00 PM 6.39 43.502 0.584 7.8 3.06 13.52
11/4/2020 7:15:00 PM 6.49 43.682 0.583 7.82 3.05 13.45
11/4/2020 7:30:00 PM 6.58 43.844 0.583 7.82 3.65 13.24
11/4/2020 7:45:00 PM 6.79 44.222 0.584 7.84 3.18 12.78
11/4/2020 8:00:00 PM 6.84 44.312 0.582 7.83 3.34 12.63
11/4/2020 8:15:00 PM 7.27 45.086 0.571 7.93 3.62 11.96
11/4/2020 8:30:00 PM 7.22 44.996 0.569 7.93 3.52 11.79
11/4/2020 8:45:00 PM 7.16 44.888 0.569 7.92 4.33 11.76
11/4/2020 9:00:00 PM 7.04 44.672 0.569 7.9 3.53 11.75
11/4/2020 9:15:00 PM 6.9 44.42 0.568 7.88 3.65 11.74
11/4/2020 9:30:00 PM 6.8 44.24 0.568 7.86 3.99 11.71
11/4/2020 9:45:00 PM 6.69 44.042 0.569 7.84 3.76 11.72
11/4/2020 10:00:00 PM 6.58 43.844 0.568 7.83 3.33 11.74
11/4/2020 10:15:00 PM 6.46 43.628 0.567 7.81 3.42 11.76
11/4/2020 10:30:00 PM 6.36 43.448 0.567 7.8 3.26 11.77
11/4/2020 10:45:00 PM 6.24 43.232 0.567 7.78 3.08 11.79
11/4/2020 11:00:00 PM 6.11 42.998 0.567 7.77 3.18 11.83
11/4/2020 11:15:00 PM 6.04 42.872 0.567 7.76 3.42 11.84
11/4/2020 11:30:00 PM 5.97 42.746 0.568 7.74 3.06 11.84
11/4/2020 11:45:00 PM 5.84 42.512 0.568 7.73 3.06 11.88
11/5/2020 12:00:00 AM 5.77 42.386 0.568 7.72 3.02 11.9
11/5/2020 12:15:00 AM 5.69 42.242 0.568 7.71 2.98 11.92
11/5/2020 12:30:00 AM 5.65 42.17 0.568 7.71 2.98 11.9
11/5/2020 12:45:00 AM 5.54 41.972 0.568 7.7 3.02 11.96
11/5/2020 1:00:00 AM 5.48 41.864 0.569 7.69 3.21 11.99
11/5/2020 1:15:00 AM 5.42 41.756 0.569 7.68 3.11 11.98
11/5/2020 1:30:00 AM 5.34 41.612 0.569 7.67 3.04 12
11/5/2020 1:45:00 AM 5.28 41.504 0.57 7.67 3.25 12.01
11/5/2020 2:00:00 AM 5.22 41.396 0.57 7.66 3.02 12.03
11/5/2020 2:15:00 AM 5.14 41.252 0.57 7.66 3.13 12.05
11/5/2020 2:30:00 AM 5.08 41.144 0.571 7.66 2.98 12.08
11/5/2020 2:45:00 AM 5.04 41.072 0.571 7.65 3.05 12.07
11/5/2020 3:00:00 AM 4.94 40.892 0.572 7.65 3.02 12.1
11/5/2020 3:15:00 AM 4.9 40.82 0.572 7.64 2.94 12.11
11/5/2020 3:30:00 AM 4.88 40.784 0.572 7.64 3.28 12.1
11/5/2020 3:45:00 AM 4.8 40.64 0.573 7.63 3.13 12.11
11/5/2020 4:00:00 AM 4.76 40.568 0.574 7.63 3.05 12.13
11/5/2020 4:15:00 AM 4.7 40.46 0.574 7.63 3.19 12.14
11/5/2020 4:30:00 AM 4.66 40.388 0.574 7.63 2.96 12.14
11/5/2020 4:45:00 AM 4.61 40.298 0.575 7.63 3 12.15
11/5/2020 5:00:00 AM 4.59 40.262 0.575 7.62 3.02 12.16
11/5/2020 5:15:00 AM 4.56 40.208 0.575 7.62 2.98 12.15
11/5/2020 5:30:00 AM 4.56 40.208 0.576 7.61 3.04 12.14
11/5/2020 5:45:00 AM 4.52 40.136 0.576 7.61 2.99 12.12
11/5/2020 6:00:00 AM 4.46 40.028 0.576 7.61 2.93 12.14
11/5/2020 6:15:00 AM 4.45 40.01 0.576 7.61 2.93 12.15
11/5/2020 6:30:00 AM 4.43 39.974 0.577 7.59 4.16 12.11
11/5/2020 6:45:00 AM 4.4 39.92 0.577 7.59 3.77 12.1
11/5/2020 7:00:00 AM 4.36 39.848 0.577 7.59 3.01 12.1
11/5/2020 7:15:00 AM 4.36 39.848 0.578 7.58 2.87 12.06
11/5/2020 7:30:00 AM 4.35 39.83 0.578 7.58 2.84 12.01
11/5/2020 7:45:00 AM 4.34 39.812 0.578 7.58 3.08 11.98
11/5/2020 8:00:00 AM 4.32 39.776 0.578 7.58 2.86 12.08
11/5/2020 8:15:00 AM 4.29 39.722 0.577 7.58 3.08 12.09
11/5/2020 8:30:00 AM 4.31 39.758 0.578 7.58 2.96 12.16
11/5/2020 8:45:00 AM 4.33 39.794 0.577 7.59 3.18 12.18
11/5/2020 9:00:00 AM 4.35 39.83 0.577 7.59 3.31 12.21
11/5/2020 9:15:00 AM 4.42 39.956 0.576 7.62 3.2 12.33
11/5/2020 9:30:00 AM 4.48 40.064 0.576 7.61 3.21 12.35
11/5/2020 9:45:00 AM 4.63 40.334 0.575 7.66 3.14 12.56
11/5/2020 10:00:00 AM 4.76 40.568 0.574 7.7 3.04 12.77
11/5/2020 10:15:00 AM 4.89 40.802 0.573 7.73 3 12.89
11/5/2020 10:30:00 AM 5.09 41.162 0.572 7.78 2.98 13.09
11/5/2020 10:45:00 AM 5.13 41.234 0.572 7.78 2.94 13.18
11/5/2020 11:00:00 AM 5.14 41.252 0.572 7.76 3 13.15
11/5/2020 11:15:00 AM 5.11 41.198 0.573 7.75 3.09 13.13
11/5/2020 11:30:00 AM 5.12 41.216 0.573 7.74 2.94 13.19
11/5/2020 11:45:00 AM 5.13 41.234 0.573 7.75 3 13.24
11/5/2020 12:00:00 PM 5.12 41.216 0.573 7.75 3.05 13.28
11/5/2020 12:15:00 PM 5.13 41.234 0.573 7.75 3.03 13.33
11/5/2020 12:30:00 PM 5.15 41.27 0.573 7.76 3.06 13.4
11/5/2020 12:45:00 PM 5.17 41.306 0.573 7.76 2.96 13.39
11/5/2020 1:00:00 PM 5.21 41.378 0.573 7.74 3.09 13.37
11/5/2020 1:15:00 PM 5.24 41.432 0.573 7.74 2.95 13.31
11/5/2020 1:30:00 PM 5.28 41.504 0.573 7.71 2.92 13.16
11/5/2020 1:45:00 PM 5.31 41.558 0.573 7.71 2.9 13.15
11/5/2020 2:00:00 PM 5.38 41.684 0.573 7.72 2.95 13.16
11/5/2020 2:15:00 PM 5.44 41.792 0.572 7.74 2.95 13.2
11/5/2020 2:30:00 PM 5.56 42.008 0.573 7.75 2.99 13.26
11/5/2020 2:45:00 PM 5.59 42.062 0.572 7.77 3.24 13.45
11/5/2020 3:00:00 PM 5.68 42.224 0.573 7.77 2.96 13.55
11/5/2020 3:15:00 PM 5.71 42.278 0.573 7.78 3.09 13.57
11/5/2020 3:30:00 PM 5.77 42.386 0.573 7.77 2.98 13.62
11/5/2020 3:45:00 PM 5.85 42.53 0.573 7.77 2.91 13.56
11/5/2020 4:00:00 PM 5.94 42.692 0.574 7.78 3.85 13.64
11/5/2020 4:15:00 PM 6.01 42.818 0.574 7.78 3.16 13.54
11/5/2020 4:30:00 PM 6.03 42.854 0.572 7.8 2.99 13.58
11/5/2020 4:45:00 PM 6.12 43.016 0.572 7.84 2.92 13.63
11/5/2020 5:00:00 PM 6.2 43.16 0.573 7.83 2.89 13.6
11/5/2020 5:15:00 PM 6.07 42.926 0.574 7.81 3.05 13.73
11/5/2020 5:30:00 PM 6.11 42.998 0.574 7.8 3.06 13.62
11/5/2020 5:45:00 PM 6.12 43.016 0.575 7.8 3.03 13.66
11/5/2020 6:00:00 PM 6.23 43.214 0.575 7.81 3.05 13.69
11/5/2020 6:15:00 PM 6.29 43.322 0.575 7.81 3.1 13.72
11/5/2020 6:30:00 PM 6.28 43.304 0.577 7.78 3.01 13.62
11/5/2020 6:45:00 PM 6.27 43.286 0.578 7.77 3.11 13.49
11/5/2020 7:00:00 PM 6.25 43.25 0.578 7.75 3.06 13.4
11/5/2020 7:15:00 PM 6.25 43.25 0.579 7.75 3.07 13.33
11/5/2020 7:30:00 PM 6.29 43.322 0.578 7.77 3.05 13.33
11/5/2020 7:45:00 PM 6.29 43.322 0.578 7.76 3.07 13.35
11/5/2020 8:00:00 PM 6.31 43.358 0.579 7.76 2.95 13.36
11/5/2020 8:15:00 PM 6.36 43.448 0.579 7.77 3.11 13.32
11/5/2020 8:30:00 PM 6.37 43.466 0.579 7.76 2.91 13.26
11/5/2020 8:45:00 PM 6.47 43.646 0.579 7.79 3.15 13.32
11/5/2020 9:00:00 PM 6.65 43.97 0.578 7.83 3.09 13.28
11/5/2020 9:15:00 PM 6.93 44.474 0.578 7.92 3.31 12.76
11/5/2020 9:30:00 PM 6.89 44.402 0.582 7.84 3.54 12.46
11/5/2020 9:45:00 PM 7.34 45.212 0.574 8.05 3.95 11.95
11/5/2020 10:00:00 PM 7.49 45.482 0.572 8.04 3.7 11.68
11/5/2020 10:15:00 PM 7.51 45.518 0.57 8.07 3.74 11.55
11/5/2020 10:30:00 PM 7.61 45.698 0.568 8.09 4.46 11.4
11/5/2020 10:45:00 PM 7.58 45.644 0.567 8.08 3.48 11.33
11/5/2020 11:00:00 PM 7.53 45.554 0.569 8.04 3.59 11.31
11/5/2020 11:15:00 PM 7.5 45.5 0.567 8.01 3.64 11.3
11/5/2020 11:30:00 PM 7.45 45.41 0.568 7.98 5.78 11.19
11/5/2020 11:45:00 PM 7.43 45.374 0.568 7.96 5.01 11.26
11/6/2020 12:00:00 AM 7.39 45.302 0.569 7.93 4.68 11.28
11/6/2020 12:15:00 AM 7.35 45.23 0.57 7.91 4.17 11.28
11/6/2020 12:30:00 AM 7.32 45.176 0.569 7.89 3.98 11.29
11/6/2020 12:45:00 AM 7.28 45.104 0.57 7.87 3.36 11.31
11/6/2020 1:00:00 AM 7.23 45.014 0.57 7.84 3.26 11.31
11/6/2020 1:15:00 AM 7.2 44.96 0.57 7.82 3.26 11.32
11/6/2020 1:30:00 AM 7.17 44.906 0.57 7.81 3.45 11.3
11/6/2020 1:45:00 AM 7.14 44.852 0.571 7.79 4.04 11.3
11/6/2020 2:00:00 AM 7.1 44.78 0.571 7.78 4.43 11.31
11/6/2020 2:15:00 AM 7.07 44.726 0.571 7.76 3.5 11.31
11/6/2020 2:30:00 AM 7.02 44.636 0.571 7.75 3.24 11.34
11/6/2020 2:45:00 AM 6.99 44.582 0.571 7.74 3.51 11.33
11/6/2020 3:00:00 AM 6.96 44.528 0.572 7.73 3.8 11.33
11/6/2020 3:15:00 AM 6.93 44.474 0.572 7.72 3.67 11.34
11/6/2020 3:30:00 AM 6.88 44.384 0.572 7.71 3.67 11.35
11/6/2020 3:45:00 AM 6.85 44.33 0.572 7.7 3.57 11.34
11/6/2020 4:00:00 AM 6.8 44.24 0.572 7.69 3.54 11.32
11/6/2020 4:15:00 AM 6.77 44.186 0.573 7.69 3.61 11.34
11/6/2020 4:30:00 AM 6.72 44.096 0.573 7.68 3.83 11.32
11/6/2020 4:45:00 AM 6.65 43.97 0.573 7.68 3.58 11.35
11/6/2020 5:00:00 AM 6.57 43.826 0.573 7.67 3.54 11.38
11/6/2020 5:15:00 AM 6.51 43.718 0.573 7.66 3.46 11.4
11/6/2020 5:30:00 AM 6.43 43.574 0.574 7.65 3.28 11.41
11/6/2020 5:45:00 AM 6.39 43.502 0.574 7.65 4.48 11.4
11/6/2020 6:00:00 AM 6.34 43.412 0.574 7.64 3.3 11.39
11/6/2020 6:15:00 AM 6.26 43.268 0.574 7.64 4.6 11.44
11/6/2020 6:30:00 AM 6.19 43.142 0.574 7.64 3.04 11.47
11/6/2020 6:45:00 AM 6.14 43.052 0.574 7.63 3.12 11.44
11/6/2020 7:00:00 AM 6.1 42.98 0.574 7.63 3.13 11.46
11/6/2020 7:15:00 AM 6.05 42.89 0.574 7.63 3.09 11.36
11/6/2020 7:30:00 AM 5.99 42.782 0.575 7.63 2.91 11.45
11/6/2020 7:45:00 AM 5.95 42.71 0.575 7.62 4.02 11.46
11/6/2020 8:00:00 AM 5.91 42.638 0.575 7.62 2.92 11.45
11/6/2020 8:15:00 AM 5.83 42.494 0.574 7.63 2.91 11.55
11/6/2020 8:30:00 AM 5.83 42.494 0.575 7.62 3.03 11.54
11/6/2020 8:45:00 AM 5.83 42.494 0.575 7.62 2.88 11.56
11/6/2020 9:00:00 AM 5.8 42.44 0.575 7.62 2.91 11.57
11/6/2020 9:15:00 AM 5.81 42.458 0.576 7.62 2.88 11.68
11/6/2020 9:30:00 AM 5.86 42.548 0.576 7.63 3 11.78
11/6/2020 9:45:00 AM 5.9 42.62 0.576 7.64 2.83 11.8
11/6/2020 10:00:00 AM 5.94 42.692 0.576 7.63 2.95 11.75
11/6/2020 10:15:00 AM 5.98 42.764 0.576 7.64 2.88 11.84
11/6/2020 10:30:00 AM 6.03 42.854 0.576 7.63 3.01 11.85
11/6/2020 10:45:00 AM 6.08 42.944 0.576 7.66 2.95 11.89
11/6/2020 11:00:00 AM 6.08 42.944 0.575 7.67 2.98 11.99
11/6/2020 11:15:00 AM 6.1 42.98 0.575 7.68 3.33 12.07
11/6/2020 11:30:00 AM 6.1 42.98 0.575 7.68 2.99 12.15
11/6/2020 11:45:00 AM 6.14 43.052 0.575 7.69 3.53 12.18
11/6/2020 12:00:00 PM 6.17 43.106 0.575 7.7 3.18 12.2
11/6/2020 12:15:00 PM 6.2 43.16 0.574 7.69 3.35 12.11
11/6/2020 12:30:00 PM 6.23 43.214 0.575 7.69 3.06 12.1
11/6/2020 12:45:00 PM 6.27 43.286 0.575 7.69 3.02 12.15
11/6/2020 1:00:00 PM 6.34 43.412 0.575 7.7 2.99 12.18
11/6/2020 1:15:00 PM 6.44 43.592 0.574 7.73 2.89 12.31
11/6/2020 1:30:00 PM 6.56 43.808 0.574 7.74 2.97 12.37
11/6/2020 1:45:00 PM 6.65 43.97 0.574 7.73 2.9 12.3
11/6/2020 2:00:00 PM 6.71 44.078 0.574 7.73 2.91 12.38
11/6/2020 2:15:00 PM 6.8 44.24 0.574 7.76 2.85 12.45
11/6/2020 2:30:00 PM 6.91 44.438 0.573 7.77 2.96 12.51
11/6/2020 2:45:00 PM 6.93 44.474 0.573 7.8 2.83 12.63
11/6/2020 3:00:00 PM 6.86 44.348 0.572 7.81 2.89 12.69
11/6/2020 3:15:00 PM 6.85 44.33 0.573 7.79 3.4 12.69
11/6/2020 3:30:00 PM 6.81 44.258 0.573 7.78 2.9 12.65
11/6/2020 3:45:00 PM 6.89 44.402 0.573 7.77 2.92 12.51
11/6/2020 4:00:00 PM 6.95 44.51 0.573 7.8 2.95 12.56
11/6/2020 4:15:00 PM 6.94 44.492 0.574 7.79 2.91 12.65
11/6/2020 4:30:00 PM 6.8 44.24 0.572 7.8 2.97 12.78
11/6/2020 4:45:00 PM 6.78 44.204 0.573 7.78 3.14 12.77
11/6/2020 5:00:00 PM 6.75 44.15 0.573 7.77 2.91 12.8
11/6/2020 5:15:00 PM 6.76 44.168 0.574 7.77 2.88 12.76
11/6/2020 5:30:00 PM 6.86 44.348 0.574 7.77 3.26 12.62
11/6/2020 5:45:00 PM 6.95 44.51 0.574 7.77 3.14 12.57
11/6/2020 6:00:00 PM 6.95 44.51 0.575 7.76 3.26 12.58
11/6/2020 6:15:00 PM 7.09 44.762 0.575 7.76 3.13 12.61
11/6/2020 6:30:00 PM 7.07 44.726 0.576 7.76 3.5 12.58
11/6/2020 6:45:00 PM 7.1 44.78 0.575 7.77 4.07 12.62
11/6/2020 7:00:00 PM 7.05 44.69 0.576 7.76 3.67 12.52
11/6/2020 7:15:00 PM 6.99 44.582 0.576 7.77 3.32 12.5
11/6/2020 7:30:00 PM 6.95 44.51 0.575 7.77 3.18 12.6
11/6/2020 7:45:00 PM 6.93 44.474 0.575 7.77 3.1 12.58
11/6/2020 8:00:00 PM 6.92 44.456 0.575 7.76 3.01 12.54
11/6/2020 8:15:00 PM 6.94 44.492 0.575 7.77 2.99 12.51
11/6/2020 8:30:00 PM 6.97 44.546 0.575 7.76 2.84 12.48
11/6/2020 8:45:00 PM 6.98 44.564 0.575 7.76 3.08 12.42
11/6/2020 9:00:00 PM 7 44.6 0.575 7.75 3.01 12.37
11/6/2020 9:15:00 PM 7.01 44.618 0.576 7.74 3.19 12.29
11/6/2020 9:30:00 PM 7.03 44.654 0.576 7.72 3.67 12.17
11/6/2020 9:45:00 PM 7.05 44.69 0.576 7.73 3.33 12.16
11/6/2020 10:00:00 PM 7.1 44.78 0.576 7.74 3.28 12.16
11/6/2020 10:15:00 PM 7.13 44.834 0.577 7.75 3.19 12.13
11/6/2020 10:30:00 PM 7.13 44.834 0.578 7.73 3.6 11.99
11/6/2020 10:45:00 PM 7.15 44.87 0.579 7.72 3.5 11.93
11/6/2020 11:00:00 PM 7.25 45.05 0.578 7.74 4.24 11.95
11/6/2020 11:15:00 PM 7.42 45.356 0.578 7.78 6.89 11.85
11/6/2020 11:30:00 PM 7.82 46.076 0.577 7.86 3.71 11.6
11/6/2020 11:45:00 PM 7.87 46.166 0.575 7.88 3.95 11.28
11/7/2020 12:00:00 AM 8 46.4 0.571 7.96 3.51 10.99
11/7/2020 12:15:00 AM 7.97 46.346 0.57 7.96 3.68 10.9
11/7/2020 12:30:00 AM 7.9 46.22 0.571 7.95 4.37 10.92
11/7/2020 12:45:00 AM 7.82 46.076 0.57 7.95 3.58 10.94
11/7/2020 1:00:00 AM 7.73 45.914 0.57 7.93 4.61 10.96
11/7/2020 1:15:00 AM 7.62 45.716 0.571 7.9 3.27 11
11/7/2020 1:30:00 AM 7.53 45.554 0.571 7.89 3.3 11.02
11/7/2020 1:45:00 AM 7.44 45.392 0.571 7.88 3.1 11.05
11/7/2020 2:00:00 AM 7.34 45.212 0.572 7.86 3.46 11.07
11/7/2020 2:15:00 AM 7.24 45.032 0.572 7.84 6.52 11.08
11/7/2020 2:30:00 AM 7.15 44.87 0.572 7.83 4.08 11.13
11/7/2020 2:45:00 AM 7.08 44.744 0.572 7.83 4.06 11.17
11/7/2020 3:00:00 AM 7 44.6 0.573 7.82 3.85 11.2
11/7/2020 3:15:00 AM 6.92 44.456 0.573 7.81 3.67 11.23
11/7/2020 3:30:00 AM 6.79 44.222 0.573 7.81 3.26 11.29
11/7/2020 3:45:00 AM 6.72 44.096 0.573 7.8 3.34 11.31
11/7/2020 4:00:00 AM 6.63 43.934 0.573 7.79 3.3 11.33
11/7/2020 4:15:00 AM 6.56 43.808 0.573 7.79 3.4 11.35
11/7/2020 4:30:00 AM 6.48 43.664 0.573 7.78 3.36 11.37
11/7/2020 4:45:00 AM 6.41 43.538 0.573 7.78 3.63 11.4
11/7/2020 5:00:00 AM 6.35 43.43 0.573 7.78 4.03 11.42
11/7/2020 5:15:00 AM 6.28 43.304 0.574 7.77 3.24 11.43
11/7/2020 5:30:00 AM 6.18 43.124 0.574 7.77 3.02 11.48
11/7/2020 5:45:00 AM 6.11 42.998 0.574 7.77 3.01 11.5
11/7/2020 6:00:00 AM 6.03 42.854 0.574 7.76 3.04 11.52
11/7/2020 6:15:00 AM 5.98 42.764 0.574 7.76 3.16 11.52
11/7/2020 6:30:00 AM 5.91 42.638 0.574 7.76 3.15 11.54
11/7/2020 6:45:00 AM 5.84 42.512 0.574 7.75 3.42 11.54
11/7/2020 7:00:00 AM 5.78 42.404 0.574 7.75 3.2 11.58
11/7/2020 7:15:00 AM 5.73 42.314 0.574 7.75 5.25 11.58
11/7/2020 7:30:00 AM 5.66 42.188 0.574 7.74 3.04 11.61
11/7/2020 7:45:00 AM 5.6 42.08 0.574 7.75 3.02 11.64
11/7/2020 8:00:00 AM 5.58 42.044 0.575 7.74 3.01 11.59
11/7/2020 8:15:00 AM 5.51 41.918 0.574 7.75 2.96 11.65
11/7/2020 8:30:00 AM 5.47 41.846 0.575 7.74 3.04 11.64
11/7/2020 8:45:00 AM 5.43 41.774 0.574 7.75 2.91 11.74
11/7/2020 9:00:00 AM 5.41 41.738 0.575 7.75 2.88 11.82
11/7/2020 9:15:00 AM 5.4 41.72 0.574 7.76 2.92 11.96
11/7/2020 9:30:00 AM 5.4 41.72 0.574 7.77 2.91 12.03
11/7/2020 9:45:00 AM 5.46 41.828 0.575 7.77 2.96 12.03
11/7/2020 10:00:00 AM 5.54 41.972 0.575 7.78 3.05 12.09
11/7/2020 10:15:00 AM 5.6 42.08 0.575 7.78 2.99 11.98
11/7/2020 10:30:00 AM 5.69 42.242 0.575 7.8 3.14 12.1
11/7/2020 10:45:00 AM 5.76 42.368 0.575 7.79 2.92 12.05
11/7/2020 11:00:00 AM 5.81 42.458 0.575 7.8 2.97 12.07
11/7/2020 11:15:00 AM 5.86 42.548 0.575 7.81 3.06 12.16
11/7/2020 11:30:00 AM 5.9 42.62 0.574 7.84 3.18 12.28
11/7/2020 11:45:00 AM 5.97 42.746 0.574 7.85 2.97 12.38
11/7/2020 12:00:00 PM 5.96 42.728 0.573 7.88 2.88 12.52
11/7/2020 12:15:00 PM 5.99 42.782 0.573 7.88 2.93 12.55
11/7/2020 12:30:00 PM 6 42.8 0.572 7.89 3.05 12.66
11/7/2020 12:45:00 PM 6.02 42.836 0.572 7.9 2.88 12.62
11/7/2020 1:00:00 PM 6.05 42.89 0.572 7.9 2.98 12.6
11/7/2020 1:15:00 PM 6.08 42.944 0.572 7.9 2.9 12.59
11/7/2020 1:30:00 PM 6.14 43.052 0.572 7.91 3.01 12.68
11/7/2020 1:45:00 PM 6.23 43.214 0.572 7.95 3.01 12.85
11/7/2020 2:00:00 PM 6.33 43.394 0.571 7.99 3.04 12.97
11/7/2020 2:15:00 PM 6.39 43.502 0.571 8 3.01 13.06
11/7/2020 2:30:00 PM 6.44 43.592 0.571 8 3 13.02
11/7/2020 2:45:00 PM 6.46 43.628 0.571 8.03 2.92 13.06
11/7/2020 3:00:00 PM 6.42 43.556 0.571 8.02 3.17 13.09
11/7/2020 3:15:00 PM 6.42 43.556 0.571 8.02 2.9 13.05
11/7/2020 3:30:00 PM 6.45 43.61 0.571 8.01 2.95 13
11/7/2020 3:45:00 PM 6.5 43.7 0.571 8.02 2.87 12.96
11/7/2020 4:00:00 PM 6.54 43.772 0.571 8.05 3.02 13.13
11/7/2020 4:15:00 PM 6.51 43.718 0.57 8.08 3.14 13.23
11/7/2020 4:30:00 PM 6.48 43.664 0.57 8.07 2.87 13.26
11/7/2020 4:45:00 PM 6.44 43.592 0.57 8.09 2.95 13.29
11/7/2020 5:00:00 PM 6.44 43.592 0.57 8.09 2.94 13.27
11/7/2020 5:15:00 PM 6.52 43.736 0.571 8.07 2.88 13.16
11/7/2020 5:30:00 PM 6.54 43.772 0.57 8.09 2.87 13.12
11/7/2020 5:45:00 PM 6.52 43.736 0.571 8.11 2.99 13.17
11/7/2020 6:00:00 PM 6.52 43.736 0.571 8.12 2.89 13.17
11/7/2020 6:15:00 PM 6.54 43.772 0.571 8.12 2.93 13.16
11/7/2020 6:30:00 PM 6.55 43.79 0.571 8.13 3.05 13.14
11/7/2020 6:45:00 PM 6.54 43.772 0.571 8.14 6.88 13.15
11/7/2020 7:00:00 PM 6.56 43.808 0.571 8.15 3.17 13.11
11/7/2020 7:15:00 PM 6.56 43.808 0.571 8.17 3.77 13.08
11/7/2020 7:30:00 PM 6.57 43.826 0.571 8.18 2.99 13.06
11/7/2020 7:45:00 PM 6.57 43.826 0.571 8.19 2.99 13.05
11/7/2020 8:00:00 PM 6.58 43.844 0.571 8.19 2.87 13.03
11/7/2020 8:15:00 PM 6.74 44.132 0.571 8.2 4.47 13
11/7/2020 8:30:00 PM 6.65 43.97 0.572 8.23 2.93 12.91
11/7/2020 8:45:00 PM 6.65 43.97 0.572 8.23 2.95 12.89
11/7/2020 9:00:00 PM 6.66 43.988 0.572 8.24 3.03 12.86
11/7/2020 9:15:00 PM 6.64 43.952 0.572 8.25 2.98 12.82
11/7/2020 9:30:00 PM 6.63 43.934 0.572 8.26 3.13 12.82
11/7/2020 9:45:00 PM 6.62 43.916 0.572 8.27 2.96 12.8
11/7/2020 10:00:00 PM 6.64 43.952 0.573 8.26 2.86 12.76
11/7/2020 10:15:00 PM 6.67 44.006 0.574 8.26 3.51 12.71
11/7/2020 10:30:00 PM 6.71 44.078 0.574 8.27 3.4 12.59
11/7/2020 10:45:00 PM 6.74 44.132 0.574 8.28 3.15 12.54
11/7/2020 11:00:00 PM 6.76 44.168 0.574 8.29 3.47 12.5
11/7/2020 11:15:00 PM 6.77 44.186 0.575 8.3 3.25 12.42
11/7/2020 11:30:00 PM 6.78 44.204 0.574 8.31 3.36 12.36
11/7/2020 11:45:00 PM 6.85 44.33 0.575 8.32 3.52 12.27
11/8/2020 12:00:00 AM 6.91 44.438 0.575 8.35 3.8 12.16
11/8/2020 12:15:00 AM 6.96 44.528 0.577 8.35 4.13 12
11/8/2020 12:30:00 AM 7.09 44.762 0.577 8.38 3.8 11.91
11/8/2020 12:45:00 AM 7.35 45.23 0.576 8.46 3.74 11.73
11/8/2020 1:00:00 AM 7.45 45.41 0.569 8.59 5.5 11.33
11/8/2020 1:15:00 AM 7.41 45.338 0.566 8.64 3.53 11.17
11/8/2020 1:30:00 AM 7.33 45.194 0.562 8.63 3.43 11.12
11/8/2020 1:45:00 AM 7.27 45.086 0.561 8.65 3.32 11.12
11/8/2020 2:00:00 AM 7.21 44.978 0.561 8.62 3.47 11.1
11/8/2020 2:15:00 AM 7.13 44.834 0.562 8.61 3.51 11.11
11/8/2020 2:30:00 AM 7.05 44.69 0.563 8.58 3.2 11.1
11/8/2020 2:45:00 AM 6.97 44.546 0.565 8.56 3.98 11.1
11/8/2020 3:00:00 AM 6.87 44.366 0.564 8.54 3.78 11.13
11/8/2020 3:15:00 AM 6.79 44.222 0.565 8.52 3.71 11.14
11/8/2020 3:30:00 AM 6.69 44.042 0.567 8.51 8 11.18
11/8/2020 3:45:00 AM 6.59 43.862 0.566 8.5 3.68 11.22
11/8/2020 4:00:00 AM 6.47 43.646 0.566 8.48 3.35 11.28
11/8/2020 4:15:00 AM 6.39 43.502 0.567 8.48 3.71 11.29
11/8/2020 4:30:00 AM 6.33 43.394 0.568 8.47 3.52 11.29
11/8/2020 4:45:00 AM 6.24 43.232 0.568 8.46 3.23 11.33
11/8/2020 5:00:00 AM 6.16 43.088 0.568 8.45 3.84 11.34
11/8/2020 5:15:00 AM 6.05 42.89 0.569 8.43 2.96 11.38
11/8/2020 5:30:00 AM 5.94 42.692 0.569 8.42 3.04 11.44
11/8/2020 5:45:00 AM 5.85 42.53 0.57 8.41 3.12 11.46
11/8/2020 6:00:00 AM 5.76 42.368 0.57 8.4 2.93 11.51
11/8/2020 6:15:00 AM 5.64 42.152 0.57 8.38 2.88 11.58
11/8/2020 6:30:00 AM 5.55 41.99 0.571 8.37 6.91 11.56
11/8/2020 6:45:00 AM 5.47 41.846 0.571 8.36 3.41 11.57
11/8/2020 7:00:00 AM 5.37 41.666 0.571 8.34 2.89 11.63
11/8/2020 7:15:00 AM 5.3 41.54 0.572 8.35 2.76 11.64
11/8/2020 7:30:00 AM 5.23 41.414 0.572 8.34 2.87 11.69
11/8/2020 7:45:00 AM 5.13 41.234 0.572 8.34 2.84 11.72
11/8/2020 8:00:00 AM 5.08 41.144 0.572 8.33 2.77 11.68
11/8/2020 8:15:00 AM 5.04 41.072 0.573 8.32 2.75 11.76
11/8/2020 8:30:00 AM 4.98 40.964 0.573 8.31 2.85 11.76
11/8/2020 8:45:00 AM 4.88 40.784 0.573 8.32 2.86 11.94
11/8/2020 9:00:00 AM 4.83 40.694 0.573 8.32 2.75 11.99
11/8/2020 9:15:00 AM 4.81 40.658 0.573 8.32 2.88 12.03
11/8/2020 9:30:00 AM 4.86 40.748 0.573 8.32 2.83 12.01
11/8/2020 9:45:00 AM 4.88 40.784 0.573 8.35 6.99 12.25
11/8/2020 10:00:00 AM 4.93 40.874 0.573 8.36 2.91 12.38
11/8/2020 10:15:00 AM 4.96 40.928 0.572 8.4 3.07 12.63
11/8/2020 10:30:00 AM 5 41 0.572 8.43 3.03 12.88
11/8/2020 10:45:00 AM 5.07 41.126 0.572 8.45 3.76 12.92
11/8/2020 11:00:00 AM 5.13 41.234 0.573 8.42 3.03 12.81
11/8/2020 11:15:00 AM 5.24 41.432 0.572 8.47 2.96 12.91
11/8/2020 11:30:00 AM 5.4 41.72 0.571 8.51 6.05 13.06
11/8/2020 11:45:00 AM 5.45 41.81 0.572 8.51 4.24 12.99
11/8/2020 12:00:00 PM 5.49 41.882 0.572 8.5 2.8 13.03
11/8/2020 12:15:00 PM 5.51 41.918 0.571 8.51 3.29 13.04
11/8/2020 12:30:00 PM 5.53 41.954 0.572 8.51 2.84 13
11/8/2020 12:45:00 PM 5.54 41.972 0.572 8.51 2.88 13.06
11/8/2020 1:00:00 PM 5.55 41.99 0.571 8.53 2.96 13.09
11/8/2020 1:15:00 PM 5.56 42.008 0.571 8.54 2.87 13.15
11/8/2020 1:30:00 PM 5.6 42.08 0.571 8.54 3.17 13.14
11/8/2020 1:45:00 PM 5.64 42.152 0.571 8.55 2.89 13.07
11/8/2020 2:00:00 PM 5.69 42.242 0.571 8.56 3.21 13.09
11/8/2020 2:15:00 PM 5.73 42.314 0.571 8.57 3.37 13.11
11/8/2020 2:30:00 PM 5.78 42.404 0.571 8.58 2.85 13.19
11/8/2020 2:45:00 PM 5.85 42.53 0.571 8.59 3.03 13.25
11/8/2020 3:00:00 PM 5.95 42.71 0.571 8.62 2.89 13.31
11/8/2020 3:15:00 PM 5.96 42.728 0.571 8.62 2.89 13.3
11/8/2020 3:30:00 PM 5.98 42.764 0.571 8.63 2.79 13.26
11/8/2020 3:45:00 PM 5.97 42.746 0.57 8.66 2.95 13.31
11/8/2020 4:00:00 PM 5.94 42.692 0.57 8.7 3 13.43
11/8/2020 4:15:00 PM 5.97 42.746 0.57 8.68 3.2 13.4
11/8/2020 4:30:00 PM 5.95 42.71 0.57 8.67 3.29 13.39
11/8/2020 4:45:00 PM 5.95 42.71 0.57 8.68 3.31 13.38
11/8/2020 5:00:00 PM 5.98 42.764 0.57 8.67 3.19 13.37
11/8/2020 5:15:00 PM 6.01 42.818 0.571 8.67 3.04 13.3
11/8/2020 5:30:00 PM 6.03 42.854 0.571 8.68 3.5 13.28
11/8/2020 5:45:00 PM 6.02 42.836 0.571 8.7 3.21 13.32
11/8/2020 6:00:00 PM 6.01 42.818 0.571 8.71 3.92 13.31
11/8/2020 6:15:00 PM 6.02 42.836 0.571 8.72 3.25 13.24
11/8/2020 6:30:00 PM 6.03 42.854 0.571 8.73 3.15 13.2
11/8/2020 6:45:00 PM 6.02 42.836 0.571 8.73 3.13 13.19
11/8/2020 7:00:00 PM 6.07 42.926 0.571 8.72 3.38 13.12
11/8/2020 7:15:00 PM 6.09 42.962 0.571 8.72 3.73 13.08
11/8/2020 7:30:00 PM 6.1 42.98 0.571 8.72 3.39 13.07
11/8/2020 7:45:00 PM 6.08 42.944 0.571 8.74 3.38 13.13
11/8/2020 8:00:00 PM 6.06 42.908 0.571 8.73 3.22 13.1
11/8/2020 8:15:00 PM 6.06 42.908 0.571 8.74 3.21 13.09
11/8/2020 8:30:00 PM 6.09 42.962 0.571 8.74 3.54 13.06
11/8/2020 8:45:00 PM 6.09 42.962 0.572 8.74 3.16 13.02
11/8/2020 9:00:00 PM 6.09 42.962 0.572 8.76 3.29 13
11/8/2020 9:15:00 PM 6.1 42.98 0.572 8.75 3.21 12.95
11/8/2020 9:30:00 PM 6.11 42.998 0.572 8.75 3.2 12.93
11/8/2020 9:45:00 PM 6.13 43.034 0.572 8.75 3.19 12.91
11/8/2020 10:00:00 PM 6.14 43.052 0.572 8.75 3.32 12.88
11/8/2020 10:15:00 PM 6.13 43.034 0.572 8.76 3.24 12.9
11/8/2020 10:30:00 PM 6.12 43.016 0.572 8.76 3.22 12.89
11/8/2020 10:45:00 PM 6.13 43.034 0.572 8.76 3.52 12.85
11/8/2020 11:00:00 PM 6.14 43.052 0.572 8.77 3.13 12.79
11/8/2020 11:15:00 PM 6.15 43.07 0.572 8.78 3.11 12.77
11/8/2020 11:30:00 PM 6.17 43.106 0.572 8.79 3.07 12.75
11/8/2020 11:45:00 PM 6.18 43.124 0.572 8.8 3.09 12.71
11/9/2020 12:00:00 AM 6.22 43.196 0.572 8.8 3.08 12.66
11/9/2020 12:15:00 AM 6.33 43.394 0.573 8.81 3.38 12.59
11/9/2020 12:30:00 AM 6.56 43.808 0.573 8.86 3.52 12.46
11/9/2020 12:45:00 AM 6.78 44.204 0.575 8.89 4.44 12.19
11/9/2020 1:00:00 AM 6.91 44.438 0.574 8.92 3.28 11.89
11/9/2020 1:15:00 AM 6.95 44.51 0.568 9.06 4.82 11.51
11/9/2020 1:30:00 AM 6.9 44.42 0.57 9.03 3.57 11.43
11/9/2020 1:45:00 AM 6.87 44.366 0.565 9.06 3.21 11.34
11/9/2020 2:00:00 AM 6.77 44.186 0.563 9.06 3.43 11.34
11/9/2020 2:15:00 AM 6.68 44.024 0.564 9.03 3.13 11.35
11/9/2020 2:30:00 AM 6.62 43.916 0.565 9.01 3.63 11.35
11/9/2020 2:45:00 AM 6.54 43.772 0.566 9 3.03 11.36
11/9/2020 3:00:00 AM 6.46 43.628 0.566 8.97 3 11.36
11/9/2020 3:15:00 AM 6.4 43.52 0.567 8.95 3.33 11.39
11/9/2020 3:30:00 AM 6.3 43.34 0.568 8.94 3.22 11.41
11/9/2020 3:45:00 AM 6.24 43.232 0.568 8.92 3.06 11.43
11/9/2020 4:00:00 AM 6.19 43.142 0.569 8.9 3.12 11.44
11/9/2020 4:15:00 AM 6.1 42.98 0.57 8.88 2.97 11.48
11/9/2020 4:30:00 AM 6.01 42.818 0.57 8.87 2.99 11.54
11/9/2020 4:45:00 AM 5.93 42.674 0.571 8.85 3.24 11.57
11/9/2020 5:00:00 AM 5.86 42.548 0.572 8.84 2.98 11.6
11/9/2020 5:15:00 AM 5.79 42.422 0.573 8.83 2.86 11.62
11/9/2020 5:30:00 AM 5.68 42.224 0.573 8.82 2.9 11.66
11/9/2020 5:45:00 AM 5.6 42.08 0.574 8.82 3.76 11.69
11/9/2020 6:00:00 AM 5.54 41.972 0.574 8.81 3.28 11.71
11/9/2020 6:15:00 AM 5.47 41.846 0.575 8.8 2.99 11.74
11/9/2020 6:30:00 AM 5.41 41.738 0.575 8.81 2.96 11.75
11/9/2020 6:45:00 AM 5.37 41.666 0.575 8.81 2.95 11.74
11/9/2020 7:00:00 AM 5.3 41.54 0.575 8.8 2.95 11.81
11/9/2020 7:15:00 AM 5.21 41.378 0.575 8.79 2.81 11.83
11/9/2020 7:30:00 AM 5.11 41.198 0.576 8.77 2.85 11.88
11/9/2020 7:45:00 AM 5.05 41.09 0.576 8.75 2.84 11.92
11/9/2020 8:00:00 AM 4.99 40.982 0.576 8.74 2.85 11.95
11/9/2020 8:15:00 AM 4.95 40.91 0.576 8.73 2.77 11.97
11/9/2020 8:30:00 AM 4.85 40.73 0.576 8.73 2.78 12.02
11/9/2020 8:45:00 AM 4.82 40.676 0.576 8.71 2.78 12.07
11/9/2020 9:00:00 AM 4.77 40.586 0.576 8.71 2.79 12.07
11/9/2020 9:15:00 AM 4.76 40.568 0.576 8.7 2.84 12.08
11/9/2020 9:30:00 AM 4.73 40.514 0.576 8.71 2.72 12.17
11/9/2020 9:45:00 AM 4.76 40.568 0.576 8.7 2.77 12.31
11/9/2020 10:00:00 AM 4.82 40.676 0.576 8.72 3.78 12.38
11/9/2020 10:15:00 AM 4.85 40.73 0.575 8.76 3.05 12.58
11/9/2020 10:30:00 AM 4.89 40.802 0.575 8.78 2.89 12.74
11/9/2020 10:45:00 AM 4.94 40.892 0.575 8.77 2.8 12.76
11/9/2020 11:00:00 AM 5 41 0.575 8.75 2.8 12.66
11/9/2020 11:15:00 AM 5.08 41.144 0.575 8.76 2.8 12.54
11/9/2020 11:30:00 AM 5.2 41.36 0.575 8.77 2.82 12.6
11/9/2020 11:45:00 AM 5.26 41.468 0.575 8.78 2.8 12.74
11/9/2020 12:00:00 PM 5.31 41.558 0.575 8.77 2.71 12.63
11/9/2020 12:15:00 PM 5.35 41.63 0.574 8.78 2.88 12.72
11/9/2020 12:30:00 PM 5.38 41.684 0.575 8.77 2.73 12.56
11/9/2020 12:45:00 PM 5.4 41.72 0.575 8.78 2.76 12.67
11/9/2020 1:00:00 PM 5.42 41.756 0.575 8.75 2.71 12.57
11/9/2020 1:15:00 PM 5.43 41.774 0.574 8.74 2.76 12.45
11/9/2020 1:30:00 PM 5.51 41.918 0.574 8.77 2.8 12.77
11/9/2020 1:45:00 PM 5.53 41.954 0.574 8.76 2.79 12.73
11/9/2020 2:00:00 PM 5.57 42.026 0.574 8.76 3.06 12.73
11/9/2020 2:15:00 PM 5.62 42.116 0.574 8.76 2.73 12.78
11/9/2020 2:30:00 PM 5.66 42.188 0.574 8.77 2.85 12.9
11/9/2020 2:45:00 PM 5.74 42.332 0.574 8.78 3.01 12.97
11/9/2020 3:00:00 PM 5.77 42.386 0.574 8.78 2.81 12.9
11/9/2020 3:15:00 PM 5.81 42.458 0.574 8.78 2.8 12.86
11/9/2020 3:30:00 PM 5.82 42.476 0.574 8.79 2.74 12.91
11/9/2020 3:45:00 PM 5.85 42.53 0.574 8.8 2.84 12.96
11/9/2020 4:00:00 PM 5.86 42.548 0.574 8.83 2.9 13.05
11/9/2020 4:15:00 PM 5.85 42.53 0.574 8.85 3.56 13.15
11/9/2020 4:30:00 PM 5.86 42.548 0.573 8.86 2.9 13.19
11/9/2020 4:45:00 PM 5.84 42.512 0.573 8.87 2.91 13.18
11/9/2020 5:00:00 PM 5.84 42.512 0.574 8.85 2.84 13.07
11/9/2020 5:15:00 PM 5.85 42.53 0.573 8.84 2.89 13.02
11/9/2020 5:30:00 PM 5.84 42.512 0.573 8.85 2.91 13.08
11/9/2020 5:45:00 PM 5.84 42.512 0.574 8.86 2.83 13.07
11/9/2020 6:00:00 PM 5.85 42.53 0.574 8.85 2.81 13.03
11/9/2020 6:15:00 PM 5.87 42.566 0.574 8.87 2.91 13.04
11/9/2020 6:30:00 PM 5.86 42.548 0.574 8.87 2.84 13.06
11/9/2020 6:45:00 PM 5.85 42.53 0.574 8.89 3.14 13.08
11/9/2020 7:00:00 PM 5.85 42.53 0.574 8.89 3.01 13.07
11/9/2020 7:15:00 PM 6.04 42.872 0.575 8.86 6.91 12.91
11/9/2020 7:30:00 PM 6.07 42.926 0.576 8.85 4.79 12.81
11/9/2020 7:45:00 PM 6.05 42.89 0.576 8.86 4.57 12.78
11/9/2020 8:00:00 PM 6.09 42.962 0.578 8.84 5.42 12.53
11/9/2020 8:15:00 PM 6.1 42.98 0.579 8.83 8.64 12.36
11/9/2020 8:30:00 PM 6.1 42.98 0.579 8.84 7.17 12.3
11/9/2020 8:45:00 PM 6.05 42.89 0.577 8.88 4.13 12.4
11/9/2020 9:00:00 PM 6.01 42.818 0.576 8.87 3.41 12.59
11/9/2020 9:15:00 PM 6 42.8 0.576 8.89 3.64 12.58
11/9/2020 9:30:00 PM 6.01 42.818 0.576 8.89 3.88 12.56
11/9/2020 9:45:00 PM 6.02 42.836 0.576 8.89 3.87 12.55
11/9/2020 10:00:00 PM 6.02 42.836 0.576 8.9 3.56 12.52
11/9/2020 10:15:00 PM 6.03 42.854 0.576 8.89 3.78 12.48
11/9/2020 10:30:00 PM 6.04 42.872 0.576 8.89 3.71 12.45
11/9/2020 10:45:00 PM 6.06 42.908 0.576 8.88 3.58 12.39
11/9/2020 11:00:00 PM 6.07 42.926 0.576 8.89 3.63 12.36
11/9/2020 11:15:00 PM 6.08 42.944 0.576 8.91 3.71 12.24
11/9/2020 11:30:00 PM 6.08 42.944 0.576 8.9 3.83 12.34
11/9/2020 11:45:00 PM 6.08 42.944 0.576 8.9 3.85 12.29
11/10/2020 12:00:00 AM 6.15 43.07 0.576 8.88 4.2 12.25
11/10/2020 12:15:00 AM 6.13 43.034 0.576 8.88 4.29 12.13
11/10/2020 12:30:00 AM 6.14 43.052 0.577 8.87 4.32 12.05
11/10/2020 12:45:00 AM 6.14 43.052 0.577 8.89 4 12.05
11/10/2020 1:00:00 AM 6.15 43.07 0.577 8.91 4.13 12
11/10/2020 1:15:00 AM 6.21 43.178 0.577 8.92 4.12 11.9
11/10/2020 1:30:00 AM 6.3 43.34 0.578 8.95 4.19 11.87
11/10/2020 1:45:00 AM 6.46 43.628 0.578 8.96 3.9 11.83
11/10/2020 2:00:00 AM 6.58 43.844 0.578 9 3.87 11.67
11/10/2020 2:15:00 AM 6.74 44.132 0.576 9.08 4.01 11.43
11/10/2020 2:30:00 AM 6.79 44.222 0.567 9.19 5.89 11.26
11/10/2020 2:45:00 AM 6.74 44.132 0.566 9.2 3.24 11.27
11/10/2020 3:00:00 AM 6.68 44.024 0.566 9.18 3.15 11.29
11/10/2020 3:15:00 AM 6.67 44.006 0.569 9.11 7.8 10.99
11/10/2020 3:30:00 AM 6.64 43.952 0.569 9.12 11.14 11.1
11/10/2020 3:45:00 AM 6.51 43.718 0.569 9.13 4.49 11.2
11/10/2020 4:00:00 AM 6.49 43.682 0.569 9.13 3.84 11.26
11/10/2020 4:15:00 AM 6.41 43.538 0.57 9.11 4.78 11.28
11/10/2020 4:30:00 AM 6.35 43.43 0.571 9.1 4.42 11.31
11/10/2020 4:45:00 AM 6.28 43.304 0.571 9.09 3.38 11.37
11/10/2020 5:00:00 AM 6.22 43.196 0.572 9.08 3.16 11.37
11/10/2020 5:15:00 AM 6.17 43.106 0.573 9.06 3.71 11.37
11/10/2020 5:30:00 AM 6.09 42.962 0.574 9.06 3.45 11.42
11/10/2020 5:45:00 AM 6.04 42.872 0.574 9.05 3.52 11.46
11/10/2020 6:00:00 AM 5.98 42.764 0.575 9.06 3.43 11.47
11/10/2020 6:15:00 AM 5.94 42.692 0.575 9.04 3.75 11.49
11/10/2020 6:30:00 AM 5.88 42.584 0.576 9.04 3.26 11.52
11/10/2020 6:45:00 AM 5.81 42.458 0.576 9.04 3.13 11.57
11/10/2020 7:00:00 AM 5.74 42.332 0.577 9.02 11.13 11.55
11/10/2020 7:15:00 AM 5.69 42.242 0.577 9.02 3.18 11.61
11/10/2020 7:30:00 AM 5.63 42.134 0.577 9.02 2.9 11.65
11/10/2020 7:45:00 AM 5.6 42.08 0.577 9.01 2.91 11.63
11/10/2020 8:00:00 AM 5.55 41.99 0.577 9 2.89 11.5
11/10/2020 8:15:00 AM 5.52 41.936 0.577 8.99 2.86 11.64
11/10/2020 8:30:00 AM 5.48 41.864 0.577 8.99 2.76 11.67
11/10/2020 8:45:00 AM 5.43 41.774 0.577 8.98 2.83 11.48
11/10/2020 9:00:00 AM 5.38 41.684 0.577 8.98 3.68 11.69
11/10/2020 9:15:00 AM 5.36 41.648 0.577 8.96 2.95 11.78
11/10/2020 9:30:00 AM 5.35 41.63 0.577 8.96 2.93 11.94
11/10/2020 9:45:00 AM 5.38 41.684 0.577 8.97 2.87 12.09
11/10/2020 10:00:00 AM 5.43 41.774 0.577 8.98 7 12.23
11/10/2020 10:15:00 AM 5.49 41.882 0.577 8.98 2.86 12.21
11/10/2020 10:30:00 AM 5.55 41.99 0.577 8.98 2.72 12.24
11/10/2020 10:45:00 AM 5.61 42.098 0.578 8.98 2.81 12.18
11/10/2020 11:00:00 AM 5.66 42.188 0.577 9.01 2.8 12.32
11/10/2020 11:15:00 AM 5.77 42.386 0.577 9.01 3.3 12.36
11/10/2020 11:30:00 AM 5.88 42.584 0.577 9.04 2.85 12.44
11/10/2020 11:45:00 AM 5.89 42.602 0.577 9.02 3.03 12.32
11/10/2020 12:00:00 PM 5.91 42.638 0.577 9.02 3.16 12.37
11/10/2020 12:15:00 PM 5.93 42.674 0.577 9.02 2.76 12.43
11/10/2020 12:30:00 PM 5.96 42.728 0.576 9.03 3.72 12.46
11/10/2020 12:45:00 PM 5.97 42.746 0.577 9.03 2.75 12.44
11/10/2020 1:00:00 PM 5.97 42.746 0.577 9.03 2.72 12.5
11/10/2020 1:15:00 PM 6 42.8 0.577 9.02 2.85 12.51
11/10/2020 1:30:00 PM 6.07 42.926 0.577 9.02 2.81 12.56
11/10/2020 1:45:00 PM 6.11 42.998 0.577 9.03 2.7 12.58
11/10/2020 2:00:00 PM 6.16 43.088 0.576 9.03 2.76 12.57
11/10/2020 2:15:00 PM 6.19 43.142 0.576 9.03 2.69 12.6
11/10/2020 2:30:00 PM 6.23 43.214 0.577 9.02 2.69 12.59
11/10/2020 2:45:00 PM 6.3 43.34 0.576 9.05 2.69 12.63
11/10/2020 3:00:00 PM 6.33 43.394 0.576 9.05 2.78 12.73
11/10/2020 3:15:00 PM 6.35 43.43 0.575 9.06 2.77 12.79
11/10/2020 3:30:00 PM 6.35 43.43 0.575 9.06 3.55 12.79
11/10/2020 3:45:00 PM 6.35 43.43 0.575 9.06 3.2 12.79
11/10/2020 4:00:00 PM 6.36 43.448 0.575 9.07 3.07 12.81
11/10/2020 4:15:00 PM 6.39 43.502 0.575 9.06 3.83 12.76
11/10/2020 4:30:00 PM 6.4 43.52 0.575 9.04 2.97 12.69
11/10/2020 4:45:00 PM 6.4 43.52 0.575 9.03 3.03 12.64
11/10/2020 5:00:00 PM 6.41 43.538 0.575 9.03 2.89 12.64
11/10/2020 5:15:00 PM 6.42 43.556 0.575 9.03 2.98 12.66
11/10/2020 5:30:00 PM 6.42 43.556 0.575 9.04 2.9 12.69
11/10/2020 5:45:00 PM 6.42 43.556 0.575 9.05 2.86 12.7
11/10/2020 6:00:00 PM 6.41 43.538 0.575 9.05 3.1 12.77
11/10/2020 6:15:00 PM 6.41 43.538 0.575 9.05 3.05 12.78
11/10/2020 6:30:00 PM 6.4 43.52 0.575 9.03 2.97 12.78
11/10/2020 6:45:00 PM 6.39 43.502 0.575 9.03 2.96 12.78
11/10/2020 7:00:00 PM 6.39 43.502 0.575 9.03 3.08 12.76
11/10/2020 7:15:00 PM 6.39 43.502 0.575 9.01 2.91 12.75
11/10/2020 7:30:00 PM 6.39 43.502 0.575 9 2.87 12.73
11/10/2020 7:45:00 PM 6.41 43.538 0.575 8.97 3 12.65
11/10/2020 8:00:00 PM 6.48 43.664 0.577 8.94 3.8 12.47
11/10/2020 8:15:00 PM 6.51 43.718 0.578 8.92 4.78 12.32
11/10/2020 8:30:00 PM 6.51 43.718 0.578 8.9 4.61 12.25
11/10/2020 8:45:00 PM 6.52 43.736 0.579 8.88 4.04 12.14
11/10/2020 9:00:00 PM 6.52 43.736 0.579 8.87 4.25 12.08
11/10/2020 9:15:00 PM 6.52 43.736 0.579 8.85 4.14 12.05
11/10/2020 9:30:00 PM 6.52 43.736 0.579 8.85 3.81 12.06
11/10/2020 9:45:00 PM 6.51 43.718 0.578 8.84 3.45 11.98
11/10/2020 10:00:00 PM 6.52 43.736 0.578 8.83 3.62 12.01
11/10/2020 10:15:00 PM 6.53 43.754 0.578 8.82 4.06 12.06
11/10/2020 10:30:00 PM 6.54 43.772 0.578 8.82 3.36 12.01
11/10/2020 10:45:00 PM 6.54 43.772 0.578 8.82 3.33 11.97
11/10/2020 11:00:00 PM 6.54 43.772 0.579 8.8 5.52 11.97
11/10/2020 11:15:00 PM 6.53 43.754 0.578 8.8 3.26 11.98
11/10/2020 11:30:00 PM 6.52 43.736 0.577 8.81 3.18 12.08
11/10/2020 11:45:00 PM 6.5 43.7 0.577 8.8 3.06 12.27
11/11/2020 12:00:00 AM 6.51 43.718 0.578 8.78 3.35 12.12
11/11/2020 12:15:00 AM 6.51 43.718 0.577 8.76 3.09 12.12
11/11/2020 12:30:00 AM 6.52 43.736 0.576 8.77 3.08 12.22
11/11/2020 12:45:00 AM 6.54 43.772 0.576 8.76 3.16 12.29
11/11/2020 1:00:00 AM 6.56 43.808 0.576 8.76 3.14 12.31
11/11/2020 1:15:00 AM 6.57 43.826 0.576 8.75 3.12 12.27
11/11/2020 1:30:00 AM 6.57 43.826 0.577 8.72 3.49 12.1
11/11/2020 1:45:00 AM 6.57 43.826 0.577 8.7 3.33 11.99
11/11/2020 2:00:00 AM 6.57 43.826 0.578 8.68 3.4 11.82
11/11/2020 2:15:00 AM 6.57 43.826 0.577 8.66 3.37 11.84
11/11/2020 2:30:00 AM 6.55 43.79 0.576 8.69 3.2 12
11/11/2020 2:45:00 AM 6.5 43.7 0.576 8.71 3.17 12.23
11/11/2020 3:00:00 AM 6.49 43.682 0.575 8.7 2.98 12.27
11/11/2020 3:15:00 AM 6.5 43.7 0.576 8.67 3.06 12.18
11/11/2020 3:30:00 AM 6.53 43.754 0.576 8.66 3 12.13
11/11/2020 3:45:00 AM 6.56 43.808 0.576 8.64 3.34 12.08
11/11/2020 4:00:00 AM 6.59 43.862 0.577 8.62 3.82 11.93
11/11/2020 4:15:00 AM 6.55 43.79 0.576 8.63 3.44 12.03
11/11/2020 4:30:00 AM 6.54 43.772 0.576 8.62 2.96 12.09
11/11/2020 4:45:00 AM 6.54 43.772 0.575 8.65 3.05 12.14
11/11/2020 5:00:00 AM 6.54 43.772 0.575 8.67 2.9 12.16
11/11/2020 5:15:00 AM 6.54 43.772 0.576 8.7 2.93 12.14
11/11/2020 5:30:00 AM 6.55 43.79 0.576 8.71 2.86 12.15
11/11/2020 5:45:00 AM 6.58 43.844 0.576 8.73 2.94 12.07
11/11/2020 6:00:00 AM 6.59 43.862 0.577 8.7 3.1 11.9
11/11/2020 6:15:00 AM 6.6 43.88 0.576 8.7 3.25 11.98
11/11/2020 6:30:00 AM 6.59 43.862 0.577 8.71 3.18 11.96
11/11/2020 6:45:00 AM 6.6 43.88 0.577 8.69 3.07 11.91
11/11/2020 7:00:00 AM 6.69 44.042 0.577 8.69 3.52 11.78
11/11/2020 7:15:00 AM 6.78 44.204 0.577 8.68 3.75 11.7
11/11/2020 7:30:00 AM 6.74 44.132 0.577 8.65 3.51 11.5
11/11/2020 7:45:00 AM 6.73 44.114 0.578 8.64 3.76 11.4
11/11/2020 8:00:00 AM 6.72 44.096 0.577 8.65 3.48 11.51
11/11/2020 8:15:00 AM 6.76 44.168 0.578 8.66 3.26 11.68
11/11/2020 8:30:00 AM 6.85 44.33 0.577 8.67 3.32 11.53
11/11/2020 8:45:00 AM 6.96 44.528 0.578 8.67 4.7 11.48
11/11/2020 9:00:00 AM 6.82 44.276 0.58 8.68 3.79 11.49
11/11/2020 9:15:00 AM 6.86 44.348 0.581 8.61 3.97 10.98
11/11/2020 9:30:00 AM 6.87 44.366 0.582 8.58 3.94 10.67
11/11/2020 9:45:00 AM 6.83 44.294 0.581 8.63 3.87 11.09
11/11/2020 10:00:00 AM 6.84 44.312 0.581 8.59 3.5 10.91
11/11/2020 10:15:00 AM 6.91 44.438 0.58 8.64 3.41 10.98
11/11/2020 10:30:00 AM 7.08 44.744 0.578 8.66 3.54 11.19
11/11/2020 10:45:00 AM 7.34 45.212 0.578 8.71 3.58 11.52
11/11/2020 11:00:00 AM 7.05 44.69 0.582 8.64 3.66 10.84
11/11/2020 11:15:00 AM 6.97 44.546 0.58 8.64 3.78 10.93
11/11/2020 11:30:00 AM 7.04 44.672 0.581 8.63 3.63 10.98
11/11/2020 11:45:00 AM 7.07 44.726 0.58 8.67 3.78 11.01
11/11/2020 12:00:00 PM 7.07 44.726 0.581 8.62 3.63 10.84
11/11/2020 12:15:00 PM 7.07 44.726 0.582 8.6 3.56 10.75
11/11/2020 12:30:00 PM 7.1 44.78 0.581 8.61 3.69 10.78
11/11/2020 12:45:00 PM 7.36 45.248 0.58 8.64 3.65 10.66
11/11/2020 1:00:00 PM 7.22 44.996 0.581 8.7 3.91 10.66
11/11/2020 1:15:00 PM 7.18 44.924 0.582 8.79 3.78 10.58
11/11/2020 1:30:00 PM 7.3 45.14 0.585 8.86 4 10.33
11/11/2020 1:45:00 PM 7.33 45.194 0.585 8.82 3.94 10.2
11/11/2020 2:00:00 PM 7.6 45.68 0.584 8.91 4.93 10.14
11/11/2020 2:15:00 PM 7.43 45.374 0.586 8.88 4.08 9.95
11/11/2020 2:30:00 PM 7.66 45.788 0.585 8.88 4.06 9.88
11/11/2020 2:45:00 PM 7.58 45.644 0.588 8.85 4.13 9.69
11/11/2020 3:00:00 PM 7.65 45.77 0.588 8.88 4.08 9.66
11/11/2020 3:15:00 PM 7.66 45.788 0.59 8.83 4.07 9.68
11/11/2020 3:30:00 PM 7.82 46.076 0.589 8.85 3.96 9.7
11/11/2020 3:45:00 PM 7.75 45.95 0.59 8.81 4.14 9.61
11/11/2020 4:00:00 PM 7.91 46.238 0.587 8.83 4.24 9.89
11/11/2020 4:15:00 PM 7.87 46.166 0.588 8.79 4.07 10.01
11/11/2020 4:30:00 PM 7.96 46.328 0.591 8.73 4.09 9.78
11/11/2020 4:45:00 PM 8 46.4 0.591 8.71 3.84 9.64
11/11/2020 5:00:00 PM 8.16 46.688 0.592 8.68 4.07 9.55
11/11/2020 5:15:00 PM 8.12 46.616 0.594 8.66 3.8 9.43
11/11/2020 5:30:00 PM 8.08 46.544 0.596 8.66 4.07 9.3
11/11/2020 5:45:00 PM 8.17 46.706 0.594 8.65 4.51 9.32
11/11/2020 6:00:00 PM 8.1 46.58 0.595 8.65 5.01 9.35
11/11/2020 6:15:00 PM 8.2 46.76 0.592 8.66 4.45 9.55
11/11/2020 6:30:00 PM 8.23 46.814 0.59 8.65 4.27 9.64
11/11/2020 6:45:00 PM 8.19 46.742 0.592 8.64 4.67 9.69
11/11/2020 7:00:00 PM 8.33 46.994 0.593 8.6 4.21 9.61
11/11/2020 7:15:00 PM 8.39 47.102 0.591 8.63 3.91 9.67
11/11/2020 7:30:00 PM 8.33 46.994 0.593 8.63 4.08 9.64
11/11/2020 7:45:00 PM 8.66 47.588 0.587 8.68 3.99 9.85
11/11/2020 8:00:00 PM 8.76 47.768 0.588 8.67 4 9.73
11/11/2020 8:15:00 PM 8.68 47.624 0.593 8.68 4.45 9.16
11/11/2020 8:30:00 PM 9.14 48.452 0.583 8.78 4.44 9.4
11/11/2020 8:45:00 PM 9.38 48.884 0.575 8.82 4.04 9.53
11/11/2020 9:00:00 PM 9.94 49.892 0.559 9 4.03 9.96
11/11/2020 9:15:00 PM 10.23 50.414 0.554 9.02 4.88 10.12
11/11/2020 9:30:00 PM 10.33 50.594 0.559 8.97 4.93 9.98
11/11/2020 9:45:00 PM 10.45 50.81 0.563 8.95 5.11 10.02
11/11/2020 10:00:00 PM 10.49 50.882 0.567 8.9 5.17 9.95
11/11/2020 10:15:00 PM 10.51 50.918 0.568 8.89 5.15 9.97
11/11/2020 10:30:00 PM 10.55 50.99 0.571 8.85 5.54 9.95
11/11/2020 10:45:00 PM 10.56 51.008 0.571 8.83 5.37 9.92
11/11/2020 11:00:00 PM 10.54 50.972 0.572 8.8 5.36 9.86
11/11/2020 11:15:00 PM 10.52 50.936 0.571 8.81 5.27 9.82
11/11/2020 11:30:00 PM 10.5 50.9 0.571 8.78 5.86 9.82
11/11/2020 11:45:00 PM 10.52 50.936 0.568 8.75 5.94 9.89
11/12/2020 12:00:00 AM 10.55 50.99 0.565 8.72 5.88 9.98
11/12/2020 12:15:00 AM 10.55 50.99 0.564 8.7 5.78 9.99
11/12/2020 12:30:00 AM 10.54 50.972 0.559 8.67 6.12 10.02
11/12/2020 12:45:00 AM 10.52 50.936 0.555 8.64 6.2 10.05
11/12/2020 1:00:00 AM 10.51 50.918 0.553 8.62 7.09 10.05
11/12/2020 1:15:00 AM 10.49 50.882 0.548 8.6 6.47 10.09
11/12/2020 1:30:00 AM 10.47 50.846 0.545 8.58 6.62 10.11
11/12/2020 1:45:00 AM 10.44 50.792 0.542 8.56 6.62 10.15
11/12/2020 2:00:00 AM 10.41 50.738 0.539 8.54 6.28 10.17
11/12/2020 2:15:00 AM 10.38 50.684 0.537 8.53 5.9 10.21
11/12/2020 2:30:00 AM 10.35 50.63 0.535 8.52 6.24 10.22
11/12/2020 2:45:00 AM 10.32 50.576 0.533 8.5 7.44 10.22
11/12/2020 3:00:00 AM 10.29 50.522 0.532 8.5 6.22 10.25
11/12/2020 3:15:00 AM 10.25 50.45 0.531 8.48 5.89 10.25
11/12/2020 3:30:00 AM 10.21 50.378 0.529 8.48 7.71 10.3
11/12/2020 3:45:00 AM 10.18 50.324 0.528 8.46 5.64 10.32
11/12/2020 4:00:00 AM 10.12 50.216 0.527 8.45 6.15 10.35
11/12/2020 4:15:00 AM 10.09 50.162 0.526 8.43 6.18 10.34
11/12/2020 4:30:00 AM 10.05 50.09 0.525 8.42 5.99 10.35
11/12/2020 4:45:00 AM 10 50 0.521 8.42 5.53 10.38
11/12/2020 5:00:00 AM 9.96 49.928 0.52 8.4 5.63 10.39
11/12/2020 5:15:00 AM 9.93 49.874 0.518 8.4 5.67 10.39
11/12/2020 5:30:00 AM 9.88 49.784 0.515 8.37 6.68 10.41
11/12/2020 5:45:00 AM 9.85 49.73 0.514 8.36 5.93 10.42
11/12/2020 6:00:00 AM 9.8 49.64 0.511 8.37 5.46 10.46
11/12/2020 6:15:00 AM 9.77 49.586 0.511 8.36 5.87 10.45
11/12/2020 6:30:00 AM 9.74 49.532 0.51 8.36 5.6 10.47
11/12/2020 6:45:00 AM 9.7 49.46 0.508 8.34 5.66 10.48
11/12/2020 7:00:00 AM 9.67 49.406 0.508 8.33 5.94 10.48
11/12/2020 7:15:00 AM 9.62 49.316 0.507 8.34 5.52 10.51
11/12/2020 7:30:00 AM 9.58 49.244 0.507 8.34 5.46 10.53
11/12/2020 7:45:00 AM 9.54 49.172 0.507 8.33 6.09 10.55
11/12/2020 8:00:00 AM 9.49 49.082 0.507 8.33 6.24 10.61
11/12/2020 8:15:00 AM 9.45 49.01 0.507 8.33 5.32 10.64
11/12/2020 8:30:00 AM 9.43 48.974 0.508 8.32 5.8 10.6
11/12/2020 8:45:00 AM 9.38 48.884 0.508 8.33 5.31 10.75
11/12/2020 9:00:00 AM 9.34 48.812 0.508 8.33 5.01 10.75
11/12/2020 9:15:00 AM 9.34 48.812 0.508 8.31 5.65 10.75
11/12/2020 9:30:00 AM 9.28 48.704 0.509 8.34 5.25 10.87
11/12/2020 9:45:00 AM 9.26 48.668 0.509 8.33 5.43 10.95
11/12/2020 10:00:00 AM 9.26 48.668 0.509 8.33 5.19 10.98
11/12/2020 10:15:00 AM 9.23 48.614 0.51 8.37 5.25 11.24
11/12/2020 10:30:00 AM 9.21 48.578 0.511 8.4 4.88 11.38
11/12/2020 10:45:00 AM 9.2 48.56 0.511 8.41 5.28 11.51
11/12/2020 11:00:00 AM 9.19 48.542 0.512 8.43 4.92 11.6
11/12/2020 11:15:00 AM 9.19 48.542 0.512 8.44 4.73 11.65
11/12/2020 11:30:00 AM 9.18 48.524 0.512 8.45 5.18 11.71
11/12/2020 11:45:00 AM 9.17 48.506 0.512 8.47 5.14 11.84
11/12/2020 12:00:00 PM 9.18 48.524 0.512 8.52 4.97 11.91
11/12/2020 12:15:00 PM 9.2 48.56 0.512 8.55 4.87 12.07
11/12/2020 12:30:00 PM 9.24 48.632 0.511 8.62 4.48 12.25
11/12/2020 12:45:00 PM 9.28 48.704 0.511 8.62 5.5 12.33
11/12/2020 1:00:00 PM 9.34 48.812 0.509 8.71 4.85 12.5
11/12/2020 1:15:00 PM 9.37 48.866 0.509 8.73 4.54 12.56
11/12/2020 1:30:00 PM 9.41 48.938 0.507 8.75 4.72 12.65
11/12/2020 1:45:00 PM 9.44 48.992 0.506 8.8 4.88 12.74
11/12/2020 2:00:00 PM 9.47 49.046 0.505 8.83 9.74 12.85
11/12/2020 2:15:00 PM 9.49 49.082 0.504 8.87 4.55 12.91
11/12/2020 2:30:00 PM 9.51 49.118 0.503 8.89 4.48 12.94
11/12/2020 2:45:00 PM 9.52 49.136 0.503 8.92 11.52 12.96
11/12/2020 3:00:00 PM 9.53 49.154 0.501 8.98 5.35 13.02
11/12/2020 3:15:00 PM 9.52 49.136 0.502 8.98 5.08 13.03
11/12/2020 3:30:00 PM 9.49 49.082 0.502 9 4.19 13.02
11/12/2020 3:45:00 PM 9.51 49.118 0.502 9.03 4.23 13.02
11/12/2020 4:00:00 PM 9.47 49.046 0.503 9.04 4.06 12.99
11/12/2020 4:15:00 PM 9.45 49.01 0.503 9.06 3.94 12.94
11/12/2020 4:30:00 PM 9.39 48.902 0.504 9.04 4.13 12.91
11/12/2020 4:45:00 PM 9.3 48.74 0.505 9.09 3.87 12.78
11/12/2020 5:00:00 PM 9.22 48.596 0.506 9.08 3.95 12.67
11/12/2020 5:15:00 PM 9.13 48.434 0.507 9.07 4.34 12.53
11/12/2020 5:30:00 PM 9.01 48.218 0.509 9.05 4.12 12.38
11/12/2020 5:45:00 PM 8.91 48.038 0.51 9.02 3.93 12.27
11/12/2020 6:00:00 PM 8.74 47.732 0.512 8.98 4.06 12.12
11/12/2020 6:15:00 PM 8.65 47.57 0.513 8.96 4.09 12.02
11/12/2020 6:30:00 PM 8.5 47.3 0.515 8.91 4.12 11.91
11/12/2020 6:45:00 PM 8.36 47.048 0.516 8.87 4.1 11.82
11/12/2020 7:00:00 PM 8.23 46.814 0.517 8.83 4.31 11.74
11/12/2020 7:15:00 PM 8.14 46.652 0.519 8.79 4.21 11.68
11/12/2020 7:30:00 PM 7.97 46.346 0.521 8.74 4.23 11.6
11/12/2020 7:45:00 PM 7.92 46.256 0.522 8.69 4.26 11.56
11/12/2020 8:00:00 PM 7.8 46.04 0.523 8.62 4.36 11.5
11/12/2020 8:15:00 PM 7.71 45.878 0.524 8.57 4.01 11.47
11/12/2020 8:30:00 PM 7.56 45.608 0.525 8.5 4.22 11.44
11/12/2020 8:45:00 PM 7.48 45.464 0.525 8.45 4.47 11.42
11/12/2020 9:00:00 PM 7.41 45.338 0.526 8.41 4.12 11.4
11/12/2020 9:15:00 PM 7.27 45.086 0.525 8.36 4.22 11.41
11/12/2020 9:30:00 PM 7.19 44.942 0.525 8.34 4 11.4
11/12/2020 9:45:00 PM 7.11 44.798 0.525 8.31 4.03 11.41
11/12/2020 10:00:00 PM 7.05 44.69 0.525 8.29 4.36 11.41
11/12/2020 10:15:00 PM 6.92 44.456 0.523 8.25 4.15 11.44
11/12/2020 10:30:00 PM 6.88 44.384 0.524 8.24 4.25 11.43
11/12/2020 10:45:00 PM 6.76 44.168 0.522 8.22 4.04 11.46
11/12/2020 11:00:00 PM 6.68 44.024 0.522 8.2 3.93 11.46
11/12/2020 11:15:00 PM 6.6 43.88 0.521 8.18 4.17 11.47
11/12/2020 11:30:00 PM 6.52 43.736 0.521 8.17 4.87 11.48
11/12/2020 11:45:00 PM 6.49 43.682 0.521 8.16 5.08 11.47
11/13/2020 12:00:00 AM 6.39 43.502 0.52 8.15 4.16 11.51
11/13/2020 12:15:00 AM 6.31 43.358 0.52 8.13 4.13 11.53
11/13/2020 12:30:00 AM 6.21 43.178 0.519 8.12 4.19 11.55
11/13/2020 12:45:00 AM 6.18 43.124 0.519 8.11 4.52 11.55
11/13/2020 1:00:00 AM 6.07 42.926 0.518 8.1 3.89 11.58
11/13/2020 1:15:00 AM 6.02 42.836 0.519 8.09 4.11 11.58
11/13/2020 1:30:00 AM 5.94 42.692 0.518 8.09 3.89 11.6
11/13/2020 1:45:00 AM 5.84 42.512 0.517 8.07 3.92 11.63
11/13/2020 2:00:00 AM 5.79 42.422 0.517 8.07 3.95 11.66
11/13/2020 2:15:00 AM 5.7 42.26 0.516 8.06 4.71 11.68
11/13/2020 2:30:00 AM 5.65 42.17 0.516 8.04 4.09 11.69
11/13/2020 2:45:00 AM 5.56 42.008 0.516 8.04 3.85 11.71
11/13/2020 3:00:00 AM 5.5 41.9 0.516 8.02 4.11 11.73
11/13/2020 3:15:00 AM 5.39 41.702 0.515 8.02 4.03 11.77
11/13/2020 3:30:00 AM 5.36 41.648 0.515 8.01 3.93 11.77
11/13/2020 3:45:00 AM 5.28 41.504 0.514 8.01 3.61 11.8
11/13/2020 4:00:00 AM 5.2 41.36 0.513 8.01 3.83 11.83
11/13/2020 4:15:00 AM 5.13 41.234 0.514 8 3.67 11.85
11/13/2020 4:30:00 AM 5.09 41.162 0.514 7.99 3.74 11.84
11/13/2020 4:45:00 AM 4.99 40.982 0.515 7.98 3.66 11.88
11/13/2020 5:00:00 AM 4.91 40.838 0.514 7.97 3.7 11.9
11/13/2020 5:15:00 AM 4.93 40.874 0.516 7.96 3.76 11.87
11/13/2020 5:30:00 AM 4.78 40.604 0.514 7.97 3.89 11.94
11/13/2020 5:45:00 AM 4.71 40.478 0.515 7.95 3.65 11.96
11/13/2020 6:00:00 AM 4.62 40.316 0.514 7.95 3.75 11.99
11/13/2020 6:15:00 AM 4.63 40.334 0.516 7.95 3.81 11.97
11/13/2020 6:30:00 AM 4.57 40.226 0.516 7.94 3.78 11.97
11/13/2020 6:45:00 AM 4.55 40.19 0.516 7.94 3.65 11.97
11/13/2020 7:00:00 AM 4.4 39.92 0.514 7.94 3.59 12.03
11/13/2020 7:15:00 AM 4.38 39.884 0.514 7.93 3.7 12.05
11/13/2020 7:30:00 AM 4.33 39.794 0.514 7.92 3.76 12.05
11/13/2020 7:45:00 AM 4.28 39.704 0.514 7.92 3.69 12.09
11/13/2020 8:00:00 AM 4.21 39.578 0.512 7.92 3.69 12.14
11/13/2020 8:15:00 AM 4.18 39.524 0.512 7.93 3.9 12.2
11/13/2020 8:30:00 AM 4.14 39.452 0.511 7.92 3.58 12.23
11/13/2020 8:45:00 AM 4.13 39.434 0.511 7.93 3.55 12.29
11/13/2020 9:00:00 AM 4.12 39.416 0.51 7.95 3.55 12.39
11/13/2020 9:15:00 AM 4.1 39.38 0.509 7.96 3.54 12.51
11/13/2020 9:30:00 AM 4.12 39.416 0.509 7.98 3.5 12.59
11/13/2020 9:45:00 AM 4.16 39.488 0.508 7.99 3.5 12.7
11/13/2020